Time,TemperatureF,DewpointF,PressureIn,WindDirection,WindDirectionDegrees,WindSpeedMPH,WindSpeedGustMPH,Humidity,HourlyPrecipIn,Conditions,Clouds,dailyrainin,SoftwareType,DateUTC
2013-08-28 00:00:00,68.9,61.0,29.88,SSE,158,4.3,4.3,76,0.00,,,0.00,VWS V14.01,2013-08-27 14:00:00,
2013-08-28 00:01:00,68.9,61.0,29.88,South,180,4.0,4.0,76,0.00,,,0.00,VWS V14.01,2013-08-27 14:01:00,
2013-08-28 00:02:00,68.9,61.0,29.88,SW,225,2.0,4.0,76,0.00,,,0.00,VWS V14.01,2013-08-27 14:02:00,
2013-08-28 00:03:00,69.1,61.6,29.88,SW,225,2.9,2.9,77,0.00,,,0.00,VWS V14.01,2013-08-27 14:03:00,
2013-08-28 00:04:00,69.1,61.6,29.88,SSW,202,3.4,3.4,77,0.00,,,0.00,VWS V14.01,2013-08-27 14:04:00,
2013-08-28 00:05:00,69.1,61.6,29.88,SSW,202,3.4,3.4,77,0.00,,,0.00,VWS V14.01,2013-08-27 14:05:00,
2013-08-28 00:06:00,68.9,61.4,29.88,SSW,202,3.8,3.8,77,0.00,,,0.00,VWS V14.01,2013-08-27 14:06:00,
2013-08-28 00:07:00,68.9,61.4,29.88,SSW,202,3.8,3.8,77,0.00,,,0.00,VWS V14.01,2013-08-27 14:07:00,
2013-08-28 00:08:00,68.9,61.0,29.88,SSW,202,3.8,3.8,76,0.00,,,0.00,VWS V14.01,2013-08-27 14:08:00,
2013-08-28 00:09:00,68.9,61.0,29.88,South,180,2.9,3.8,76,0.00,,,0.00,VWS V14.01,2013-08-27 14:09:00,
2013-08-28 00:10:00,68.9,61.0,29.88,SSE,158,3.1,3.1,76,0.00,,,0.00,VWS V14.01,2013-08-27 14:10:00,
2013-08-28 00:11:00,68.9,61.4,29.88,SSE,158,3.6,3.6,77,0.00,,,0.00,VWS V14.01,2013-08-27 14:11:00,
2013-08-28 00:12:00,68.9,61.4,29.88,SE,135,5.8,5.8,77,0.00,,,0.00,VWS V14.01,2013-08-27 14:12:00,
2013-08-28 00:13:00,68.9,61.4,29.88,SE,135,5.8,5.8,77,0.00,,,0.00,VWS V14.01,2013-08-27 14:13:00,
2013-08-28 00:14:00,68.9,61.4,29.88,SE,135,5.8,5.8,77,0.00,,,0.00,VWS V14.01,2013-08-27 14:14:00,
2013-08-28 00:15:00,68.9,61.4,29.88,SSW,202,3.8,5.8,77,0.00,,,0.00,VWS V14.01,2013-08-27 14:15:00,
2013-08-28 00:16:00,68.9,61.4,29.88,SSE,158,4.3,4.9,77,0.00,,,0.00,VWS V14.01,2013-08-27 14:16:00,
2013-08-28 00:17:00,68.9,61.4,29.88,SSE,158,4.3,4.9,77,0.00,,,0.00,VWS V14.01,2013-08-27 14:17:00,
2013-08-28 00:18:00,68.9,61.4,29.88,SSE,158,4.3,4.3,77,0.00,,,0.00,VWS V14.01,2013-08-27 14:18:00,
2013-08-28 00:19:00,68.7,61.2,29.88,SSW,202,4.0,4.3,77,0.00,,,0.00,VWS V14.01,2013-08-27 14:19:00,
2013-08-28 00:20:00,68.7,61.2,29.88,SSW,202,4.0,4.0,77,0.00,,,0.00,VWS V14.01,2013-08-27 14:20:00,
2013-08-28 00:21:00,68.7,61.2,29.88,South,180,3.4,4.0,77,0.00,,,0.00,VWS V14.01,2013-08-27 14:21:00,
2013-08-28 00:22:00,68.7,61.2,29.88,South,180,3.4,4.0,77,0.00,,,0.00,VWS V14.01,2013-08-27 14:22:00,
2013-08-28 00:23:00,68.7,61.2,29.88,South,180,3.4,3.4,77,0.00,,,0.00,VWS V14.01,2013-08-27 14:23:00,
2013-08-28 00:24:00,68.7,61.2,29.88,SSE,158,2.9,3.4,77,0.00,,,0.00,VWS V14.01,2013-08-27 14:24:00,
2013-08-28 00:25:00,68.7,61.2,29.88,SSW,202,3.6,3.6,77,0.00,,,0.00,VWS V14.01,2013-08-27 14:25:00,
2013-08-28 00:26:00,68.5,61.0,29.88,SSW,202,3.6,3.6,77,0.00,,,0.00,VWS V14.01,2013-08-27 14:26:00,
2013-08-28 00:27:00,68.5,61.0,29.88,SSW,202,4.3,4.3,77,0.00,,,0.00,VWS V14.01,2013-08-27 14:27:00,
2013-08-28 00:28:00,68.5,61.0,29.88,SSW,202,4.3,4.3,77,0.00,,,0.00,VWS V14.01,2013-08-27 14:28:00,
2013-08-28 00:29:00,68.5,61.0,29.88,SSW,202,4.3,4.3,77,0.00,,,0.00,VWS V14.01,2013-08-27 14:29:00,
2013-08-28 00:30:00,68.5,61.0,29.88,SSW,202,4.3,4.3,77,0.00,,,0.00,VWS V14.01,2013-08-27 14:30:00,
2013-08-28 00:31:00,68.5,61.0,29.88,SSW,202,4.3,4.3,77,0.00,,,0.00,VWS V14.01,2013-08-27 14:31:00,
2013-08-28 00:32:00,68.5,61.0,29.88,South,180,3.4,4.3,77,0.00,,,0.00,VWS V14.01,2013-08-27 14:32:00,
2013-08-28 00:33:00,68.5,61.0,29.88,South,180,2.9,3.4,77,0.00,,,0.00,VWS V14.01,2013-08-27 14:33:00,
2013-08-28 00:34:00,68.5,61.0,29.88,South,180,2.7,2.9,77,0.00,,,0.00,VWS V14.01,2013-08-27 14:34:00,
2013-08-28 00:35:00,68.5,61.0,29.88,South,180,4.3,4.3,77,0.00,,,0.00,VWS V14.01,2013-08-27 14:35:00,
2013-08-28 00:36:00,68.4,60.9,29.88,SSW,202,2.9,4.3,77,0.00,,,0.00,VWS V14.01,2013-08-27 14:36:00,
2013-08-28 00:37:00,68.4,60.9,29.88,SSW,202,2.9,4.3,77,0.00,,,0.00,VWS V14.01,2013-08-27 14:37:00,
2013-08-28 00:38:00,68.4,60.9,29.88,SSW,202,2.9,2.9,77,0.00,,,0.00,VWS V14.01,2013-08-27 14:38:00,
2013-08-28 00:39:00,68.4,60.9,29.88,South,180,5.4,5.4,77,0.00,,,0.00,VWS V14.01,2013-08-27 14:39:00,
2013-08-28 00:40:00,68.4,60.9,29.88,South,180,5.4,5.4,77,0.00,,,0.00,VWS V14.01,2013-08-27 14:40:00,
2013-08-28 00:41:00,68.4,60.9,29.88,South,180,5.4,5.4,77,0.00,,,0.00,VWS V14.01,2013-08-27 14:41:00,
2013-08-28 00:42:00,68.4,60.9,29.88,SSW,202,5.4,5.4,77,0.00,,,0.00,VWS V14.01,2013-08-27 14:42:00,
2013-08-28 00:43:00,68.4,61.2,29.88,South,180,3.6,5.4,78,0.00,,,0.00,VWS V14.01,2013-08-27 14:43:00,
2013-08-28 00:44:00,68.4,61.2,29.88,SSE,158,4.0,4.0,78,0.00,,,0.00,VWS V14.01,2013-08-27 14:44:00,
2013-08-28 00:45:00,68.4,61.2,29.88,SSE,158,4.0,4.0,78,0.00,,,0.00,VWS V14.01,2013-08-27 14:45:00,
2013-08-28 00:46:00,68.4,61.2,29.88,SSE,158,2.7,2.7,78,0.00,,,0.00,VWS V14.01,2013-08-27 14:46:00,
2013-08-28 00:47:00,68.4,61.2,29.88,SSE,158,2.7,2.7,78,0.00,,,0.00,VWS V14.01,2013-08-27 14:47:00,
2013-08-28 00:48:00,68.4,61.2,29.88,South,180,6.3,6.3,78,0.00,,,0.00,VWS V14.01,2013-08-27 14:48:00,
2013-08-28 00:49:00,68.2,61.1,29.88,SSW,202,4.9,6.3,78,0.00,,,0.00,VWS V14.01,2013-08-27 14:49:00,
2013-08-28 00:50:00,68.2,61.1,29.88,SSW,202,4.9,4.9,78,0.00,,,0.00,VWS V14.01,2013-08-27 14:50:00,
2013-08-28 00:51:00,68.2,61.1,29.88,SSW,202,7.8,7.8,78,0.00,,,0.00,VWS V14.01,2013-08-27 14:51:00,
2013-08-28 00:52:00,68.2,61.1,29.88,SSW,202,7.8,7.8,78,0.00,,,0.00,VWS V14.01,2013-08-27 14:52:00,
2013-08-28 00:53:00,68.2,61.1,29.88,South,180,5.8,7.8,78,0.00,,,0.00,VWS V14.01,2013-08-27 14:53:00,
2013-08-28 00:54:00,68.0,60.9,29.88,SSE,158,4.3,5.8,78,0.00,,,0.00,VWS V14.01,2013-08-27 14:54:00,
2013-08-28 00:55:00,68.0,60.9,29.88,SSE,158,4.3,4.3,78,0.00,,,0.00,VWS V14.01,2013-08-27 14:55:00,
2013-08-28 00:56:00,68.0,60.9,29.88,SSW,202,3.8,3.8,78,0.00,,,0.00,VWS V14.01,2013-08-27 14:56:00,
2013-08-28 00:57:00,68.2,61.1,29.88,South,180,4.0,4.0,78,0.00,,,0.00,VWS V14.01,2013-08-27 14:57:00,
2013-08-28 00:58:00,68.2,61.1,29.88,SSE,158,2.7,4.0,78,0.00,,,0.00,VWS V14.01,2013-08-27 14:58:00,
2013-08-28 00:59:00,68.2,61.1,29.88,SSE,158,2.7,2.7,78,0.00,,,0.00,VWS V14.01,2013-08-27 14:59:00,
2013-08-28 01:00:00,68.2,61.1,29.88,SSE,158,2.7,2.7,78,0.00,,,0.00,VWS V14.01,2013-08-27 15:00:00,
2013-08-28 01:01:00,68.0,60.9,29.88,South,180,2.2,3.4,78,0.00,,,0.00,VWS V14.01,2013-08-27 15:01:00,
2013-08-28 01:02:00,68.0,60.9,29.88,South,180,2.2,3.4,78,0.00,,,0.00,VWS V14.01,2013-08-27 15:02:00,
2013-08-28 01:03:00,68.0,60.9,29.88,South,180,1.6,2.2,78,0.00,,,0.00,VWS V14.01,2013-08-27 15:03:00,
2013-08-28 01:04:00,68.0,60.9,29.88,South,180,1.6,1.6,78,0.00,,,0.00,VWS V14.01,2013-08-27 15:04:00,
2013-08-28 01:05:00,68.0,60.9,29.88,SSE,158,4.0,4.0,78,0.00,,,0.00,VWS V14.01,2013-08-27 15:05:00,
2013-08-28 01:06:00,68.0,60.9,29.88,SSW,202,2.5,4.0,78,0.00,,,0.00,VWS V14.01,2013-08-27 15:06:00,
2013-08-28 01:07:00,68.0,60.9,29.88,SSW,202,6.3,6.3,78,0.00,,,0.00,VWS V14.01,2013-08-27 15:07:00,
2013-08-28 01:08:00,67.8,60.7,29.88,SSW,202,6.3,6.3,78,0.00,,,0.00,VWS V14.01,2013-08-27 15:08:00,
2013-08-28 01:09:00,67.8,60.7,29.88,South,180,2.9,6.3,78,0.00,,,0.00,VWS V14.01,2013-08-27 15:09:00,
2013-08-28 01:10:00,68.0,60.9,29.88,South,180,2.9,2.9,78,0.00,,,0.00,VWS V14.01,2013-08-27 15:10:00,
2013-08-28 01:11:00,68.0,60.9,29.85,SE,135,3.4,3.4,78,0.00,,,0.00,VWS V14.01,2013-08-27 15:11:00,
2013-08-28 01:12:00,67.8,61.1,29.85,SE,135,3.4,3.4,79,0.00,,,0.00,VWS V14.01,2013-08-27 15:12:00,
2013-08-28 01:13:00,67.8,61.1,29.85,SE,135,3.4,3.4,79,0.00,,,0.00,VWS V14.01,2013-08-27 15:13:00,
2013-08-28 01:14:00,67.8,61.1,29.85,SSW,202,3.8,3.8,79,0.00,,,0.00,VWS V14.01,2013-08-27 15:14:00,
2013-08-28 01:15:00,67.6,60.9,29.85,SSW,202,3.8,3.8,79,0.00,,,0.00,VWS V14.01,2013-08-27 15:15:00,
2013-08-28 01:16:00,67.6,60.9,29.85,SSW,202,3.8,3.8,79,0.00,,,0.00,VWS V14.01,2013-08-27 15:16:00,
2013-08-28 01:17:00,67.8,61.1,29.85,SSW,202,3.8,3.8,79,0.00,,,0.00,VWS V14.01,2013-08-27 15:17:00,
2013-08-28 01:18:00,67.8,61.1,29.85,SSW,202,3.8,3.8,79,0.00,,,0.00,VWS V14.01,2013-08-27 15:18:00,
2013-08-28 01:19:00,67.8,61.1,29.85,SSW,202,3.8,3.8,79,0.00,,,0.00,VWS V14.01,2013-08-27 15:19:00,
2013-08-28 01:20:00,67.8,61.1,29.85,SSE,158,3.8,3.8,79,0.00,,,0.00,VWS V14.01,2013-08-27 15:20:00,
2013-08-28 01:21:00,67.8,61.1,29.85,South,180,4.0,4.0,79,0.00,,,0.00,VWS V14.01,2013-08-27 15:21:00,
2013-08-28 01:22:00,67.8,61.1,29.85,SSW,202,3.6,4.0,79,0.00,,,0.00,VWS V14.01,2013-08-27 15:22:00,
2013-08-28 01:23:00,67.8,61.1,29.85,WSW,248,3.8,3.8,79,0.00,,,0.00,VWS V14.01,2013-08-27 15:23:00,
2013-08-28 01:24:00,67.8,61.1,29.85,South,180,2.9,3.8,79,0.00,,,0.00,VWS V14.01,2013-08-27 15:24:00,
2013-08-28 01:25:00,67.8,61.1,29.85,SSE,158,4.3,4.3,79,0.00,,,0.00,VWS V14.01,2013-08-27 15:25:00,
2013-08-28 01:26:00,67.8,61.1,29.85,SSE,158,4.3,4.3,79,0.00,,,0.00,VWS V14.01,2013-08-27 15:26:00,
2013-08-28 01:27:00,67.8,61.1,29.85,SSE,158,4.3,4.3,79,0.00,,,0.00,VWS V14.01,2013-08-27 15:27:00,
2013-08-28 01:28:00,67.8,61.1,29.85,South,180,1.6,4.3,79,0.00,,,0.00,VWS V14.01,2013-08-27 15:28:00,
2013-08-28 01:29:00,67.8,61.1,29.85,SE,135,2.7,2.7,79,0.00,,,0.00,VWS V14.01,2013-08-27 15:29:00,
2013-08-28 01:30:00,67.8,61.1,29.85,South,180,5.4,5.4,79,0.00,,,0.00,VWS V14.01,2013-08-27 15:30:00,
2013-08-28 01:31:00,67.8,61.1,29.85,SSE,158,1.3,5.4,79,0.00,,,0.00,VWS V14.01,2013-08-27 15:31:00,
2013-08-28 01:32:00,67.8,61.1,29.85,South,180,3.8,3.8,79,0.00,,,0.00,VWS V14.01,2013-08-27 15:32:00,
2013-08-28 01:33:00,67.6,60.9,29.85,South,180,3.8,3.8,79,0.00,,,0.00,VWS V14.01,2013-08-27 15:33:00,
2013-08-28 01:34:00,67.6,60.9,29.85,South,180,3.8,3.8,79,0.00,,,0.00,VWS V14.01,2013-08-27 15:34:00,
2013-08-28 01:35:00,67.8,61.1,29.85,South,180,3.8,3.8,79,0.00,,,0.00,VWS V14.01,2013-08-27 15:35:00,
2013-08-28 01:36:00,67.6,60.9,29.85,SSW,202,3.4,3.8,79,0.00,,,0.00,VWS V14.01,2013-08-27 15:36:00,
2013-08-28 01:37:00,67.6,60.9,29.85,South,180,2.9,3.4,79,0.00,,,0.00,VWS V14.01,2013-08-27 15:37:00,
2013-08-28 01:38:00,67.6,60.9,29.85,ESE,112,3.1,3.1,79,0.00,,,0.00,VWS V14.01,2013-08-27 15:38:00,
2013-08-28 01:39:00,67.6,60.9,29.85,SSE,158,4.0,4.0,79,0.00,,,0.00,VWS V14.01,2013-08-27 15:39:00,
2013-08-28 01:40:00,67.6,60.9,29.85,SE,135,3.8,4.0,79,0.00,,,0.00,VWS V14.01,2013-08-27 15:40:00,
2013-08-28 01:41:00,67.6,60.9,29.85,SE,135,3.8,3.8,79,0.00,,,0.00,VWS V14.01,2013-08-27 15:41:00,
2013-08-28 01:42:00,67.6,60.9,29.85,SE,135,3.8,3.8,79,0.00,,,0.00,VWS V14.01,2013-08-27 15:42:00,
2013-08-28 01:43:00,67.6,60.9,29.85,South,180,3.4,3.4,79,0.00,,,0.00,VWS V14.01,2013-08-27 15:43:00,
2013-08-28 01:44:00,67.6,60.9,29.85,South,180,0.0,3.4,79,0.00,,,0.00,VWS V14.01,2013-08-27 15:44:00,
2013-08-28 01:45:00,67.6,60.9,29.85,South,180,0.0,0.0,79,0.00,,,0.00,VWS V14.01,2013-08-27 15:45:00,
2013-08-28 01:46:00,67.6,60.9,29.85,South,180,0.0,0.0,79,0.00,,,0.00,VWS V14.01,2013-08-27 15:46:00,
2013-08-28 01:47:00,67.6,60.9,29.85,SSE,158,3.6,3.6,79,0.00,,,0.00,VWS V14.01,2013-08-27 15:47:00,
2013-08-28 01:48:00,67.6,60.9,29.85,SSE,158,3.6,3.6,79,0.00,,,0.00,VWS V14.01,2013-08-27 15:48:00,
2013-08-28 01:49:00,67.6,60.9,29.85,SSE,158,3.6,3.6,79,0.00,,,0.00,VWS V14.01,2013-08-27 15:49:00,
2013-08-28 01:50:00,67.8,61.1,29.85,SSW,202,4.0,4.0,79,0.00,,,0.00,VWS V14.01,2013-08-27 15:50:00,
2013-08-28 01:51:00,67.6,60.9,29.85,SSW,202,4.0,4.0,79,0.00,,,0.00,VWS V14.01,2013-08-27 15:51:00,
2013-08-28 01:52:00,67.6,60.9,29.85,SSW,202,2.7,2.7,79,0.00,,,0.00,VWS V14.01,2013-08-27 15:52:00,
2013-08-28 01:53:00,67.6,60.9,29.85,SSW,202,2.7,2.7,79,0.00,,,0.00,VWS V14.01,2013-08-27 15:53:00,
2013-08-28 01:54:00,67.6,60.9,29.85,SE,135,2.7,2.7,79,0.00,,,0.00,VWS V14.01,2013-08-27 15:54:00,
2013-08-28 01:55:00,67.6,60.9,29.85,SE,135,2.7,2.7,79,0.00,,,0.00,VWS V14.01,2013-08-27 15:55:00,
2013-08-28 01:56:00,67.6,60.9,29.85,SE,135,2.7,2.7,79,0.00,,,0.00,VWS V14.01,2013-08-27 15:56:00,
2013-08-28 01:57:00,67.8,61.1,29.85,SE,135,2.7,2.7,79,0.00,,,0.00,VWS V14.01,2013-08-27 15:57:00,
2013-08-28 01:58:00,67.6,60.9,29.85,South,180,1.1,2.7,79,0.00,,,0.00,VWS V14.01,2013-08-27 15:58:00,
2013-08-28 01:59:00,67.6,60.9,29.85,South,180,1.1,1.1,79,0.00,,,0.00,VWS V14.01,2013-08-27 15:59:00,
2013-08-28 02:00:00,67.6,60.9,29.85,SSE,158,2.5,2.5,79,0.00,,,0.00,VWS V14.01,2013-08-27 16:00:00,
2013-08-28 02:01:00,67.6,60.9,29.85,South,180,4.0,4.0,79,0.00,,,0.00,VWS V14.01,2013-08-27 16:01:00,
2013-08-28 02:02:00,67.5,60.7,29.85,South,180,4.0,4.0,79,0.00,,,0.00,VWS V14.01,2013-08-27 16:02:00,
2013-08-28 02:03:00,67.5,60.7,29.85,South,180,4.0,4.0,79,0.00,,,0.00,VWS V14.01,2013-08-27 16:03:00,
2013-08-28 02:04:00,67.5,60.7,29.85,SSE,158,2.7,4.0,79,0.00,,,0.00,VWS V14.01,2013-08-27 16:04:00,
2013-08-28 02:05:00,67.5,60.7,29.85,South,180,3.1,3.1,79,0.00,,,0.00,VWS V14.01,2013-08-27 16:05:00,
2013-08-28 02:06:00,67.5,60.7,29.85,South,180,3.1,3.1,79,0.00,,,0.00,VWS V14.01,2013-08-27 16:06:00,
2013-08-28 02:07:00,67.5,60.7,29.85,South,180,3.1,3.1,79,0.00,,,0.00,VWS V14.01,2013-08-27 16:07:00,
2013-08-28 02:09:00,67.3,60.5,29.85,SSE,158,5.4,5.4,79,0.00,,,0.00,VWS V14.01,2013-08-27 16:09:00,
2013-08-28 02:10:00,67.3,60.5,29.85,SSE,158,5.4,5.4,79,0.00,,,0.00,VWS V14.01,2013-08-27 16:10:00,
2013-08-28 02:11:00,67.3,60.5,29.85,SSE,158,5.4,5.4,79,0.00,,,0.00,VWS V14.01,2013-08-27 16:11:00,
2013-08-28 02:12:00,67.3,60.5,29.85,SSE,158,4.3,4.3,79,0.00,,,0.00,VWS V14.01,2013-08-27 16:12:00,
2013-08-28 02:13:00,67.3,60.5,29.85,SSE,158,4.3,4.3,79,0.00,,,0.00,VWS V14.01,2013-08-27 16:13:00,
2013-08-28 02:14:00,67.3,60.5,29.85,SW,225,2.9,4.3,79,0.00,,,0.00,VWS V14.01,2013-08-27 16:14:00,
2013-08-28 02:15:00,67.3,60.5,29.85,SW,225,2.9,2.9,79,0.00,,,0.00,VWS V14.01,2013-08-27 16:15:00,
2013-08-28 02:16:00,67.3,60.5,29.85,SW,225,2.9,2.9,79,0.00,,,0.00,VWS V14.01,2013-08-27 16:16:00,
2013-08-28 02:17:00,67.3,60.5,29.85,SW,225,2.9,2.9,79,0.00,,,0.00,VWS V14.01,2013-08-27 16:17:00,
2013-08-28 02:18:00,67.3,60.5,29.85,SW,225,2.9,2.9,79,0.00,,,0.00,VWS V14.01,2013-08-27 16:18:00,
2013-08-28 02:19:00,67.3,60.5,29.85,SW,225,2.9,2.9,79,0.00,,,0.00,VWS V14.01,2013-08-27 16:19:00,
2013-08-28 02:20:00,67.3,60.5,29.82,SSE,158,3.4,3.4,79,0.00,,,0.00,VWS V14.01,2013-08-27 16:20:00,
2013-08-28 02:21:00,67.5,60.7,29.82,SSE,158,3.4,3.4,79,0.00,,,0.00,VWS V14.01,2013-08-27 16:21:00,
2013-08-28 02:22:00,67.5,60.7,29.82,SSE,158,2.9,2.9,79,0.00,,,0.00,VWS V14.01,2013-08-27 16:22:00,
2013-08-28 02:23:00,67.5,60.7,29.82,SSE,158,2.9,2.9,79,0.00,,,0.00,VWS V14.01,2013-08-27 16:23:00,
2013-08-28 02:24:00,67.5,60.7,29.82,SSE,158,2.7,2.9,79,0.00,,,0.00,VWS V14.01,2013-08-27 16:24:00,
2013-08-28 02:25:00,67.3,60.5,29.82,SSE,158,2.7,2.7,79,0.00,,,0.00,VWS V14.01,2013-08-27 16:25:00,
2013-08-28 02:26:00,67.3,60.5,29.82,SSE,158,2.7,2.7,79,0.00,,,0.00,VWS V14.01,2013-08-27 16:26:00,
2013-08-28 02:27:00,67.3,60.5,29.82,SSE,158,2.7,2.7,79,0.00,,,0.00,VWS V14.01,2013-08-27 16:27:00,
2013-08-28 02:28:00,67.3,60.5,29.82,SSE,158,2.7,2.7,79,0.00,,,0.00,VWS V14.01,2013-08-27 16:28:00,
2013-08-28 02:29:00,67.3,60.5,29.82,SSE,158,2.7,2.7,79,0.00,,,0.00,VWS V14.01,2013-08-27 16:29:00,
2013-08-28 02:30:00,67.3,60.5,29.82,SSE,158,2.7,2.7,79,0.00,,,0.00,VWS V14.01,2013-08-27 16:30:00,
2013-08-28 02:31:00,67.3,60.5,29.82,South,180,4.0,4.0,79,0.00,,,0.00,VWS V14.01,2013-08-27 16:31:00,
2013-08-28 02:32:00,67.3,60.5,29.82,South,180,2.9,2.9,79,0.00,,,0.00,VWS V14.01,2013-08-27 16:32:00,
2013-08-28 02:33:00,67.3,60.5,29.82,South,180,2.9,2.9,79,0.00,,,0.00,VWS V14.01,2013-08-27 16:33:00,
2013-08-28 02:34:00,67.3,60.5,29.82,South,180,4.3,4.3,79,0.00,,,0.00,VWS V14.01,2013-08-27 16:34:00,
2013-08-28 02:35:00,67.3,60.5,29.82,South,180,4.3,4.3,79,0.00,,,0.00,VWS V14.01,2013-08-27 16:35:00,
2013-08-28 02:36:00,67.3,60.5,29.82,South,180,4.3,4.3,79,0.00,,,0.00,VWS V14.01,2013-08-27 16:36:00,
2013-08-28 02:37:00,67.3,60.5,29.82,South,180,3.1,3.1,79,0.00,,,0.00,VWS V14.01,2013-08-27 16:37:00,
2013-08-28 02:38:00,67.3,60.5,29.82,South,180,3.1,3.1,79,0.00,,,0.00,VWS V14.01,2013-08-27 16:38:00,
2013-08-28 02:39:00,67.3,60.5,29.82,South,180,3.1,3.1,79,0.00,,,0.00,VWS V14.01,2013-08-27 16:39:00,
2013-08-28 02:40:00,67.3,60.5,29.82,South,180,3.1,3.1,79,0.00,,,0.00,VWS V14.01,2013-08-27 16:40:00,
2013-08-28 02:41:00,67.1,60.4,29.82,South,180,3.1,3.1,79,0.00,,,0.00,VWS V14.01,2013-08-27 16:41:00,
2013-08-28 02:42:00,67.1,60.4,29.82,SSE,158,2.7,3.8,79,0.00,,,0.00,VWS V14.01,2013-08-27 16:42:00,
2013-08-28 02:43:00,67.1,60.4,29.82,SSE,158,2.7,3.8,79,0.00,,,0.00,VWS V14.01,2013-08-27 16:43:00,
2013-08-28 02:44:00,67.1,60.4,29.82,SSE,158,4.9,4.9,79,0.00,,,0.00,VWS V14.01,2013-08-27 16:44:00,
2013-08-28 02:45:00,67.1,60.4,29.82,SSE,158,7.2,7.2,79,0.00,,,0.00,VWS V14.01,2013-08-27 16:45:00,
2013-08-28 02:46:00,67.1,60.4,29.82,SSE,158,4.9,7.2,79,0.00,,,0.00,VWS V14.01,2013-08-27 16:46:00,
2013-08-28 02:47:00,67.1,60.4,29.82,SSE,158,4.9,4.9,79,0.00,,,0.00,VWS V14.01,2013-08-27 16:47:00,
2013-08-28 02:48:00,67.1,60.4,29.82,SSE,158,4.9,4.9,79,0.00,,,0.00,VWS V14.01,2013-08-27 16:48:00,
2013-08-28 02:49:00,67.1,60.4,29.82,SSE,158,4.9,4.9,79,0.00,,,0.00,VWS V14.01,2013-08-27 16:49:00,
2013-08-28 02:50:00,67.1,60.4,29.82,SSE,158,4.9,4.9,79,0.00,,,0.00,VWS V14.01,2013-08-27 16:50:00,
2013-08-28 02:51:00,67.1,60.4,29.82,SSE,158,4.9,4.9,79,0.00,,,0.00,VWS V14.01,2013-08-27 16:51:00,
2013-08-28 02:52:00,67.1,60.4,29.82,SSW,202,3.8,3.8,79,0.00,,,0.00,VWS V14.01,2013-08-27 16:52:00,
2013-08-28 02:53:00,67.1,60.4,29.82,SSW,202,3.8,3.8,79,0.00,,,0.00,VWS V14.01,2013-08-27 16:53:00,
2013-08-28 02:54:00,67.1,60.4,29.82,SSW,202,3.8,3.8,79,0.00,,,0.00,VWS V14.01,2013-08-27 16:54:00,
2013-08-28 02:55:00,67.1,60.4,29.82,SSE,158,6.3,6.3,79,0.00,,,0.00,VWS V14.01,2013-08-27 16:55:00,
2013-08-28 02:56:00,67.1,60.4,29.82,SSE,158,6.3,6.3,79,0.00,,,0.00,VWS V14.01,2013-08-27 16:56:00,
2013-08-28 02:57:00,67.1,60.4,29.82,SE,135,3.6,3.6,79,0.00,,,0.00,VWS V14.01,2013-08-27 16:57:00,
2013-08-28 02:58:00,67.1,60.4,29.82,SE,135,3.6,3.6,79,0.00,,,0.00,VWS V14.01,2013-08-27 16:58:00,
2013-08-28 02:59:00,67.1,60.4,29.82,SE,135,3.6,3.6,79,0.00,,,0.00,VWS V14.01,2013-08-27 16:59:00,
2013-08-28 03:00:00,67.1,60.4,29.82,SSW,202,4.0,4.0,79,0.00,,,0.00,VWS V14.01,2013-08-27 17:00:00,
2013-08-28 03:01:00,67.1,60.4,29.82,SSW,202,4.0,4.0,79,0.00,,,0.00,VWS V14.01,2013-08-27 17:01:00,
2013-08-28 03:02:00,67.1,60.4,29.82,SSE,158,5.6,5.6,79,0.00,,,0.00,VWS V14.01,2013-08-27 17:02:00,
2013-08-28 03:03:00,67.1,60.4,29.82,SSE,158,5.6,5.6,79,0.00,,,0.00,VWS V14.01,2013-08-27 17:03:00,
2013-08-28 03:04:00,67.1,60.4,29.82,SSW,202,2.9,5.6,79,0.00,,,0.00,VWS V14.01,2013-08-27 17:04:00,
2013-08-28 03:05:00,67.1,60.4,29.82,South,180,3.1,3.1,79,0.00,,,0.00,VWS V14.01,2013-08-27 17:05:00,
2013-08-28 03:06:00,67.1,60.4,29.82,SSE,158,2.9,3.1,79,0.00,,,0.00,VWS V14.01,2013-08-27 17:06:00,
2013-08-28 03:07:00,67.1,60.4,29.82,SSE,158,2.9,2.9,79,0.00,,,0.00,VWS V14.01,2013-08-27 17:07:00,
2013-08-28 03:08:00,67.1,60.4,29.82,SSW,202,3.1,3.1,79,0.00,,,0.00,VWS V14.01,2013-08-27 17:08:00,
2013-08-28 03:09:00,67.1,60.4,29.82,SSW,202,3.1,3.1,79,0.00,,,0.00,VWS V14.01,2013-08-27 17:09:00,
2013-08-28 03:10:00,67.1,60.4,29.82,SSW,202,3.1,3.1,79,0.00,,,0.00,VWS V14.01,2013-08-27 17:10:00,
2013-08-28 03:11:00,67.1,60.4,29.82,SSW,202,3.1,3.1,79,0.00,,,0.00,VWS V14.01,2013-08-27 17:11:00,
2013-08-28 03:12:00,66.9,60.2,29.82,SSE,158,2.0,3.1,79,0.00,,,0.00,VWS V14.01,2013-08-27 17:12:00,
2013-08-28 03:13:00,66.9,60.2,29.82,SSE,158,3.8,3.8,79,0.00,,,0.00,VWS V14.01,2013-08-27 17:13:00,
2013-08-28 03:14:00,66.9,60.2,29.82,SSW,202,5.8,5.8,79,0.00,,,0.00,VWS V14.01,2013-08-27 17:14:00,
2013-08-28 03:15:00,66.9,60.2,29.82,South,180,3.8,5.8,79,0.00,,,0.00,VWS V14.01,2013-08-27 17:15:00,
2013-08-28 03:16:00,66.9,60.2,29.82,South,180,3.4,3.8,79,0.00,,,0.00,VWS V14.01,2013-08-27 17:16:00,
2013-08-28 03:17:00,67.1,60.4,29.82,South,180,2.7,3.4,79,0.00,,,0.00,VWS V14.01,2013-08-27 17:17:00,
2013-08-28 03:18:00,67.1,60.4,29.82,South,180,2.5,2.7,79,0.00,,,0.00,VWS V14.01,2013-08-27 17:18:00,
2013-08-28 03:19:00,67.1,60.4,29.82,SSW,202,4.3,4.3,79,0.00,,,0.00,VWS V14.01,2013-08-27 17:19:00,
2013-08-28 03:20:00,67.1,60.4,29.82,SW,225,4.3,4.3,79,0.00,,,0.00,VWS V14.01,2013-08-27 17:20:00,
2013-08-28 03:21:00,67.1,60.4,29.82,SW,225,4.3,4.3,79,0.00,,,0.00,VWS V14.01,2013-08-27 17:21:00,
2013-08-28 03:22:00,67.1,60.4,29.82,SW,225,4.3,4.3,79,0.00,,,0.00,VWS V14.01,2013-08-27 17:22:00,
2013-08-28 03:23:00,67.1,60.4,29.82,SW,225,4.3,4.3,79,0.00,,,0.00,VWS V14.01,2013-08-27 17:23:00,
2013-08-28 03:24:00,67.1,60.4,29.82,SSW,202,2.5,4.3,79,0.00,,,0.00,VWS V14.01,2013-08-27 17:24:00,
2013-08-28 03:25:00,67.1,60.4,29.82,SSW,202,3.4,3.4,79,0.00,,,0.00,VWS V14.01,2013-08-27 17:25:00,
2013-08-28 03:26:00,67.1,60.4,29.82,SSW,202,2.9,3.4,79,0.00,,,0.00,VWS V14.01,2013-08-27 17:26:00,
2013-08-28 03:27:00,67.1,60.4,29.82,SSW,202,2.9,2.9,79,0.00,,,0.00,VWS V14.01,2013-08-27 17:27:00,
2013-08-28 03:28:00,67.1,60.4,29.82,SSW,202,6.3,6.3,79,0.00,,,0.00,VWS V14.01,2013-08-27 17:28:00,
2013-08-28 03:29:00,67.1,60.4,29.82,SW,225,2.5,6.3,79,0.00,,,0.00,VWS V14.01,2013-08-27 17:29:00,
2013-08-28 03:30:00,67.1,60.4,29.82,SW,225,2.0,2.5,79,0.00,,,0.00,VWS V14.01,2013-08-27 17:30:00,
2013-08-28 03:31:00,67.3,60.5,29.82,SSE,158,2.9,2.9,79,0.00,,,0.00,VWS V14.01,2013-08-27 17:31:00,
2013-08-28 03:32:00,67.3,60.5,29.82,SSE,158,2.9,2.9,79,0.00,,,0.00,VWS V14.01,2013-08-27 17:32:00,
2013-08-28 03:33:00,67.3,60.5,29.82,SSE,158,1.6,2.9,79,0.00,,,0.00,VWS V14.01,2013-08-27 17:33:00,
2013-08-28 03:34:00,67.3,60.5,29.82,SSE,158,3.1,3.1,79,0.00,,,0.00,VWS V14.01,2013-08-27 17:34:00,
2013-08-28 03:35:00,67.3,60.5,29.82,SSE,158,3.1,3.1,79,0.00,,,0.00,VWS V14.01,2013-08-27 17:35:00,
2013-08-28 03:36:00,67.3,60.5,29.82,South,180,2.9,3.1,79,0.00,,,0.00,VWS V14.01,2013-08-27 17:36:00,
2013-08-28 03:37:00,67.3,60.5,29.82,SSW,202,3.1,3.1,79,0.00,,,0.00,VWS V14.01,2013-08-27 17:37:00,
2013-08-28 03:38:00,67.1,60.4,29.82,SSW,202,3.1,3.1,79,0.00,,,0.00,VWS V14.01,2013-08-27 17:38:00,
2013-08-28 03:39:00,67.1,60.4,29.82,SSW,202,3.1,3.1,79,0.00,,,0.00,VWS V14.01,2013-08-27 17:39:00,
2013-08-28 03:40:00,67.1,60.4,29.82,SSW,202,3.1,3.1,79,0.00,,,0.00,VWS V14.01,2013-08-27 17:40:00,
2013-08-28 03:41:00,67.1,60.4,29.82,SSW,202,3.1,3.1,79,0.00,,,0.00,VWS V14.01,2013-08-27 17:41:00,
2013-08-28 03:42:00,66.9,60.2,29.82,SSW,202,3.1,3.1,79,0.00,,,0.00,VWS V14.01,2013-08-27 17:42:00,
2013-08-28 03:43:00,66.9,60.2,29.82,SSW,202,3.1,3.1,79,0.00,,,0.00,VWS V14.01,2013-08-27 17:43:00,
2013-08-28 03:44:00,66.9,60.2,29.82,South,180,3.6,3.6,79,0.00,,,0.00,VWS V14.01,2013-08-27 17:44:00,
2013-08-28 03:45:00,66.9,60.2,29.82,South,180,3.6,3.6,79,0.00,,,0.00,VWS V14.01,2013-08-27 17:45:00,
2013-08-28 03:46:00,66.9,60.2,29.82,South,180,3.6,3.6,79,0.00,,,0.00,VWS V14.01,2013-08-27 17:46:00,
2013-08-28 03:47:00,66.9,60.2,29.82,SE,135,2.9,3.6,79,0.00,,,0.00,VWS V14.01,2013-08-27 17:47:00,
2013-08-28 03:48:00,66.9,60.2,29.82,SE,135,2.9,2.9,79,0.00,,,0.00,VWS V14.01,2013-08-27 17:48:00,
2013-08-28 03:49:00,66.9,60.2,29.82,SE,135,2.9,2.9,79,0.00,,,0.00,VWS V14.01,2013-08-27 17:49:00,
2013-08-28 03:50:00,66.9,60.2,29.82,South,180,2.7,2.9,79,0.00,,,0.00,VWS V14.01,2013-08-27 17:50:00,
2013-08-28 03:51:00,66.9,60.2,29.82,South,180,2.7,2.7,79,0.00,,,0.00,VWS V14.01,2013-08-27 17:51:00,
2013-08-28 03:52:00,66.9,60.2,29.82,SSE,158,6.0,6.0,79,0.00,,,0.00,VWS V14.01,2013-08-27 17:52:00,
2013-08-28 03:53:00,66.9,60.2,29.82,South,180,3.8,6.0,79,0.00,,,0.00,VWS V14.01,2013-08-27 17:53:00,
2013-08-28 03:54:00,66.9,60.2,29.82,South,180,3.6,3.8,79,0.00,,,0.00,VWS V14.01,2013-08-27 17:54:00,
2013-08-28 03:55:00,66.9,60.2,29.82,South,180,3.6,3.6,79,0.00,,,0.00,VWS V14.01,2013-08-27 17:55:00,
2013-08-28 03:56:00,66.9,60.2,29.82,South,180,3.6,3.6,79,0.00,,,0.00,VWS V14.01,2013-08-27 17:56:00,
2013-08-28 03:57:00,66.9,60.2,29.82,South,180,3.6,3.6,79,0.00,,,0.00,VWS V14.01,2013-08-27 17:57:00,
2013-08-28 03:58:00,66.7,60.0,29.82,South,180,3.6,3.6,79,0.00,,,0.00,VWS V14.01,2013-08-27 17:58:00,
2013-08-28 03:59:00,66.9,60.2,29.82,South,180,3.6,3.6,79,0.00,,,0.00,VWS V14.01,2013-08-27 17:59:00,
2013-08-28 04:00:00,66.9,60.2,29.82,South,180,3.6,3.6,79,0.00,,,0.00,VWS V14.01,2013-08-27 18:00:00,
2013-08-28 04:01:00,66.9,60.2,29.82,South,180,3.6,3.6,79,0.00,,,0.00,VWS V14.01,2013-08-27 18:01:00,
2013-08-28 04:02:00,66.9,60.2,29.82,South,180,3.6,3.6,79,0.00,,,0.00,VWS V14.01,2013-08-27 18:02:00,
2013-08-28 04:03:00,66.9,60.2,29.82,SE,135,2.0,3.6,79,0.00,,,0.00,VWS V14.01,2013-08-27 18:03:00,
2013-08-28 04:04:00,66.9,60.2,29.82,SE,135,2.0,2.0,79,0.00,,,0.00,VWS V14.01,2013-08-27 18:04:00,
2013-08-28 04:05:00,67.1,60.4,29.82,SE,135,2.0,2.0,79,0.00,,,0.00,VWS V14.01,2013-08-27 18:05:00,
2013-08-28 04:06:00,67.1,60.4,29.82,SE,135,0.0,2.0,79,0.00,,,0.00,VWS V14.01,2013-08-27 18:06:00,
2013-08-28 04:07:00,67.1,60.4,29.82,SE,135,0.0,0.0,79,0.00,,,0.00,VWS V14.01,2013-08-27 18:07:00,
2013-08-28 04:08:00,66.9,60.2,29.82,SE,135,0.0,0.0,79,0.00,,,0.00,VWS V14.01,2013-08-27 18:08:00,
2013-08-28 04:09:00,66.9,60.2,29.82,SE,135,0.0,0.0,79,0.00,,,0.00,VWS V14.01,2013-08-27 18:09:00,
2013-08-28 04:10:00,66.7,60.0,29.82,SE,135,0.0,0.0,79,0.00,,,0.00,VWS V14.01,2013-08-27 18:10:00,
2013-08-28 04:11:00,66.7,60.0,29.82,SE,135,0.0,0.0,79,0.00,,,0.00,VWS V14.01,2013-08-27 18:11:00,
2013-08-28 04:12:00,66.9,60.2,29.82,NNE,22,0.0,1.1,79,0.00,,,0.00,VWS V14.01,2013-08-27 18:12:00,
2013-08-28 04:13:00,66.9,60.2,29.82,NNE,22,0.0,0.0,79,0.00,,,0.00,VWS V14.01,2013-08-27 18:13:00,
2013-08-28 04:14:00,66.9,60.6,29.82,NE,45,0.0,0.0,80,0.00,,,0.00,VWS V14.01,2013-08-27 18:14:00,
2013-08-28 04:15:00,66.7,60.4,29.82,NE,45,0.0,0.0,80,0.00,,,0.00,VWS V14.01,2013-08-27 18:15:00,
2013-08-28 04:16:00,66.7,60.4,29.82,NE,45,0.0,0.0,80,0.00,,,0.00,VWS V14.01,2013-08-27 18:16:00,
2013-08-28 04:17:00,66.7,60.4,29.82,East,90,0.0,0.0,80,0.00,,,0.00,VWS V14.01,2013-08-27 18:17:00,
2013-08-28 04:18:00,66.7,60.4,29.82,East,90,0.0,0.0,80,0.00,,,0.00,VWS V14.01,2013-08-27 18:18:00,
2013-08-28 04:19:00,66.7,60.4,29.82,East,90,0.0,0.0,80,0.00,,,0.00,VWS V14.01,2013-08-27 18:19:00,
2013-08-28 04:20:00,66.7,60.4,29.82,East,90,0.0,0.0,80,0.00,,,0.00,VWS V14.01,2013-08-27 18:20:00,
2013-08-28 04:21:00,66.9,60.6,29.82,East,90,0.0,0.0,80,0.00,,,0.00,VWS V14.01,2013-08-27 18:21:00,
2013-08-28 04:22:00,66.9,60.6,29.82,East,90,0.0,0.0,80,0.00,,,0.00,VWS V14.01,2013-08-27 18:22:00,
2013-08-28 04:23:00,66.9,60.6,29.82,SSE,158,3.1,3.1,80,0.00,,,0.00,VWS V14.01,2013-08-27 18:23:00,
2013-08-28 04:24:00,66.9,60.6,29.82,South,180,1.6,3.1,80,0.00,,,0.00,VWS V14.01,2013-08-27 18:24:00,
2013-08-28 04:25:00,66.7,60.0,29.82,South,180,0.0,1.6,79,0.00,,,0.00,VWS V14.01,2013-08-27 18:25:00,
2013-08-28 04:26:00,66.7,60.0,29.82,South,180,2.7,2.7,79,0.00,,,0.00,VWS V14.01,2013-08-27 18:26:00,
2013-08-28 04:27:00,66.7,60.0,29.82,South,180,2.7,2.7,79,0.00,,,0.00,VWS V14.01,2013-08-27 18:27:00,
2013-08-28 04:28:00,66.7,60.0,29.82,South,180,2.5,2.7,79,0.00,,,0.00,VWS V14.01,2013-08-27 18:28:00,
2013-08-28 04:29:00,66.9,60.6,29.82,South,180,2.5,2.5,80,0.00,,,0.00,VWS V14.01,2013-08-27 18:29:00,
2013-08-28 04:30:00,66.9,60.6,29.82,SW,225,1.6,2.5,80,0.00,,,0.00,VWS V14.01,2013-08-27 18:30:00,
2013-08-28 04:31:00,66.9,60.6,29.82,SW,225,1.1,1.6,80,0.00,,,0.00,VWS V14.01,2013-08-27 18:31:00,
2013-08-28 04:32:00,66.9,60.6,29.82,South,180,1.6,1.6,80,0.00,,,0.00,VWS V14.01,2013-08-27 18:32:00,
2013-08-28 04:33:00,66.9,60.6,29.82,SSW,202,0.0,1.6,80,0.00,,,0.00,VWS V14.01,2013-08-27 18:33:00,
2013-08-28 04:34:00,66.7,60.4,29.82,SSW,202,1.3,1.3,80,0.00,,,0.00,VWS V14.01,2013-08-27 18:34:00,
2013-08-28 04:35:00,66.7,60.4,29.82,SSW,202,1.3,1.3,80,0.00,,,0.00,VWS V14.01,2013-08-27 18:35:00,
2013-08-28 04:36:00,66.9,60.6,29.82,South,180,1.3,1.3,80,0.00,,,0.00,VWS V14.01,2013-08-27 18:36:00,
2013-08-28 04:37:00,66.7,60.0,29.82,SSE,158,3.1,3.1,79,0.00,,,0.00,VWS V14.01,2013-08-27 18:37:00,
2013-08-28 04:38:00,66.7,60.0,29.82,SSE,158,0.0,3.1,79,0.00,,,0.00,VWS V14.01,2013-08-27 18:38:00,
2013-08-28 04:39:00,66.6,60.2,29.82,SSE,158,0.0,0.0,80,0.00,,,0.00,VWS V14.01,2013-08-27 18:39:00,
2013-08-28 04:40:00,66.6,60.2,29.82,SSE,158,0.0,0.0,80,0.00,,,0.00,VWS V14.01,2013-08-27 18:40:00,
2013-08-28 04:41:00,66.6,60.2,29.82,SSE,158,3.1,3.1,80,0.00,,,0.00,VWS V14.01,2013-08-27 18:41:00,
2013-08-28 04:42:00,66.6,60.2,29.82,SSE,158,2.5,3.1,80,0.00,,,0.00,VWS V14.01,2013-08-27 18:42:00,
2013-08-28 04:43:00,66.6,60.2,29.82,SSE,158,2.5,2.5,80,0.00,,,0.00,VWS V14.01,2013-08-27 18:43:00,
2013-08-28 04:44:00,66.6,60.2,29.82,SSE,158,1.1,2.5,80,0.00,,,0.00,VWS V14.01,2013-08-27 18:44:00,
2013-08-28 04:45:00,66.6,60.2,29.82,SE,135,5.4,5.4,80,0.00,,,0.00,VWS V14.01,2013-08-27 18:45:00,
2013-08-28 04:46:00,66.6,60.2,29.82,SE,135,5.4,5.4,80,0.00,,,0.00,VWS V14.01,2013-08-27 18:46:00,
2013-08-28 04:47:00,66.6,60.2,29.82,SSE,158,3.4,5.4,80,0.00,,,0.00,VWS V14.01,2013-08-27 18:47:00,
2013-08-28 04:48:00,66.6,60.2,29.82,SSE,158,3.4,3.4,80,0.00,,,0.00,VWS V14.01,2013-08-27 18:48:00,
2013-08-28 04:49:00,66.4,60.0,29.82,SSE,158,3.4,3.4,80,0.00,,,0.00,VWS V14.01,2013-08-27 18:49:00,
2013-08-28 04:50:00,66.4,60.0,29.82,SSW,202,2.5,3.4,80,0.00,,,0.00,VWS V14.01,2013-08-27 18:50:00,
2013-08-28 04:51:00,66.4,60.0,29.82,SSW,202,2.5,2.5,80,0.00,,,0.00,VWS V14.01,2013-08-27 18:51:00,
2013-08-28 04:52:00,66.4,60.0,29.82,SSE,158,3.1,3.1,80,0.00,,,0.00,VWS V14.01,2013-08-27 18:52:00,
2013-08-28 04:53:00,66.4,60.0,29.82,SSW,202,3.4,3.4,80,0.00,,,0.00,VWS V14.01,2013-08-27 18:53:00,
2013-08-28 04:54:00,66.2,59.8,29.82,SSE,158,5.4,5.4,80,0.00,,,0.00,VWS V14.01,2013-08-27 18:54:00,
2013-08-28 04:55:00,66.2,59.8,29.82,SSE,158,5.4,5.4,80,0.00,,,0.00,VWS V14.01,2013-08-27 18:55:00,
2013-08-28 04:56:00,66.2,59.8,29.82,SSE,158,5.4,5.4,80,0.00,,,0.00,VWS V14.01,2013-08-27 18:56:00,
2013-08-28 04:57:00,66.2,59.8,29.82,SSE,158,3.4,5.4,80,0.00,,,0.00,VWS V14.01,2013-08-27 18:57:00,
2013-08-28 04:58:00,66.2,59.9,29.82,SSW,202,2.2,3.4,80,0.00,,,0.00,VWS V14.01,2013-08-27 18:58:00,
2013-08-28 04:59:00,66.4,60.0,29.82,SSW,202,2.2,2.2,80,0.00,,,0.00,VWS V14.01,2013-08-27 18:59:00,
2013-08-28 05:00:00,66.4,60.0,29.82,SSW,202,2.2,2.2,80,0.00,,,0.00,VWS V14.01,2013-08-27 19:00:00,
2013-08-28 05:01:00,66.4,60.0,29.82,SSW,202,4.3,4.3,80,0.00,,,0.00,VWS V14.01,2013-08-27 19:01:00,
2013-08-28 05:02:00,66.4,60.0,29.82,South,180,4.3,4.3,80,0.00,,,0.00,VWS V14.01,2013-08-27 19:02:00,
2013-08-28 05:03:00,66.4,60.0,29.82,SW,225,5.6,5.6,80,0.00,,,0.00,VWS V14.01,2013-08-27 19:03:00,
2013-08-28 05:04:00,66.4,60.0,29.82,SSW,202,5.8,5.8,80,0.00,,,0.00,VWS V14.01,2013-08-27 19:04:00,
2013-08-28 05:05:00,66.4,60.0,29.82,SSE,158,2.7,5.8,80,0.00,,,0.00,VWS V14.01,2013-08-27 19:05:00,
2013-08-28 05:06:00,66.4,60.0,29.82,South,180,4.0,4.0,80,0.00,,,0.00,VWS V14.01,2013-08-27 19:06:00,
2013-08-28 05:07:00,66.4,60.0,29.82,South,180,4.3,4.3,80,0.00,,,0.00,VWS V14.01,2013-08-27 19:07:00,
2013-08-28 05:08:00,66.4,60.0,29.82,SSE,158,3.6,4.3,80,0.00,,,0.00,VWS V14.01,2013-08-27 19:08:00,
2013-08-28 05:09:00,66.4,60.0,29.82,South,180,3.1,3.6,80,0.00,,,0.00,VWS V14.01,2013-08-27 19:09:00,
2013-08-28 05:10:00,66.4,60.0,29.82,SSW,202,5.6,5.6,80,0.00,,,0.00,VWS V14.01,2013-08-27 19:10:00,
2013-08-28 05:11:00,66.4,60.0,29.82,SSW,202,5.6,5.6,80,0.00,,,0.00,VWS V14.01,2013-08-27 19:11:00,
2013-08-28 05:12:00,66.4,60.0,29.82,South,180,6.5,6.5,80,0.00,,,0.00,VWS V14.01,2013-08-27 19:12:00,
2013-08-28 05:13:00,66.4,60.0,29.82,South,180,4.0,6.5,80,0.00,,,0.00,VWS V14.01,2013-08-27 19:13:00,
2013-08-28 05:14:00,66.4,60.0,29.82,South,180,4.0,4.0,80,0.00,,,0.00,VWS V14.01,2013-08-27 19:14:00,
2013-08-28 05:15:00,66.2,59.8,29.82,South,180,4.9,4.9,80,0.00,,,0.00,VWS V14.01,2013-08-27 19:15:00,
2013-08-28 05:16:00,66.2,59.8,29.82,SW,225,4.5,4.9,80,0.00,,,0.00,VWS V14.01,2013-08-27 19:16:00,
2013-08-28 05:17:00,66.2,59.8,29.82,South,180,6.5,6.5,80,0.00,,,0.00,VWS V14.01,2013-08-27 19:17:00,
2013-08-28 05:18:00,66.2,59.9,29.82,SSW,202,5.8,6.5,80,0.00,,,0.00,VWS V14.01,2013-08-27 19:18:00,
2013-08-28 05:19:00,66.2,59.8,29.82,SSW,202,5.8,5.8,80,0.00,,,0.00,VWS V14.01,2013-08-27 19:19:00,
2013-08-28 05:20:00,66.2,59.8,29.82,SW,225,5.4,5.8,80,0.00,,,0.00,VWS V14.01,2013-08-27 19:20:00,
2013-08-28 05:21:00,66.2,59.8,29.82,SW,225,5.4,5.4,80,0.00,,,0.00,VWS V14.01,2013-08-27 19:21:00,
2013-08-28 05:22:00,66.4,60.0,29.82,South,180,3.4,5.4,80,0.00,,,0.00,VWS V14.01,2013-08-27 19:22:00,
2013-08-28 05:23:00,66.4,60.0,29.82,South,180,2.7,3.4,80,0.00,,,0.00,VWS V14.01,2013-08-27 19:23:00,
2013-08-28 05:24:00,66.4,60.0,29.82,South,180,3.4,3.4,80,0.00,,,0.00,VWS V14.01,2013-08-27 19:24:00,
2013-08-28 05:25:00,66.4,60.0,29.82,SSW,202,8.1,8.1,80,0.00,,,0.00,VWS V14.01,2013-08-27 19:25:00,
2013-08-28 05:26:00,66.4,60.0,29.82,SSE,158,5.8,8.1,80,0.00,,,0.00,VWS V14.01,2013-08-27 19:26:00,
2013-08-28 05:27:00,66.4,60.0,29.82,SSE,158,5.8,5.8,80,0.00,,,0.00,VWS V14.01,2013-08-27 19:27:00,
2013-08-28 05:28:00,66.2,59.9,29.82,SSE,158,5.8,5.8,80,0.00,,,0.00,VWS V14.01,2013-08-27 19:28:00,
2013-08-28 05:29:00,66.2,59.8,29.82,SSE,158,5.8,5.8,80,0.00,,,0.00,VWS V14.01,2013-08-27 19:29:00,
2013-08-28 05:30:00,66.2,59.8,29.82,SSE,158,5.8,5.8,80,0.00,,,0.00,VWS V14.01,2013-08-27 19:30:00,
2013-08-28 05:31:00,66.2,60.2,29.82,SSE,158,5.8,5.8,81,0.00,,,0.00,VWS V14.01,2013-08-27 19:31:00,
2013-08-28 05:32:00,66.2,60.2,29.82,SSE,158,5.8,5.8,81,0.00,,,0.00,VWS V14.01,2013-08-27 19:32:00,
2013-08-28 05:33:00,66.0,60.0,29.82,SSE,158,5.8,5.8,81,0.00,,,0.00,VWS V14.01,2013-08-27 19:33:00,
2013-08-28 05:34:00,66.0,60.0,29.82,SSE,158,5.8,5.8,81,0.00,,,0.00,VWS V14.01,2013-08-27 19:34:00,
2013-08-28 05:35:00,66.2,60.2,29.82,SSE,158,5.8,5.8,81,0.00,,,0.00,VWS V14.01,2013-08-27 19:35:00,
2013-08-28 05:36:00,66.2,60.2,29.82,SSW,202,4.0,5.8,81,0.00,,,0.00,VWS V14.01,2013-08-27 19:36:00,
2013-08-28 05:37:00,66.2,60.2,29.82,SW,225,4.3,4.3,81,0.00,,,0.00,VWS V14.01,2013-08-27 19:37:00,
2013-08-28 05:38:00,66.2,60.2,29.82,SW,225,4.3,4.3,81,0.00,,,0.00,VWS V14.01,2013-08-27 19:38:00,
2013-08-28 05:39:00,66.2,60.2,29.82,SW,225,4.3,4.3,81,0.00,,,0.00,VWS V14.01,2013-08-27 19:39:00,
2013-08-28 05:40:00,66.4,60.4,29.82,South,180,4.0,4.3,81,0.00,,,0.00,VWS V14.01,2013-08-27 19:40:00,
2013-08-28 05:41:00,66.4,60.4,29.82,SSW,202,1.6,4.0,81,0.00,,,0.00,VWS V14.01,2013-08-27 19:41:00,
2013-08-28 05:42:00,66.2,60.2,29.82,SW,225,5.4,5.4,81,0.00,,,0.00,VWS V14.01,2013-08-27 19:42:00,
2013-08-28 05:43:00,66.4,60.4,29.82,SSW,202,2.9,2.9,81,0.00,,,0.00,VWS V14.01,2013-08-27 19:43:00,
2013-08-28 05:44:00,66.4,60.4,29.82,SSW,202,2.9,2.9,81,0.00,,,0.00,VWS V14.01,2013-08-27 19:44:00,
2013-08-28 05:45:00,66.4,60.4,29.82,SSW,202,2.9,2.9,81,0.00,,,0.00,VWS V14.01,2013-08-27 19:45:00,
2013-08-28 05:46:00,66.4,60.4,29.82,SSW,202,2.9,2.9,81,0.00,,,0.00,VWS V14.01,2013-08-27 19:46:00,
2013-08-28 05:47:00,66.4,60.4,29.82,SSE,158,2.7,2.9,81,0.00,,,0.00,VWS V14.01,2013-08-27 19:47:00,
2013-08-28 05:48:00,66.4,60.4,29.82,SSE,158,3.4,3.4,81,0.00,,,0.00,VWS V14.01,2013-08-27 19:48:00,
2013-08-28 05:49:00,66.4,60.0,29.82,SSE,158,3.4,3.4,80,0.00,,,0.00,VWS V14.01,2013-08-27 19:49:00,
2013-08-28 05:50:00,66.4,60.0,29.82,SE,135,2.0,3.4,80,0.00,,,0.00,VWS V14.01,2013-08-27 19:50:00,
2013-08-28 05:51:00,66.4,60.4,29.82,SE,135,2.0,2.0,81,0.00,,,0.00,VWS V14.01,2013-08-27 19:51:00,
2013-08-28 05:52:00,66.4,60.4,29.82,SSE,158,1.3,2.0,81,0.00,,,0.00,VWS V14.01,2013-08-27 19:52:00,
2013-08-28 05:53:00,66.4,60.4,29.82,SSW,202,2.0,2.0,81,0.00,,,0.00,VWS V14.01,2013-08-27 19:53:00,
2013-08-28 05:54:00,66.4,60.4,29.82,SSE,158,3.1,3.1,81,0.00,,,0.00,VWS V14.01,2013-08-27 19:54:00,
2013-08-28 05:55:00,66.4,60.4,29.82,SSE,158,3.1,3.1,81,0.00,,,0.00,VWS V14.01,2013-08-27 19:55:00,
2013-08-28 05:56:00,66.4,60.4,29.82,SSE,158,3.1,3.1,81,0.00,,,0.00,VWS V14.01,2013-08-27 19:56:00,
2013-08-28 05:57:00,66.4,60.4,29.82,SSE,158,3.1,3.1,81,0.00,,,0.00,VWS V14.01,2013-08-27 19:57:00,
2013-08-28 05:58:00,66.4,60.4,29.82,South,180,3.1,3.1,81,0.00,,,0.00,VWS V14.01,2013-08-27 19:58:00,
2013-08-28 05:59:00,66.4,60.4,29.82,South,180,3.1,3.1,81,0.00,,,0.00,VWS V14.01,2013-08-27 19:59:00,
2013-08-28 06:00:00,66.4,60.0,29.82,SE,135,3.8,3.8,80,0.00,,,0.00,VWS V14.01,2013-08-27 20:00:00,
2013-08-28 06:01:00,66.4,60.0,29.82,SE,135,1.1,3.8,80,0.00,,,0.00,VWS V14.01,2013-08-27 20:01:00,
2013-08-28 06:02:00,66.4,60.0,29.82,SE,135,1.6,1.6,80,0.00,,,0.00,VWS V14.01,2013-08-27 20:02:00,
2013-08-28 06:03:00,66.4,60.4,29.82,SE,135,2.7,2.7,81,0.00,,,0.00,VWS V14.01,2013-08-27 20:03:00,
2013-08-28 06:04:00,66.4,60.4,29.85,SSE,158,3.1,3.1,81,0.00,,,0.00,VWS V14.01,2013-08-27 20:04:00,
2013-08-28 06:05:00,66.4,60.4,29.85,SSE,158,3.1,3.1,81,0.00,,,0.00,VWS V14.01,2013-08-27 20:05:00,
2013-08-28 06:06:00,66.4,60.4,29.85,SSE,158,3.1,3.1,81,0.00,,,0.00,VWS V14.01,2013-08-27 20:06:00,
2013-08-28 06:07:00,66.4,60.4,29.85,SSE,158,3.1,3.1,81,0.00,,,0.00,VWS V14.01,2013-08-27 20:07:00,
2013-08-28 06:08:00,66.4,60.4,29.85,SSE,158,1.1,1.1,81,0.00,,,0.00,VWS V14.01,2013-08-27 20:08:00,
2013-08-28 06:09:00,66.4,60.4,29.85,NE,45,0.9,1.1,81,0.00,,,0.00,VWS V14.01,2013-08-27 20:09:00,
2013-08-28 06:10:00,66.2,60.2,29.85,NE,45,0.9,0.9,81,0.00,,,0.00,VWS V14.01,2013-08-27 20:10:00,
2013-08-28 06:11:00,66.2,60.2,29.85,NE,45,0.9,0.9,81,0.00,,,0.00,VWS V14.01,2013-08-27 20:11:00,
2013-08-28 06:12:00,66.2,60.2,29.85,SE,135,1.6,1.6,81,0.00,,,0.00,VWS V14.01,2013-08-27 20:12:00,
2013-08-28 06:13:00,66.4,60.4,29.85,SSE,158,2.5,2.5,81,0.00,,,0.00,VWS V14.01,2013-08-27 20:13:00,
2013-08-28 06:14:00,66.4,60.4,29.85,SSE,158,2.5,2.5,81,0.00,,,0.00,VWS V14.01,2013-08-27 20:14:00,
2013-08-28 06:15:00,66.2,60.2,29.85,SSE,158,1.6,2.5,81,0.00,,,0.00,VWS V14.01,2013-08-27 20:15:00,
2013-08-28 06:16:00,66.2,60.2,29.85,SSE,158,1.6,1.6,81,0.00,,,0.00,VWS V14.01,2013-08-27 20:16:00,
2013-08-28 06:17:00,66.2,60.2,29.85,South,180,3.4,3.4,81,0.00,,,0.00,VWS V14.01,2013-08-27 20:17:00,
2013-08-28 06:18:00,66.2,60.2,29.85,South,180,1.6,1.6,81,0.00,,,0.00,VWS V14.01,2013-08-27 20:18:00,
2013-08-28 06:19:00,66.2,60.2,29.85,SSW,202,0.9,1.6,81,0.00,,,0.00,VWS V14.01,2013-08-27 20:19:00,
2013-08-28 06:20:00,66.2,60.2,29.85,SSW,202,0.9,0.9,81,0.00,,,0.00,VWS V14.01,2013-08-27 20:20:00,
2013-08-28 06:22:00,66.2,60.2,29.85,SE,135,4.0,4.0,81,0.00,,,0.00,VWS V14.01,2013-08-27 20:22:00,
2013-08-28 06:23:00,66.2,60.2,29.85,ESE,112,0.0,0.0,81,0.00,,,0.00,VWS V14.01,2013-08-27 20:23:00,
2013-08-28 06:24:00,66.2,60.2,29.85,ESE,112,0.0,0.0,81,0.00,,,0.00,VWS V14.01,2013-08-27 20:24:00,
2013-08-28 06:25:00,66.2,60.2,29.85,SSE,158,2.0,2.0,81,0.00,,,0.00,VWS V14.01,2013-08-27 20:25:00,
2013-08-28 06:26:00,66.2,60.2,29.85,SSW,202,2.5,2.5,81,0.00,,,0.00,VWS V14.01,2013-08-27 20:26:00,
2013-08-28 06:27:00,66.2,60.2,29.85,SSW,202,2.7,2.7,81,0.00,,,0.00,VWS V14.01,2013-08-27 20:27:00,
2013-08-28 06:28:00,66.4,60.4,29.85,South,180,2.9,2.9,81,0.00,,,0.00,VWS V14.01,2013-08-27 20:28:00,
2013-08-28 06:29:00,66.4,60.4,29.85,South,180,2.9,2.9,81,0.00,,,0.00,VWS V14.01,2013-08-27 20:29:00,
2013-08-28 06:30:00,66.4,60.4,29.85,South,180,2.9,2.9,81,0.00,,,0.00,VWS V14.01,2013-08-27 20:30:00,
2013-08-28 06:31:00,66.2,60.2,29.85,South,180,2.9,2.9,81,0.00,,,0.00,VWS V14.01,2013-08-27 20:31:00,
2013-08-28 06:32:00,66.2,60.2,29.85,SE,135,2.9,2.9,81,0.00,,,0.00,VWS V14.01,2013-08-27 20:32:00,
2013-08-28 06:33:00,66.2,60.2,29.85,SE,135,0.9,0.9,81,0.00,,,0.00,VWS V14.01,2013-08-27 20:33:00,
2013-08-28 06:34:00,66.2,60.2,29.85,SE,135,0.9,0.9,81,0.00,,,0.00,VWS V14.01,2013-08-27 20:34:00,
2013-08-28 06:35:00,66.2,60.2,29.85,SSE,158,4.0,4.0,81,0.00,,,0.00,VWS V14.01,2013-08-27 20:35:00,
2013-08-28 06:36:00,66.2,60.2,29.85,SSE,158,2.9,4.0,81,0.00,,,0.00,VWS V14.01,2013-08-27 20:36:00,
2013-08-28 06:37:00,66.2,60.2,29.85,South,180,5.6,5.6,81,0.00,,,0.00,VWS V14.01,2013-08-27 20:37:00,
2013-08-28 06:38:00,66.2,60.2,29.85,South,180,3.6,3.6,81,0.00,,,0.00,VWS V14.01,2013-08-27 20:38:00,
2013-08-28 06:39:00,66.2,60.2,29.85,South,180,3.6,3.6,81,0.00,,,0.00,VWS V14.01,2013-08-27 20:39:00,
2013-08-28 06:40:00,66.2,60.2,29.85,SSE,158,2.5,3.6,81,0.00,,,0.00,VWS V14.01,2013-08-27 20:40:00,
2013-08-28 06:41:00,66.2,60.2,29.85,SW,225,3.1,3.1,81,0.00,,,0.00,VWS V14.01,2013-08-27 20:41:00,
2013-08-28 06:42:00,66.2,60.2,29.85,SW,225,3.1,3.1,81,0.00,,,0.00,VWS V14.01,2013-08-27 20:42:00,
2013-08-28 06:43:00,66.2,60.2,29.85,SSE,158,3.1,3.1,81,0.00,,,0.00,VWS V14.01,2013-08-27 20:43:00,
2013-08-28 06:44:00,66.2,60.2,29.85,SSE,158,3.1,3.1,81,0.00,,,0.00,VWS V14.01,2013-08-27 20:44:00,
2013-08-28 06:45:00,66.4,60.4,29.85,SSE,158,3.6,3.6,81,0.00,,,0.00,VWS V14.01,2013-08-27 20:45:00,
2013-08-28 06:46:00,66.4,60.4,29.85,SSE,158,3.6,3.6,81,0.00,,,0.00,VWS V14.01,2013-08-27 20:46:00,
2013-08-28 06:47:00,66.4,60.4,29.85,South,180,3.1,3.6,81,0.00,,,0.00,VWS V14.01,2013-08-27 20:47:00,
2013-08-28 06:48:00,66.4,60.4,29.85,SSW,202,4.9,4.9,81,0.00,,,0.00,VWS V14.01,2013-08-27 20:48:00,
2013-08-28 06:49:00,66.4,60.4,29.85,SSW,202,4.9,4.9,81,0.00,,,0.00,VWS V14.01,2013-08-27 20:49:00,
2013-08-28 06:50:00,66.4,60.4,29.85,SSW,202,4.9,4.9,81,0.00,,,0.00,VWS V14.01,2013-08-27 20:50:00,
2013-08-28 06:51:00,66.4,60.4,29.85,SSE,158,4.9,4.9,81,0.00,,,0.00,VWS V14.01,2013-08-27 20:51:00,
2013-08-28 06:52:00,66.4,60.4,29.85,SSE,158,4.9,4.9,81,0.00,,,0.00,VWS V14.01,2013-08-27 20:52:00,
2013-08-28 06:53:00,66.4,60.4,29.85,South,180,3.8,3.8,81,0.00,,,0.00,VWS V14.01,2013-08-27 20:53:00,
2013-08-28 06:54:00,66.4,60.4,29.85,South,180,3.8,3.8,81,0.00,,,0.00,VWS V14.01,2013-08-27 20:54:00,
2013-08-28 06:55:00,66.4,60.4,29.85,South,180,3.8,3.8,81,0.00,,,0.00,VWS V14.01,2013-08-27 20:55:00,
2013-08-28 06:56:00,66.4,60.4,29.85,South,180,3.8,3.8,81,0.00,,,0.00,VWS V14.01,2013-08-27 20:56:00,
2013-08-28 06:57:00,66.4,60.4,29.85,South,180,3.8,3.8,81,0.00,,,0.00,VWS V14.01,2013-08-27 20:57:00,
2013-08-28 06:58:00,66.4,60.4,29.85,South,180,4.0,4.0,81,0.00,,,0.00,VWS V14.01,2013-08-27 20:58:00,
2013-08-28 06:59:00,66.4,60.4,29.85,SSE,158,3.6,4.0,81,0.00,,,0.00,VWS V14.01,2013-08-27 20:59:00,
2013-08-28 07:00:00,66.4,60.4,29.85,SE,135,6.5,6.5,81,0.00,,,0.00,VWS V14.01,2013-08-27 21:00:00,
2013-08-28 07:01:00,66.4,60.4,29.85,South,180,4.9,6.5,81,0.00,,,0.00,VWS V14.01,2013-08-27 21:01:00,
2013-08-28 07:02:00,66.4,60.4,29.85,South,180,4.9,4.9,81,0.00,,,0.00,VWS V14.01,2013-08-27 21:02:00,
2013-08-28 07:03:00,66.6,60.6,29.85,South,180,5.4,5.4,81,0.00,,,0.00,VWS V14.01,2013-08-27 21:03:00,
2013-08-28 07:04:00,66.6,60.6,29.85,SSE,158,2.9,5.4,81,0.00,,,0.00,VWS V14.01,2013-08-27 21:04:00,
2013-08-28 07:05:00,66.6,60.6,29.85,SSE,158,6.3,6.3,81,0.00,,,0.00,VWS V14.01,2013-08-27 21:05:00,
2013-08-28 07:06:00,66.6,60.6,29.85,SSE,158,6.3,6.3,81,0.00,,,0.00,VWS V14.01,2013-08-27 21:06:00,
2013-08-28 07:07:00,66.7,60.7,29.85,SW,225,6.5,6.5,81,0.00,,,0.00,VWS V14.01,2013-08-27 21:07:00,
2013-08-28 07:08:00,66.7,60.7,29.85,SSW,202,5.4,6.5,81,0.00,,,0.00,VWS V14.01,2013-08-27 21:08:00,
2013-08-28 07:09:00,66.9,60.9,29.85,SSW,202,2.5,5.4,81,0.00,,,0.00,VWS V14.01,2013-08-27 21:09:00,
2013-08-28 07:10:00,66.9,60.9,29.85,SSW,202,2.5,2.5,81,0.00,,,0.00,VWS V14.01,2013-08-27 21:10:00,
2013-08-28 07:11:00,66.9,60.9,29.85,SSW,202,2.5,2.5,81,0.00,,,0.00,VWS V14.01,2013-08-27 21:11:00,
2013-08-28 07:12:00,66.9,60.9,29.85,SE,135,4.0,4.0,81,0.00,,,0.00,VWS V14.01,2013-08-27 21:12:00,
2013-08-28 07:13:00,67.1,61.1,29.85,SE,135,4.0,4.0,81,0.00,,,0.00,VWS V14.01,2013-08-27 21:13:00,
2013-08-28 07:14:00,67.1,61.1,29.85,South,180,6.5,6.5,81,0.00,,,0.00,VWS V14.01,2013-08-27 21:14:00,
2013-08-28 07:15:00,67.1,61.1,29.85,South,180,6.5,6.5,81,0.00,,,0.00,VWS V14.01,2013-08-27 21:15:00,
2013-08-28 07:16:00,67.1,61.1,29.85,SSE,158,3.8,6.5,81,0.00,,,0.00,VWS V14.01,2013-08-27 21:16:00,
2013-08-28 07:17:00,67.1,61.1,29.85,SSW,202,3.6,3.8,81,0.00,,,0.00,VWS V14.01,2013-08-27 21:17:00,
2013-08-28 07:18:00,67.1,61.1,29.85,South,180,2.0,3.6,81,0.00,,,0.00,VWS V14.01,2013-08-27 21:18:00,
2013-08-28 07:19:00,67.1,61.1,29.88,SSW,202,2.5,2.5,81,0.00,,,0.00,VWS V14.01,2013-08-27 21:19:00,
2013-08-28 07:20:00,67.3,61.3,29.88,SE,135,3.1,3.1,81,0.00,,,0.00,VWS V14.01,2013-08-27 21:20:00,
2013-08-28 07:21:00,67.3,61.3,29.88,SE,135,3.1,3.1,81,0.00,,,0.00,VWS V14.01,2013-08-27 21:21:00,
2013-08-28 07:22:00,67.3,61.3,29.88,SE,135,3.1,3.1,81,0.00,,,0.00,VWS V14.01,2013-08-27 21:22:00,
2013-08-28 07:23:00,67.5,61.4,29.88,South,180,1.6,3.1,81,0.00,,,0.00,VWS V14.01,2013-08-27 21:23:00,
2013-08-28 07:24:00,67.5,61.4,29.88,SSW,202,3.4,3.4,81,0.00,,,0.00,VWS V14.01,2013-08-27 21:24:00,
2013-08-28 07:25:00,67.5,61.4,29.88,SSW,202,3.4,3.4,81,0.00,,,0.00,VWS V14.01,2013-08-27 21:25:00,
2013-08-28 07:26:00,67.5,61.4,29.88,SSW,202,3.4,3.4,81,0.00,,,0.00,VWS V14.01,2013-08-27 21:26:00,
2013-08-28 07:27:00,67.6,61.6,29.88,SW,225,4.3,4.3,81,0.00,,,0.00,VWS V14.01,2013-08-27 21:27:00,
2013-08-28 07:28:00,67.6,61.6,29.88,South,180,1.3,4.3,81,0.00,,,0.00,VWS V14.01,2013-08-27 21:28:00,
2013-08-28 07:29:00,67.6,61.6,29.88,South,180,1.3,1.3,81,0.00,,,0.00,VWS V14.01,2013-08-27 21:29:00,
2013-08-28 07:30:00,67.6,61.6,29.88,South,180,1.3,1.3,81,0.00,,,0.00,VWS V14.01,2013-08-27 21:30:00,
2013-08-28 07:31:00,67.8,61.8,29.88,South,180,1.3,1.3,81,0.00,,,0.00,VWS V14.01,2013-08-27 21:31:00,
2013-08-28 07:32:00,68.0,61.6,29.88,SE,135,5.8,5.8,80,0.00,,,0.00,VWS V14.01,2013-08-27 21:32:00,
2013-08-28 07:33:00,68.0,61.6,29.88,SE,135,5.8,5.8,80,0.00,,,0.00,VWS V14.01,2013-08-27 21:33:00,
2013-08-28 07:34:00,68.2,61.8,29.88,SE,135,5.8,5.8,80,0.00,,,0.00,VWS V14.01,2013-08-27 21:34:00,
2013-08-28 07:35:00,68.2,61.8,29.88,SSE,158,3.8,5.8,80,0.00,,,0.00,VWS V14.01,2013-08-27 21:35:00,
2013-08-28 07:36:00,68.2,61.8,29.88,SSE,158,2.0,3.8,80,0.00,,,0.00,VWS V14.01,2013-08-27 21:36:00,
2013-08-28 07:37:00,68.2,61.8,29.88,SSE,158,2.0,2.0,80,0.00,,,0.00,VWS V14.01,2013-08-27 21:37:00,
2013-08-28 07:38:00,68.4,62.0,29.88,SSE,158,2.0,2.0,80,0.00,,,0.00,VWS V14.01,2013-08-27 21:38:00,
2013-08-28 07:39:00,68.4,62.0,29.88,South,180,3.4,3.4,80,0.00,,,0.00,VWS V14.01,2013-08-27 21:39:00,
2013-08-28 07:40:00,68.4,62.0,29.88,South,180,3.4,3.4,80,0.00,,,0.00,VWS V14.01,2013-08-27 21:40:00,
2013-08-28 07:41:00,68.5,62.1,29.88,SE,135,3.1,3.4,80,0.00,,,0.00,VWS V14.01,2013-08-27 21:41:00,
2013-08-28 07:42:00,68.5,62.1,29.88,SE,135,3.1,3.1,80,0.00,,,0.00,VWS V14.01,2013-08-27 21:42:00,
2013-08-28 07:43:00,68.5,62.1,29.88,SE,135,3.4,3.4,80,0.00,,,0.00,VWS V14.01,2013-08-27 21:43:00,
2013-08-28 07:44:00,68.5,62.1,29.88,SE,135,3.6,3.6,80,0.00,,,0.00,VWS V14.01,2013-08-27 21:44:00,
2013-08-28 07:45:00,68.7,62.3,29.88,SE,135,3.6,3.6,80,0.00,,,0.00,VWS V14.01,2013-08-27 21:45:00,
2013-08-28 07:46:00,68.7,62.3,29.88,SE,135,3.6,3.6,80,0.00,,,0.00,VWS V14.01,2013-08-27 21:46:00,
2013-08-28 07:47:00,68.7,62.3,29.88,South,180,4.3,4.3,80,0.00,,,0.00,VWS V14.01,2013-08-27 21:47:00,
2013-08-28 07:48:00,68.7,62.3,29.88,South,180,4.3,4.3,80,0.00,,,0.00,VWS V14.01,2013-08-27 21:48:00,
2013-08-28 07:49:00,68.7,62.3,29.88,SSE,158,3.4,4.3,80,0.00,,,0.00,VWS V14.01,2013-08-27 21:49:00,
2013-08-28 07:50:00,68.7,62.3,29.88,SSE,158,3.4,3.4,80,0.00,,,0.00,VWS V14.01,2013-08-27 21:50:00,
2013-08-28 07:51:00,68.7,62.3,29.88,ENE,68,2.5,3.4,80,0.00,,,0.00,VWS V14.01,2013-08-27 21:51:00,
2013-08-28 07:52:00,68.9,62.5,29.88,ENE,68,2.5,2.5,80,0.00,,,0.00,VWS V14.01,2013-08-27 21:52:00,
2013-08-28 07:53:00,68.9,62.5,29.88,SE,135,2.9,2.9,80,0.00,,,0.00,VWS V14.01,2013-08-27 21:53:00,
2013-08-28 07:54:00,68.9,62.5,29.88,SE,135,2.9,2.9,80,0.00,,,0.00,VWS V14.01,2013-08-27 21:54:00,
2013-08-28 07:55:00,68.9,62.5,29.88,SE,135,2.9,2.9,80,0.00,,,0.00,VWS V14.01,2013-08-27 21:55:00,
2013-08-28 07:56:00,68.9,62.5,29.88,South,180,1.6,2.9,80,0.00,,,0.00,VWS V14.01,2013-08-27 21:56:00,
2013-08-28 07:57:00,68.9,62.5,29.88,South,180,1.6,1.6,80,0.00,,,0.00,VWS V14.01,2013-08-27 21:57:00,
2013-08-28 07:58:00,68.9,62.5,29.88,South,180,1.6,1.6,80,0.00,,,0.00,VWS V14.01,2013-08-27 21:58:00,
2013-08-28 07:59:00,69.1,62.7,29.88,SE,135,3.8,3.8,80,0.00,,,0.00,VWS V14.01,2013-08-27 21:59:00,
2013-08-28 08:00:00,69.1,62.7,29.88,SSE,158,3.1,3.8,80,0.00,,,0.00,VWS V14.01,2013-08-27 22:00:00,
2013-08-28 08:01:00,69.1,62.7,29.88,South,180,4.7,4.7,80,0.00,,,0.00,VWS V14.01,2013-08-27 22:01:00,
2013-08-28 08:02:00,69.4,63.0,29.88,SSW,202,4.3,4.7,80,0.00,,,0.00,VWS V14.01,2013-08-27 22:02:00,
2013-08-28 08:03:00,69.4,63.0,29.88,SSW,202,4.3,4.3,80,0.00,,,0.00,VWS V14.01,2013-08-27 22:03:00,
2013-08-28 08:04:00,69.6,63.2,29.88,SSW,202,4.3,4.3,80,0.00,,,0.00,VWS V14.01,2013-08-27 22:04:00,
2013-08-28 08:05:00,69.6,63.2,29.88,South,180,2.9,4.3,80,0.00,,,0.00,VWS V14.01,2013-08-27 22:05:00,
2013-08-28 08:06:00,69.8,63.0,29.88,South,180,4.3,4.3,79,0.00,,,0.00,VWS V14.01,2013-08-27 22:06:00,
2013-08-28 08:07:00,70.0,63.2,29.88,South,180,4.3,4.3,79,0.00,,,0.00,VWS V14.01,2013-08-27 22:07:00,
2013-08-28 08:08:00,70.0,63.2,29.88,South,180,4.3,4.3,79,0.00,,,0.00,VWS V14.01,2013-08-27 22:08:00,
2013-08-28 08:09:00,70.2,63.3,29.88,South,180,4.3,4.3,79,0.00,,,0.00,VWS V14.01,2013-08-27 22:09:00,
2013-08-28 08:10:00,70.2,63.3,29.88,ESE,112,4.3,4.3,79,0.00,,,0.00,VWS V14.01,2013-08-27 22:10:00,
2013-08-28 08:11:00,70.2,63.3,29.88,ESE,112,3.4,4.3,79,0.00,,,0.00,VWS V14.01,2013-08-27 22:11:00,
2013-08-28 08:12:00,70.2,63.3,29.88,SE,135,3.4,3.4,79,0.00,,,0.00,VWS V14.01,2013-08-27 22:12:00,
2013-08-28 08:13:00,70.2,63.3,29.88,SE,135,5.4,5.4,79,0.00,,,0.00,VWS V14.01,2013-08-27 22:13:00,
2013-08-28 08:14:00,70.2,63.3,29.88,SE,135,5.4,5.4,79,0.00,,,0.00,VWS V14.01,2013-08-27 22:14:00,
2013-08-28 08:15:00,70.2,63.3,29.88,SE,135,5.4,5.4,79,0.00,,,0.00,VWS V14.01,2013-08-27 22:15:00,
2013-08-28 08:16:00,70.2,63.3,29.88,South,180,4.0,5.4,79,0.00,,,0.00,VWS V14.01,2013-08-27 22:16:00,
2013-08-28 08:17:00,70.3,63.5,29.88,South,180,4.0,4.0,79,0.00,,,0.00,VWS V14.01,2013-08-27 22:17:00,
2013-08-28 08:18:00,70.3,63.5,29.88,SSE,158,4.5,4.5,79,0.00,,,0.00,VWS V14.01,2013-08-27 22:18:00,
2013-08-28 08:19:00,70.5,63.3,29.88,South,180,2.0,4.5,78,0.00,,,0.00,VWS V14.01,2013-08-27 22:19:00,
2013-08-28 08:20:00,70.5,63.3,29.88,South,180,2.7,2.7,78,0.00,,,0.00,VWS V14.01,2013-08-27 22:20:00,
2013-08-28 08:21:00,70.5,63.3,29.88,South,180,2.7,2.7,78,0.00,,,0.00,VWS V14.01,2013-08-27 22:21:00,
2013-08-28 08:22:00,70.5,63.3,29.88,SSE,158,4.3,4.3,78,0.00,,,0.00,VWS V14.01,2013-08-27 22:22:00,
2013-08-28 08:23:00,70.5,63.3,29.88,SE,135,4.7,4.7,78,0.00,,,0.00,VWS V14.01,2013-08-27 22:23:00,
2013-08-28 08:24:00,70.9,63.7,29.88,SE,135,4.7,4.7,78,0.00,,,0.00,VWS V14.01,2013-08-27 22:24:00,
2013-08-28 08:25:00,70.9,63.7,29.88,SE,135,4.9,4.9,78,0.00,,,0.00,VWS V14.01,2013-08-27 22:25:00,
2013-08-28 08:26:00,71.1,63.9,29.88,SSE,158,5.6,5.6,78,0.00,,,0.00,VWS V14.01,2013-08-27 22:26:00,
2013-08-28 08:27:00,71.1,63.9,29.88,SSE,158,5.6,5.6,78,0.00,,,0.00,VWS V14.01,2013-08-27 22:27:00,
2013-08-28 08:28:00,71.1,63.9,29.88,South,180,4.7,5.6,78,0.00,,,0.00,VWS V14.01,2013-08-27 22:28:00,
2013-08-28 08:29:00,71.1,63.9,29.88,South,180,6.0,6.0,78,0.00,,,0.00,VWS V14.01,2013-08-27 22:29:00,
2013-08-28 08:30:00,71.2,64.0,29.88,South,180,3.4,6.0,78,0.00,,,0.00,VWS V14.01,2013-08-27 22:30:00,
2013-08-28 08:31:00,71.4,64.2,29.88,South,180,3.4,3.4,78,0.00,,,0.00,VWS V14.01,2013-08-27 22:31:00,
2013-08-28 08:32:00,71.4,64.2,29.88,SSW,202,2.9,3.4,78,0.00,,,0.00,VWS V14.01,2013-08-27 22:32:00,
2013-08-28 08:33:00,71.4,64.2,29.88,SSW,202,5.4,5.4,78,0.00,,,0.00,VWS V14.01,2013-08-27 22:33:00,
2013-08-28 08:34:00,71.4,64.2,29.88,SSW,202,4.0,5.4,78,0.00,,,0.00,VWS V14.01,2013-08-27 22:34:00,
2013-08-28 08:35:00,71.6,64.0,29.88,South,180,4.9,4.9,77,0.00,,,0.00,VWS V14.01,2013-08-27 22:35:00,
2013-08-28 08:36:00,71.6,64.0,29.88,SE,135,8.1,8.1,77,0.00,,,0.00,VWS V14.01,2013-08-27 22:36:00,
2013-08-28 08:37:00,71.6,64.0,29.88,SSW,202,9.6,9.6,77,0.00,,,0.00,VWS V14.01,2013-08-27 22:37:00,
2013-08-28 08:38:00,71.6,64.0,29.88,SW,225,7.8,9.6,77,0.00,,,0.00,VWS V14.01,2013-08-27 22:38:00,
2013-08-28 08:39:00,71.6,64.0,29.88,South,180,9.8,9.8,77,0.00,,,0.00,VWS V14.01,2013-08-27 22:39:00,
2013-08-28 08:40:00,71.8,63.8,29.88,SSW,202,6.0,9.8,76,0.00,,,0.00,VWS V14.01,2013-08-27 22:40:00,
2013-08-28 08:41:00,71.8,63.8,29.88,South,180,4.5,6.0,76,0.00,,,0.00,VWS V14.01,2013-08-27 22:41:00,
2013-08-28 08:42:00,71.8,63.8,29.88,South,180,5.8,5.8,76,0.00,,,0.00,VWS V14.01,2013-08-27 22:42:00,
2013-08-28 08:43:00,71.8,63.8,29.88,SSW,202,3.6,5.8,76,0.00,,,0.00,VWS V14.01,2013-08-27 22:43:00,
2013-08-28 08:44:00,72.0,64.0,29.88,SSW,202,3.6,3.6,76,0.00,,,0.00,VWS V14.01,2013-08-27 22:44:00,
2013-08-28 08:45:00,72.0,64.0,29.88,SSW,202,3.6,3.6,76,0.00,,,0.00,VWS V14.01,2013-08-27 22:45:00,
2013-08-28 08:46:00,72.1,64.2,29.88,South,180,10.5,10.5,76,0.00,,,0.00,VWS V14.01,2013-08-27 22:46:00,
2013-08-28 08:47:00,72.5,64.5,29.88,SSW,202,3.6,10.5,76,0.00,,,0.00,VWS V14.01,2013-08-27 22:47:00,
2013-08-28 08:48:00,72.5,64.5,29.88,South,180,4.9,4.9,76,0.00,,,0.00,VWS V14.01,2013-08-27 22:48:00,
2013-08-28 08:49:00,72.9,64.9,29.88,SSE,158,8.1,8.1,76,0.00,,,0.00,VWS V14.01,2013-08-27 22:49:00,
2013-08-28 08:50:00,72.9,64.9,29.88,WSW,248,3.6,8.1,76,0.00,,,0.00,VWS V14.01,2013-08-27 22:50:00,
2013-08-28 08:51:00,73.0,64.7,29.88,South,180,7.2,7.2,75,0.00,,,0.00,VWS V14.01,2013-08-27 22:51:00,
2013-08-28 08:52:00,73.0,64.7,29.88,SE,135,4.9,7.2,75,0.00,,,0.00,VWS V14.01,2013-08-27 22:52:00,
2013-08-28 08:53:00,73.4,65.0,29.88,SE,135,4.3,4.9,75,0.00,,,0.00,VWS V14.01,2013-08-27 22:53:00,
2013-08-28 08:54:00,73.4,64.6,29.88,SSE,158,7.2,7.2,74,0.00,,,0.00,VWS V14.01,2013-08-27 22:54:00,
2013-08-28 08:55:00,73.4,64.6,29.88,SSE,158,7.2,7.2,74,0.00,,,0.00,VWS V14.01,2013-08-27 22:55:00,
2013-08-28 08:56:00,73.6,64.8,29.88,SSE,158,5.6,7.2,74,0.00,,,0.00,VWS V14.01,2013-08-27 22:56:00,
2013-08-28 08:57:00,73.6,64.8,29.88,South,180,6.3,6.3,74,0.00,,,0.00,VWS V14.01,2013-08-27 22:57:00,
2013-08-28 08:58:00,73.8,65.0,29.88,South,180,6.3,6.3,74,0.00,,,0.00,VWS V14.01,2013-08-27 22:58:00,
2013-08-28 08:59:00,73.8,65.0,29.88,South,180,6.3,6.3,74,0.00,,,0.00,VWS V14.01,2013-08-27 22:59:00,
2013-08-28 09:00:00,74.1,65.3,29.88,SSE,158,8.5,8.5,74,0.00,,,0.00,VWS V14.01,2013-08-27 23:00:00,
2013-08-28 09:01:00,74.1,65.3,29.88,SSW,202,3.8,8.5,74,0.00,,,0.00,VWS V14.01,2013-08-27 23:01:00,
2013-08-28 09:02:00,74.1,65.3,29.88,SE,135,4.0,4.0,74,0.00,,,0.00,VWS V14.01,2013-08-27 23:02:00,
2013-08-28 09:03:00,74.1,64.9,29.88,SSW,202,7.2,7.2,73,0.00,,,0.00,VWS V14.01,2013-08-27 23:03:00,
2013-08-28 09:04:00,74.1,64.9,29.88,SSW,202,7.2,7.2,73,0.00,,,0.00,VWS V14.01,2013-08-27 23:04:00,
2013-08-28 09:05:00,74.3,65.1,29.88,SSW,202,7.2,7.2,73,0.00,,,0.00,VWS V14.01,2013-08-27 23:05:00,
2013-08-28 09:06:00,74.3,65.1,29.88,South,180,4.3,10.5,73,0.00,,,0.00,VWS V14.01,2013-08-27 23:06:00,
2013-08-28 09:07:00,74.3,65.1,29.88,SW,225,6.0,6.0,73,0.00,,,0.00,VWS V14.01,2013-08-27 23:07:00,
2013-08-28 09:08:00,74.3,65.1,29.88,SE,135,7.8,7.8,73,0.00,,,0.00,VWS V14.01,2013-08-27 23:08:00,
2013-08-28 09:09:00,74.3,65.1,29.88,SE,135,7.8,7.8,73,0.00,,,0.00,VWS V14.01,2013-08-27 23:09:00,
2013-08-28 09:10:00,74.5,64.9,29.88,SSE,158,7.4,7.8,72,0.00,,,0.00,VWS V14.01,2013-08-27 23:10:00,
2013-08-28 09:11:00,74.5,64.9,29.88,SSE,158,3.4,7.4,72,0.00,,,0.00,VWS V14.01,2013-08-27 23:11:00,
2013-08-28 09:12:00,74.7,65.0,29.88,SSE,158,3.4,3.4,72,0.00,,,0.00,VWS V14.01,2013-08-27 23:12:00,
2013-08-28 09:13:00,74.8,65.2,29.88,SSE,158,5.6,5.6,72,0.00,,,0.00,VWS V14.01,2013-08-27 23:13:00,
2013-08-28 09:14:00,74.8,65.2,29.88,SSW,202,4.3,5.6,72,0.00,,,0.00,VWS V14.01,2013-08-27 23:14:00,
2013-08-28 09:15:00,74.8,65.2,29.88,ESE,112,7.6,7.6,72,0.00,,,0.00,VWS V14.01,2013-08-27 23:15:00,
2013-08-28 09:16:00,74.8,65.2,29.88,SSE,158,4.0,7.6,72,0.00,,,0.00,VWS V14.01,2013-08-27 23:16:00,
2013-08-28 09:17:00,74.8,65.2,29.88,SE,135,4.0,4.0,72,0.00,,,0.00,VWS V14.01,2013-08-27 23:17:00,
2013-08-28 09:19:00,75.0,65.4,29.88,SSE,158,6.5,7.6,72,0.00,,,0.00,VWS V14.01,2013-08-27 23:19:00,
2013-08-28 09:20:00,75.2,65.2,29.88,SSE,158,3.8,6.5,71,0.00,,,0.00,VWS V14.01,2013-08-27 23:20:00,
2013-08-28 09:21:00,75.2,65.2,29.88,SSE,158,6.0,6.0,71,0.00,,,0.00,VWS V14.01,2013-08-27 23:21:00,
2013-08-28 09:22:00,75.4,65.3,29.88,SSE,158,6.0,6.0,71,0.00,,,0.00,VWS V14.01,2013-08-27 23:22:00,
2013-08-28 09:23:00,75.4,65.3,29.88,South,180,4.0,6.0,71,0.00,,,0.00,VWS V14.01,2013-08-27 23:23:00,
2013-08-28 09:24:00,75.4,65.3,29.88,SE,135,3.6,4.0,71,0.00,,,0.00,VWS V14.01,2013-08-27 23:24:00,
2013-08-28 09:25:00,75.4,64.9,29.88,SE,135,2.0,3.6,70,0.00,,,0.00,VWS V14.01,2013-08-27 23:25:00,
2013-08-28 09:26:00,75.4,64.9,29.88,SE,135,2.0,2.0,70,0.00,,,0.00,VWS V14.01,2013-08-27 23:26:00,
2013-08-28 09:27:00,75.6,65.1,29.88,SE,135,5.8,5.8,70,0.00,,,0.00,VWS V14.01,2013-08-27 23:27:00,
2013-08-28 09:28:00,75.6,65.1,29.88,South,180,7.8,7.8,70,0.00,,,0.00,VWS V14.01,2013-08-27 23:28:00,
2013-08-28 09:29:00,75.7,65.3,29.88,East,90,3.6,7.8,70,0.00,,,0.00,VWS V14.01,2013-08-27 23:29:00,
2013-08-28 09:30:00,75.7,65.3,29.88,SE,135,5.4,5.4,70,0.00,,,0.00,VWS V14.01,2013-08-27 23:30:00,
2013-08-28 09:31:00,75.7,65.3,29.88,ENE,68,2.9,5.4,70,0.00,,,0.00,VWS V14.01,2013-08-27 23:31:00,
2013-08-28 09:32:00,75.7,65.3,29.88,SW,225,5.4,5.4,70,0.00,,,0.00,VWS V14.01,2013-08-27 23:32:00,
2013-08-28 09:33:00,75.7,65.3,29.88,SSE,158,2.7,5.4,70,0.00,,,0.00,VWS V14.01,2013-08-27 23:33:00,
2013-08-28 09:34:00,75.9,65.4,29.88,SSW,202,7.4,7.4,70,0.00,,,0.00,VWS V14.01,2013-08-27 23:34:00,
2013-08-28 09:35:00,76.1,65.6,29.88,SSW,202,4.0,4.0,70,0.00,,,0.00,VWS V14.01,2013-08-27 23:35:00,
2013-08-28 09:36:00,76.1,65.6,29.88,ESE,112,6.9,6.9,70,0.00,,,0.00,VWS V14.01,2013-08-27 23:36:00,
2013-08-28 09:37:00,76.1,65.6,29.88,SE,135,6.0,6.9,70,0.00,,,0.00,VWS V14.01,2013-08-27 23:37:00,
2013-08-28 09:38:00,76.1,65.6,29.88,East,90,3.6,6.0,70,0.00,,,0.00,VWS V14.01,2013-08-27 23:38:00,
2013-08-28 09:39:00,76.1,65.6,29.88,WSW,248,2.5,3.6,70,0.00,,,0.00,VWS V14.01,2013-08-27 23:39:00,
2013-08-28 09:40:00,76.1,65.6,29.88,SSW,202,4.9,4.9,70,0.00,,,0.00,VWS V14.01,2013-08-27 23:40:00,
2013-08-28 09:41:00,75.9,65.4,29.88,SSW,202,4.9,4.9,70,0.00,,,0.00,VWS V14.01,2013-08-27 23:41:00,
2013-08-28 09:42:00,75.9,65.4,29.88,South,180,3.4,4.9,70,0.00,,,0.00,VWS V14.01,2013-08-27 23:42:00,
2013-08-28 09:43:00,75.7,65.3,29.88,South,180,3.4,3.4,70,0.00,,,0.00,VWS V14.01,2013-08-27 23:43:00,
2013-08-28 09:44:00,75.7,65.3,29.88,SSW,202,3.4,3.4,70,0.00,,,0.00,VWS V14.01,2013-08-27 23:44:00,
2013-08-28 09:45:00,75.6,65.1,29.88,SE,135,4.3,4.3,70,0.00,,,0.00,VWS V14.01,2013-08-27 23:45:00,
2013-08-28 09:46:00,75.6,65.1,29.88,SE,135,4.3,4.3,70,0.00,,,0.00,VWS V14.01,2013-08-27 23:46:00,
2013-08-28 09:47:00,75.7,65.3,29.88,SE,135,4.3,4.3,70,0.00,,,0.00,VWS V14.01,2013-08-27 23:47:00,
2013-08-28 09:48:00,75.7,65.3,29.88,South,180,3.1,4.3,70,0.00,,,0.00,VWS V14.01,2013-08-27 23:48:00,
2013-08-28 09:49:00,75.7,65.3,29.88,SW,225,4.9,4.9,70,0.00,,,0.00,VWS V14.01,2013-08-27 23:49:00,
2013-08-28 09:50:00,75.6,65.1,29.88,South,180,5.4,5.4,70,0.00,,,0.00,VWS V14.01,2013-08-27 23:50:00,
2013-08-28 09:51:00,75.6,65.1,29.88,South,180,8.5,8.5,70,0.00,,,0.00,VWS V14.01,2013-08-27 23:51:00,
2013-08-28 09:52:00,75.6,65.1,29.88,South,180,8.5,8.5,70,0.00,,,0.00,VWS V14.01,2013-08-27 23:52:00,
2013-08-28 09:53:00,75.6,65.1,29.88,South,180,6.5,8.5,70,0.00,,,0.00,VWS V14.01,2013-08-27 23:53:00,
2013-08-28 09:54:00,75.4,64.9,29.88,SSE,158,6.5,6.5,70,0.00,,,0.00,VWS V14.01,2013-08-27 23:54:00,
2013-08-28 09:55:00,75.4,64.9,29.88,ESE,112,2.9,4.9,70,0.00,,,0.00,VWS V14.01,2013-08-27 23:55:00,
2013-08-28 09:56:00,75.4,64.9,29.88,ESE,112,2.9,4.9,70,0.00,,,0.00,VWS V14.01,2013-08-27 23:56:00,
2013-08-28 09:57:00,75.6,65.1,29.88,SE,135,3.1,3.1,70,0.00,,,0.00,VWS V14.01,2013-08-27 23:57:00,
2013-08-28 09:58:00,75.6,65.1,29.88,South,180,7.6,7.6,70,0.00,,,0.00,VWS V14.01,2013-08-27 23:58:00,
2013-08-28 09:59:00,75.6,65.1,29.88,SE,135,6.5,7.6,70,0.00,,,0.00,VWS V14.01,2013-08-27 23:59:00,
2013-08-28 10:00:00,75.6,65.1,29.88,SSW,202,1.6,5.6,70,0.00,,,0.00,VWS V14.01,2013-08-28 00:00:00,
2013-08-28 10:01:00,75.6,65.1,29.88,SSW,202,1.6,5.6,70,0.00,,,0.00,VWS V14.01,2013-08-28 00:01:00,
2013-08-28 10:02:00,75.6,65.1,29.88,SSE,158,5.4,5.4,70,0.00,,,0.00,VWS V14.01,2013-08-28 00:02:00,
2013-08-28 10:03:00,75.6,65.1,29.88,SSE,158,5.4,5.4,70,0.00,,,0.00,VWS V14.01,2013-08-28 00:03:00,
2013-08-28 10:04:00,75.7,65.3,29.88,South,180,7.2,7.2,70,0.00,,,0.00,VWS V14.01,2013-08-28 00:04:00,
2013-08-28 10:05:00,75.9,65.4,29.88,SSE,158,0.9,3.1,70,0.00,,,0.00,VWS V14.01,2013-08-28 00:05:00,
2013-08-28 10:06:00,75.9,65.4,29.88,SSE,158,0.9,3.1,70,0.00,,,0.00,VWS V14.01,2013-08-28 00:06:00,
2013-08-28 10:07:00,75.9,65.4,29.88,SSE,158,7.6,7.6,70,0.00,,,0.00,VWS V14.01,2013-08-28 00:07:00,
2013-08-28 10:08:00,76.3,65.8,29.88,SSE,158,3.1,7.6,70,0.00,,,0.00,VWS V14.01,2013-08-28 00:08:00,
2013-08-28 10:09:00,76.3,65.8,29.88,SSE,158,7.4,7.4,70,0.00,,,0.00,VWS V14.01,2013-08-28 00:09:00,
2013-08-28 10:10:00,76.3,65.8,29.88,SE,135,4.7,4.7,70,0.00,,,0.00,VWS V14.01,2013-08-28 00:10:00,
2013-08-28 10:11:00,76.3,65.8,29.88,SE,135,4.7,4.7,70,0.00,,,0.00,VWS V14.01,2013-08-28 00:11:00,
2013-08-28 10:12:00,76.3,65.8,29.88,SSE,158,3.1,4.7,70,0.00,,,0.00,VWS V14.01,2013-08-28 00:12:00,
2013-08-28 10:13:00,76.3,65.8,29.88,South,180,5.6,5.6,70,0.00,,,0.00,VWS V14.01,2013-08-28 00:13:00,
2013-08-28 10:14:00,76.3,65.8,29.88,SSE,158,2.9,5.6,70,0.00,,,0.00,VWS V14.01,2013-08-28 00:14:00,
2013-08-28 10:15:00,76.1,65.6,29.88,SW,225,1.6,6.0,70,0.00,,,0.00,VWS V14.01,2013-08-28 00:15:00,
2013-08-28 10:16:00,76.1,65.6,29.88,SSE,158,4.9,6.0,70,0.00,,,0.00,VWS V14.01,2013-08-28 00:16:00,
2013-08-28 10:17:00,76.1,65.6,29.88,SW,225,4.0,4.9,70,0.00,,,0.00,VWS V14.01,2013-08-28 00:17:00,
2013-08-28 10:18:00,76.1,65.6,29.88,SSW,202,4.0,4.0,70,0.00,,,0.00,VWS V14.01,2013-08-28 00:18:00,
2013-08-28 10:19:00,76.1,65.6,29.88,SSW,202,4.0,4.0,70,0.00,,,0.00,VWS V14.01,2013-08-28 00:19:00,
2013-08-28 10:20:00,76.3,65.8,29.88,SSW,202,5.4,5.4,70,0.00,,,0.00,VWS V14.01,2013-08-28 00:20:00,
2013-08-28 10:21:00,76.3,65.8,29.88,SSW,202,5.4,5.4,70,0.00,,,0.00,VWS V14.01,2013-08-28 00:21:00,
2013-08-28 10:22:00,76.8,66.3,29.88,SSW,202,5.4,5.4,70,0.00,,,0.00,VWS V14.01,2013-08-28 00:22:00,
2013-08-28 10:23:00,76.8,66.3,29.88,SSW,202,5.4,5.4,70,0.00,,,0.00,VWS V14.01,2013-08-28 00:23:00,
2013-08-28 10:24:00,77.0,66.5,29.88,South,180,6.7,6.7,70,0.00,,,0.00,VWS V14.01,2013-08-28 00:24:00,
2013-08-28 10:25:00,77.0,66.5,29.88,SW,225,7.6,7.6,70,0.00,,,0.00,VWS V14.01,2013-08-28 00:25:00,
2013-08-28 10:26:00,77.0,66.5,29.88,SE,135,4.0,7.6,70,0.00,,,0.00,VWS V14.01,2013-08-28 00:26:00,
2013-08-28 10:27:00,76.6,66.1,29.88,SE,135,4.0,4.0,70,0.00,,,0.00,VWS V14.01,2013-08-28 00:27:00,
2013-08-28 10:28:00,76.6,66.1,29.88,SW,225,7.6,7.6,70,0.00,,,0.00,VWS V14.01,2013-08-28 00:28:00,
2013-08-28 10:29:00,76.5,66.0,29.88,SW,225,3.1,7.6,70,0.00,,,0.00,VWS V14.01,2013-08-28 00:29:00,
2013-08-28 10:30:00,76.5,66.0,29.88,SE,135,2.2,3.1,70,0.00,,,0.00,VWS V14.01,2013-08-28 00:30:00,
2013-08-28 10:31:00,76.5,66.0,29.88,SSE,158,2.5,2.5,70,0.00,,,0.00,VWS V14.01,2013-08-28 00:31:00,
2013-08-28 10:32:00,76.3,65.8,29.88,SSE,158,7.4,7.4,70,0.00,,,0.00,VWS V14.01,2013-08-28 00:32:00,
2013-08-28 10:33:00,76.3,65.8,29.88,SSE,158,6.9,7.4,70,0.00,,,0.00,VWS V14.01,2013-08-28 00:33:00,
2013-08-28 10:34:00,76.3,65.8,29.88,South,180,3.8,6.9,70,0.00,,,0.00,VWS V14.01,2013-08-28 00:34:00,
2013-08-28 10:35:00,76.3,65.8,29.88,SSE,158,3.4,3.8,70,0.00,,,0.00,VWS V14.01,2013-08-28 00:35:00,
2013-08-28 10:36:00,76.1,65.6,29.88,South,180,8.5,8.5,70,0.00,,,0.00,VWS V14.01,2013-08-28 00:36:00,
2013-08-28 10:37:00,76.1,65.6,29.88,North,360,1.6,8.5,70,0.00,,,0.00,VWS V14.01,2013-08-28 00:37:00,
2013-08-28 10:38:00,75.9,65.4,29.88,SE,135,0.0,1.6,70,0.00,,,0.00,VWS V14.01,2013-08-28 00:38:00,
2013-08-28 10:39:00,75.9,65.4,29.88,South,180,2.5,2.5,70,0.00,,,0.00,VWS V14.01,2013-08-28 00:39:00,
2013-08-28 10:40:00,75.7,65.3,29.88,SE,135,5.6,5.6,70,0.00,,,0.00,VWS V14.01,2013-08-28 00:40:00,
2013-08-28 10:41:00,75.7,65.3,29.88,SSE,158,5.6,5.6,70,0.00,,,0.00,VWS V14.01,2013-08-28 00:41:00,
2013-08-28 10:42:00,75.7,65.3,29.88,SSE,158,5.6,5.6,70,0.00,,,0.00,VWS V14.01,2013-08-28 00:42:00,
2013-08-28 10:43:00,75.7,65.3,29.88,South,180,3.6,5.6,70,0.00,,,0.00,VWS V14.01,2013-08-28 00:43:00,
2013-08-28 10:44:00,75.7,65.3,29.88,SSE,158,3.6,3.6,70,0.00,,,0.00,VWS V14.01,2013-08-28 00:44:00,
2013-08-28 10:45:00,75.7,65.3,29.88,SE,135,3.6,3.6,70,0.00,,,0.00,VWS V14.01,2013-08-28 00:45:00,
2013-08-28 10:46:00,75.6,65.1,29.88,South,180,4.3,4.3,70,0.00,,,0.00,VWS V14.01,2013-08-28 00:46:00,
2013-08-28 10:47:00,75.6,65.1,29.88,South,180,4.3,4.3,70,0.00,,,0.00,VWS V14.01,2013-08-28 00:47:00,
2013-08-28 10:48:00,75.6,65.1,29.88,South,180,3.4,4.3,70,0.00,,,0.00,VWS V14.01,2013-08-28 00:48:00,
2013-08-28 10:49:00,75.6,65.1,29.88,SSE,158,3.1,3.4,70,0.00,,,0.00,VWS V14.01,2013-08-28 00:49:00,
2013-08-28 10:50:00,75.6,65.1,29.88,South,180,6.3,6.3,70,0.00,,,0.00,VWS V14.01,2013-08-28 00:50:00,
2013-08-28 10:51:00,75.6,65.1,29.88,South,180,6.0,6.0,70,0.00,,,0.00,VWS V14.01,2013-08-28 00:51:00,
2013-08-28 10:52:00,75.6,65.1,29.88,South,180,3.8,6.0,70,0.00,,,0.00,VWS V14.01,2013-08-28 00:52:00,
2013-08-28 10:53:00,75.6,65.1,29.88,SSE,158,4.0,4.0,70,0.00,,,0.00,VWS V14.01,2013-08-28 00:53:00,
2013-08-28 10:54:00,75.4,64.9,29.88,WSW,248,2.5,4.0,70,0.00,,,0.00,VWS V14.01,2013-08-28 00:54:00,
2013-08-28 10:55:00,75.4,64.9,29.88,West,270,3.6,3.6,70,0.00,,,0.00,VWS V14.01,2013-08-28 00:55:00,
2013-08-28 10:56:00,75.4,64.9,29.88,SSW,202,5.8,5.8,70,0.00,,,0.00,VWS V14.01,2013-08-28 00:56:00,
2013-08-28 10:57:00,75.4,64.9,29.88,SSW,202,5.8,5.8,70,0.00,,,0.00,VWS V14.01,2013-08-28 00:57:00,
2013-08-28 10:58:00,75.4,64.9,29.88,East,90,3.6,5.8,70,0.00,,,0.00,VWS V14.01,2013-08-28 00:58:00,
2013-08-28 10:59:00,75.4,64.9,29.88,ESE,112,3.8,3.8,70,0.00,,,0.00,VWS V14.01,2013-08-28 00:59:00,
2013-08-28 11:00:00,75.4,64.9,29.88,ESE,112,4.0,4.0,70,0.00,,,0.00,VWS V14.01,2013-08-28 01:00:00,
2013-08-28 11:01:00,75.4,64.9,29.88,SW,225,6.0,6.0,70,0.00,,,0.00,VWS V14.01,2013-08-28 01:01:00,
2013-08-28 11:02:00,75.4,64.9,29.88,SE,135,3.8,6.0,70,0.00,,,0.00,VWS V14.01,2013-08-28 01:02:00,
2013-08-28 11:03:00,75.4,64.9,29.88,NNE,22,2.7,3.8,70,0.00,,,0.00,VWS V14.01,2013-08-28 01:03:00,
2013-08-28 11:04:00,75.4,64.9,29.88,South,180,2.2,2.7,70,0.00,,,0.00,VWS V14.01,2013-08-28 01:04:00,
2013-08-28 11:06:00,75.4,64.9,29.85,SW,225,3.8,4.0,70,0.00,,,0.00,VWS V14.01,2013-08-28 01:06:00,
2013-08-28 11:07:00,75.4,64.9,29.85,SW,225,3.8,3.8,70,0.00,,,0.00,VWS V14.01,2013-08-28 01:07:00,
2013-08-28 11:08:00,75.6,65.1,29.85,SSW,202,3.1,3.8,70,0.00,,,0.00,VWS V14.01,2013-08-28 01:08:00,
2013-08-28 11:09:00,75.6,65.1,29.85,South,180,2.0,3.1,70,0.00,,,0.00,VWS V14.01,2013-08-28 01:09:00,
2013-08-28 11:10:00,75.6,65.1,29.85,SSW,202,4.0,4.0,70,0.00,,,0.00,VWS V14.01,2013-08-28 01:10:00,
2013-08-28 11:11:00,75.6,65.1,29.85,SSW,202,5.4,5.4,70,0.00,,,0.00,VWS V14.01,2013-08-28 01:11:00,
2013-08-28 11:12:00,75.6,65.1,29.85,South,180,6.3,6.3,70,0.00,,,0.00,VWS V14.01,2013-08-28 01:12:00,
2013-08-28 11:13:00,75.6,65.1,29.85,SSW,202,3.1,6.3,70,0.00,,,0.00,VWS V14.01,2013-08-28 01:13:00,
2013-08-28 11:14:00,75.6,65.1,29.85,SSW,202,3.1,3.1,70,0.00,,,0.00,VWS V14.01,2013-08-28 01:14:00,
2013-08-28 11:15:00,75.6,65.1,29.85,South,180,2.0,3.1,70,0.00,,,0.00,VWS V14.01,2013-08-28 01:15:00,
2013-08-28 11:16:00,75.6,65.1,29.85,ESE,112,4.0,4.0,70,0.00,,,0.00,VWS V14.01,2013-08-28 01:16:00,
2013-08-28 11:17:00,75.6,65.1,29.85,WNW,292,5.8,5.8,70,0.00,,,0.00,VWS V14.01,2013-08-28 01:17:00,
2013-08-28 11:18:00,75.7,65.3,29.85,South,180,4.9,5.8,70,0.00,,,0.00,VWS V14.01,2013-08-28 01:18:00,
2013-08-28 11:19:00,75.7,65.3,29.85,South,180,2.0,4.9,70,0.00,,,0.00,VWS V14.01,2013-08-28 01:19:00,
2013-08-28 11:20:00,75.7,65.3,29.85,South,180,2.0,2.0,70,0.00,,,0.00,VWS V14.01,2013-08-28 01:20:00,
2013-08-28 11:21:00,75.9,65.4,29.85,NE,45,1.6,2.0,70,0.00,,,0.00,VWS V14.01,2013-08-28 01:21:00,
2013-08-28 11:22:00,75.9,65.4,29.85,NE,45,1.6,2.0,70,0.00,,,0.00,VWS V14.01,2013-08-28 01:22:00,
2013-08-28 11:23:00,75.9,65.4,29.85,East,90,3.1,3.1,70,0.00,,,0.00,VWS V14.01,2013-08-28 01:23:00,
2013-08-28 11:24:00,76.1,65.6,29.85,East,90,3.1,3.1,70,0.00,,,0.00,VWS V14.01,2013-08-28 01:24:00,
2013-08-28 11:25:00,76.1,65.6,29.85,NE,45,3.8,3.8,70,0.00,,,0.00,VWS V14.01,2013-08-28 01:25:00,
2013-08-28 11:26:00,76.1,65.6,29.85,SW,225,3.4,3.4,70,0.00,,,0.00,VWS V14.01,2013-08-28 01:26:00,
2013-08-28 11:27:00,76.1,65.6,29.85,North,360,1.1,3.4,70,0.00,,,0.00,VWS V14.01,2013-08-28 01:27:00,
2013-08-28 11:28:00,76.1,65.6,29.85,SSW,202,5.8,5.8,70,0.00,,,0.00,VWS V14.01,2013-08-28 01:28:00,
2013-08-28 11:29:00,76.1,65.6,29.85,SSE,158,2.7,5.8,70,0.00,,,0.00,VWS V14.01,2013-08-28 01:29:00,
2013-08-28 11:30:00,76.1,65.6,29.85,SSE,158,2.7,2.7,70,0.00,,,0.00,VWS V14.01,2013-08-28 01:30:00,
2013-08-28 11:31:00,76.1,65.2,29.85,NNE,22,2.0,2.7,69,0.00,,,0.00,VWS V14.01,2013-08-28 01:31:00,
2013-08-28 11:32:00,76.1,65.2,29.85,NNE,22,2.0,2.7,69,0.00,,,0.00,VWS V14.01,2013-08-28 01:32:00,
2013-08-28 11:33:00,75.9,65.0,29.85,NNE,22,2.0,2.0,69,0.00,,,0.00,VWS V14.01,2013-08-28 01:33:00,
2013-08-28 11:34:00,76.1,65.2,29.85,SSW,202,7.2,7.2,69,0.00,,,0.00,VWS V14.01,2013-08-28 01:34:00,
2013-08-28 11:35:00,76.1,65.2,29.85,NE,45,7.6,7.6,69,0.00,,,0.00,VWS V14.01,2013-08-28 01:35:00,
2013-08-28 11:36:00,76.3,65.4,29.85,SE,135,2.9,2.9,69,0.00,,,0.00,VWS V14.01,2013-08-28 01:36:00,
2013-08-28 11:37:00,76.3,65.4,29.85,SE,135,2.9,2.9,69,0.00,,,0.00,VWS V14.01,2013-08-28 01:37:00,
2013-08-28 11:38:00,76.1,65.2,29.85,NNE,22,2.5,2.9,69,0.00,,,0.00,VWS V14.01,2013-08-28 01:38:00,
2013-08-28 11:39:00,76.1,65.2,29.85,SSE,158,5.4,5.4,69,0.00,,,0.00,VWS V14.01,2013-08-28 01:39:00,
2013-08-28 11:40:00,76.3,65.4,29.85,East,90,3.6,5.6,69,0.00,,,0.00,VWS V14.01,2013-08-28 01:40:00,
2013-08-28 11:41:00,76.3,65.4,29.85,ESE,112,2.9,2.9,69,0.00,,,0.00,VWS V14.01,2013-08-28 01:41:00,
2013-08-28 11:42:00,76.3,65.4,29.85,ESE,112,2.9,2.9,69,0.00,,,0.00,VWS V14.01,2013-08-28 01:42:00,
2013-08-28 11:43:00,76.3,65.8,29.85,SE,135,5.8,5.8,70,0.00,,,0.00,VWS V14.01,2013-08-28 01:43:00,
2013-08-28 11:44:00,76.3,65.8,29.85,SE,135,3.1,5.8,70,0.00,,,0.00,VWS V14.01,2013-08-28 01:44:00,
2013-08-28 11:45:00,76.3,65.4,29.85,NW,315,3.8,3.8,69,0.00,,,0.00,VWS V14.01,2013-08-28 01:45:00,
2013-08-28 11:46:00,76.3,65.4,29.85,North,360,6.3,6.3,69,0.00,,,0.00,VWS V14.01,2013-08-28 01:46:00,
2013-08-28 11:47:00,76.3,65.4,29.85,North,360,6.3,6.3,69,0.00,,,0.00,VWS V14.01,2013-08-28 01:47:00,
2013-08-28 11:48:00,76.3,65.4,29.85,SE,135,6.3,6.3,69,0.00,,,0.00,VWS V14.01,2013-08-28 01:48:00,
2013-08-28 11:49:00,76.3,65.4,29.85,ESE,112,5.4,6.3,69,0.00,,,0.00,VWS V14.01,2013-08-28 01:49:00,
2013-08-28 11:50:00,76.3,65.4,29.85,SSW,202,4.0,5.4,69,0.00,,,0.00,VWS V14.01,2013-08-28 01:50:00,
2013-08-28 11:51:00,76.3,65.4,29.85,NNE,22,2.9,2.9,69,0.00,,,0.00,VWS V14.01,2013-08-28 01:51:00,
2013-08-28 11:52:00,76.3,65.4,29.85,NNE,22,2.9,2.9,69,0.00,,,0.00,VWS V14.01,2013-08-28 01:52:00,
2013-08-28 11:53:00,76.3,65.4,29.85,NNE,22,2.9,2.9,69,0.00,,,0.00,VWS V14.01,2013-08-28 01:53:00,
2013-08-28 11:54:00,76.5,65.5,29.85,ESE,112,7.8,7.8,69,0.00,,,0.00,VWS V14.01,2013-08-28 01:54:00,
2013-08-28 11:55:00,76.5,65.5,29.85,East,90,3.4,7.8,69,0.00,,,0.00,VWS V14.01,2013-08-28 01:55:00,
2013-08-28 11:56:00,76.5,65.5,29.85,SE,135,7.6,7.6,69,0.00,,,0.00,VWS V14.01,2013-08-28 01:56:00,
2013-08-28 11:57:00,76.5,65.5,29.85,SE,135,7.6,7.6,69,0.00,,,0.00,VWS V14.01,2013-08-28 01:57:00,
2013-08-28 11:58:00,76.5,65.5,29.85,SE,135,7.6,7.6,69,0.00,,,0.00,VWS V14.01,2013-08-28 01:58:00,
2013-08-28 11:59:00,76.5,65.1,29.85,SE,135,3.4,7.6,68,0.00,,,0.00,VWS V14.01,2013-08-28 01:59:00,
2013-08-28 12:00:00,76.5,65.1,29.85,ENE,68,4.0,4.0,68,0.00,,,0.00,VWS V14.01,2013-08-28 02:00:00,
2013-08-28 12:01:00,76.6,65.3,29.85,SE,135,6.3,6.3,68,0.00,,,0.00,VWS V14.01,2013-08-28 02:01:00,
2013-08-28 12:02:00,76.6,65.3,29.85,SE,135,6.3,6.3,68,0.00,,,0.00,VWS V14.01,2013-08-28 02:02:00,
2013-08-28 12:03:00,76.6,65.3,29.85,ESE,112,3.8,6.3,68,0.00,,,0.00,VWS V14.01,2013-08-28 02:03:00,
2013-08-28 12:04:00,76.6,65.3,29.82,SE,135,2.5,3.8,68,0.00,,,0.00,VWS V14.01,2013-08-28 02:04:00,
2013-08-28 12:05:00,76.6,65.3,29.82,SE,135,2.5,2.5,68,0.00,,,0.00,VWS V14.01,2013-08-28 02:05:00,
2013-08-28 12:06:00,76.5,65.1,29.82,East,90,3.1,3.1,68,0.00,,,0.00,VWS V14.01,2013-08-28 02:06:00,
2013-08-28 12:07:00,76.5,65.1,29.82,SE,135,3.6,3.6,68,0.00,,,0.00,VWS V14.01,2013-08-28 02:07:00,
2013-08-28 12:08:00,76.5,65.1,29.82,ESE,112,4.7,7.8,68,0.00,,,0.00,VWS V14.01,2013-08-28 02:08:00,
2013-08-28 12:09:00,76.5,65.1,29.82,SSE,158,3.6,4.7,68,0.00,,,0.00,VWS V14.01,2013-08-28 02:09:00,
2013-08-28 12:10:00,76.5,65.1,29.82,SSE,158,2.9,3.6,68,0.00,,,0.00,VWS V14.01,2013-08-28 02:10:00,
2013-08-28 12:11:00,76.6,65.3,29.82,East,90,4.9,4.9,68,0.00,,,0.00,VWS V14.01,2013-08-28 02:11:00,
2013-08-28 12:12:00,76.6,65.3,29.82,NE,45,1.6,4.9,68,0.00,,,0.00,VWS V14.01,2013-08-28 02:12:00,
2013-08-28 12:13:00,76.5,65.1,29.82,NNE,22,2.7,2.7,68,0.00,,,0.00,VWS V14.01,2013-08-28 02:13:00,
2013-08-28 12:14:00,76.5,65.1,29.82,ESE,112,5.8,5.8,68,0.00,,,0.00,VWS V14.01,2013-08-28 02:14:00,
2013-08-28 12:15:00,76.6,65.3,29.82,East,90,5.8,5.8,68,0.00,,,0.00,VWS V14.01,2013-08-28 02:15:00,
2013-08-28 12:16:00,76.6,65.3,29.82,South,180,7.4,7.4,68,0.00,,,0.00,VWS V14.01,2013-08-28 02:16:00,
2013-08-28 12:17:00,76.5,65.1,29.82,SE,135,3.1,7.4,68,0.00,,,0.00,VWS V14.01,2013-08-28 02:17:00,
2013-08-28 12:18:00,76.5,65.1,29.82,SE,135,1.6,3.1,68,0.00,,,0.00,VWS V14.01,2013-08-28 02:18:00,
2013-08-28 12:19:00,76.5,65.1,29.82,NW,315,2.5,2.5,68,0.00,,,0.00,VWS V14.01,2013-08-28 02:19:00,
2013-08-28 12:20:00,76.5,65.5,29.82,ENE,68,6.3,6.3,69,0.00,,,0.00,VWS V14.01,2013-08-28 02:20:00,
2013-08-28 12:21:00,76.5,65.5,29.82,East,90,7.8,7.8,69,0.00,,,0.00,VWS V14.01,2013-08-28 02:21:00,
2013-08-28 12:22:00,76.3,65.4,29.82,SW,225,4.0,7.8,69,0.00,,,0.00,VWS V14.01,2013-08-28 02:22:00,
2013-08-28 12:23:00,76.3,65.4,29.82,NNE,22,2.0,4.0,69,0.00,,,0.00,VWS V14.01,2013-08-28 02:23:00,
2013-08-28 12:24:00,76.3,65.4,29.82,NW,315,3.4,3.4,69,0.00,,,0.00,VWS V14.01,2013-08-28 02:24:00,
2013-08-28 12:25:00,76.3,65.4,29.82,SW,225,3.8,3.8,69,0.00,,,0.00,VWS V14.01,2013-08-28 02:25:00,
2013-08-28 12:26:00,76.3,64.9,29.82,South,180,3.6,3.8,68,0.00,,,0.00,VWS V14.01,2013-08-28 02:26:00,
2013-08-28 12:27:00,76.5,65.1,29.82,SSE,158,2.9,3.6,68,0.00,,,0.00,VWS V14.01,2013-08-28 02:27:00,
2013-08-28 12:28:00,76.5,65.1,29.82,South,180,2.9,2.9,68,0.00,,,0.00,VWS V14.01,2013-08-28 02:28:00,
2013-08-28 12:29:00,76.5,65.5,29.82,SSE,158,2.5,2.9,69,0.00,,,0.00,VWS V14.01,2013-08-28 02:29:00,
2013-08-28 12:30:00,76.5,65.5,29.82,South,180,6.3,6.3,69,0.00,,,0.00,VWS V14.01,2013-08-28 02:30:00,
2013-08-28 12:31:00,76.5,65.1,29.82,SW,225,6.0,6.3,68,0.00,,,0.00,VWS V14.01,2013-08-28 02:31:00,
2013-08-28 12:32:00,76.5,65.1,29.82,SSW,202,7.6,7.6,68,0.00,,,0.00,VWS V14.01,2013-08-28 02:32:00,
2013-08-28 12:33:00,76.5,65.1,29.82,SSW,202,3.1,7.6,68,0.00,,,0.00,VWS V14.01,2013-08-28 02:33:00,
2013-08-28 12:34:00,76.5,65.1,29.82,SW,225,3.4,3.4,68,0.00,,,0.00,VWS V14.01,2013-08-28 02:34:00,
2013-08-28 12:35:00,76.5,65.1,29.82,NE,45,3.1,3.4,68,0.00,,,0.00,VWS V14.01,2013-08-28 02:35:00,
2013-08-28 12:36:00,76.6,65.3,29.82,North,360,0.0,3.8,68,0.00,,,0.00,VWS V14.01,2013-08-28 02:36:00,
2013-08-28 12:37:00,76.6,65.3,29.82,SSE,158,2.9,2.9,68,0.00,,,0.00,VWS V14.01,2013-08-28 02:37:00,
2013-08-28 12:38:00,76.6,65.3,29.82,SSE,158,2.9,2.9,68,0.00,,,0.00,VWS V14.01,2013-08-28 02:38:00,
2013-08-28 12:39:00,76.6,65.3,29.82,NE,45,2.5,2.9,68,0.00,,,0.00,VWS V14.01,2013-08-28 02:39:00,
2013-08-28 12:40:00,76.6,65.3,29.82,South,180,4.7,4.7,68,0.00,,,0.00,VWS V14.01,2013-08-28 02:40:00,
2013-08-28 12:41:00,76.6,65.3,29.82,SSE,158,5.4,5.4,68,0.00,,,0.00,VWS V14.01,2013-08-28 02:41:00,
2013-08-28 12:42:00,76.6,65.3,29.82,SSW,202,4.0,4.0,68,0.00,,,0.00,VWS V14.01,2013-08-28 02:42:00,
2013-08-28 12:43:00,76.6,65.3,29.82,South,180,2.7,4.0,68,0.00,,,0.00,VWS V14.01,2013-08-28 02:43:00,
2013-08-28 12:44:00,76.6,65.3,29.82,South,180,2.7,2.7,68,0.00,,,0.00,VWS V14.01,2013-08-28 02:44:00,
2013-08-28 12:45:00,76.6,65.3,29.82,SW,225,2.7,2.7,68,0.00,,,0.00,VWS V14.01,2013-08-28 02:45:00,
2013-08-28 12:46:00,76.6,65.3,29.82,South,180,1.1,2.7,68,0.00,,,0.00,VWS V14.01,2013-08-28 02:46:00,
2013-08-28 12:47:00,76.6,65.7,29.82,WSW,248,2.9,2.9,69,0.00,,,0.00,VWS V14.01,2013-08-28 02:47:00,
2013-08-28 12:48:00,76.6,65.7,29.82,WSW,248,2.9,2.9,69,0.00,,,0.00,VWS V14.01,2013-08-28 02:48:00,
2013-08-28 12:49:00,76.5,65.5,29.82,WSW,248,2.9,2.9,69,0.00,,,0.00,VWS V14.01,2013-08-28 02:49:00,
2013-08-28 12:50:00,76.5,65.5,29.82,SE,135,2.7,2.9,69,0.00,,,0.00,VWS V14.01,2013-08-28 02:50:00,
2013-08-28 12:51:00,76.5,65.5,29.82,SE,135,4.0,4.0,69,0.00,,,0.00,VWS V14.01,2013-08-28 02:51:00,
2013-08-28 12:52:00,76.3,65.8,29.82,SE,135,4.0,4.0,70,0.00,,,0.00,VWS V14.01,2013-08-28 02:52:00,
2013-08-28 12:53:00,76.3,65.8,29.82,SSE,158,2.0,4.0,70,0.00,,,0.00,VWS V14.01,2013-08-28 02:53:00,
2013-08-28 12:54:00,76.3,65.8,29.82,South,180,3.6,3.6,70,0.00,,,0.00,VWS V14.01,2013-08-28 02:54:00,
2013-08-28 12:55:00,76.3,65.8,29.82,ESE,112,2.7,3.6,70,0.00,,,0.00,VWS V14.01,2013-08-28 02:55:00,
2013-08-28 12:56:00,76.3,66.2,29.82,SSE,158,1.6,2.7,71,0.00,,,0.00,VWS V14.01,2013-08-28 02:56:00,
2013-08-28 12:57:00,76.3,65.8,29.82,SW,225,0.0,0.0,70,0.00,,,0.00,VWS V14.01,2013-08-28 02:57:00,
2013-08-28 12:58:00,76.3,65.8,29.82,South,180,3.8,3.8,70,0.00,,,0.00,VWS V14.01,2013-08-28 02:58:00,
2013-08-28 12:59:00,76.3,65.8,29.82,South,180,3.8,3.8,70,0.00,,,0.00,VWS V14.01,2013-08-28 02:59:00,
2013-08-28 13:00:00,76.3,65.8,29.82,East,90,2.9,3.8,70,0.00,,,0.00,VWS V14.01,2013-08-28 03:00:00,
2013-08-28 13:01:00,76.3,65.8,29.82,East,90,0.9,2.9,70,0.00,,,0.00,VWS V14.01,2013-08-28 03:01:00,
2013-08-28 13:02:00,76.5,66.0,29.82,WSW,248,0.9,2.7,70,0.00,,,0.00,VWS V14.01,2013-08-28 03:02:00,
2013-08-28 13:03:00,76.5,66.0,29.82,WSW,248,0.9,2.7,70,0.00,,,0.00,VWS V14.01,2013-08-28 03:03:00,
2013-08-28 13:04:00,76.6,66.1,29.82,NW,315,3.6,3.6,70,0.00,,,0.00,VWS V14.01,2013-08-28 03:04:00,
2013-08-28 13:05:00,76.6,66.1,29.79,NNE,22,5.4,5.4,70,0.00,,,0.00,VWS V14.01,2013-08-28 03:05:00,
2013-08-28 13:06:00,76.6,65.7,29.79,North,360,6.0,6.0,69,0.00,,,0.00,VWS V14.01,2013-08-28 03:06:00,
2013-08-28 13:07:00,76.8,65.5,29.79,NNW,338,3.8,3.8,68,0.00,,,0.00,VWS V14.01,2013-08-28 03:07:00,
2013-08-28 13:08:00,76.8,65.5,29.79,ENE,68,6.3,6.3,68,0.00,,,0.00,VWS V14.01,2013-08-28 03:08:00,
2013-08-28 13:09:00,76.8,65.5,29.79,East,90,1.6,6.3,68,0.00,,,0.00,VWS V14.01,2013-08-28 03:09:00,
2013-08-28 13:10:00,76.8,65.5,29.79,SSE,158,0.9,1.6,68,0.00,,,0.00,VWS V14.01,2013-08-28 03:10:00,
2013-08-28 13:11:00,77.0,65.6,29.79,North,360,2.9,2.9,68,0.00,,,0.00,VWS V14.01,2013-08-28 03:11:00,
2013-08-28 13:12:00,77.0,65.6,29.79,SE,135,2.7,2.7,68,0.00,,,0.00,VWS V14.01,2013-08-28 03:12:00,
2013-08-28 13:13:00,77.0,65.6,29.79,SE,135,2.7,2.7,68,0.00,,,0.00,VWS V14.01,2013-08-28 03:13:00,
2013-08-28 13:14:00,77.0,65.6,29.79,East,90,2.7,2.7,68,0.00,,,0.00,VWS V14.01,2013-08-28 03:14:00,
2013-08-28 13:15:00,77.4,66.0,29.79,NNW,338,5.4,5.4,68,0.00,,,0.00,VWS V14.01,2013-08-28 03:15:00,
2013-08-28 13:16:00,77.4,66.0,29.79,North,360,3.1,5.4,68,0.00,,,0.00,VWS V14.01,2013-08-28 03:16:00,
2013-08-28 13:17:00,77.2,65.4,29.79,SE,135,3.8,5.6,67,0.00,,,0.00,VWS V14.01,2013-08-28 03:17:00,
2013-08-28 13:18:00,77.2,65.4,29.79,SE,135,4.3,5.6,67,0.00,,,0.00,VWS V14.01,2013-08-28 03:18:00,
2013-08-28 13:19:00,77.4,65.6,29.79,SSW,202,10.1,10.1,67,0.00,,,0.00,VWS V14.01,2013-08-28 03:19:00,
2013-08-28 13:20:00,77.4,65.6,29.79,SSW,202,10.1,10.1,67,0.00,,,0.00,VWS V14.01,2013-08-28 03:20:00,
2013-08-28 13:21:00,77.4,65.6,29.79,SSW,202,7.6,10.1,67,0.00,,,0.00,VWS V14.01,2013-08-28 03:21:00,
2013-08-28 13:22:00,77.2,65.4,29.79,ENE,68,2.5,7.6,67,0.00,,,0.00,VWS V14.01,2013-08-28 03:22:00,
2013-08-28 13:23:00,77.2,65.4,29.79,ENE,68,2.5,7.6,67,0.00,,,0.00,VWS V14.01,2013-08-28 03:23:00,
2013-08-28 13:24:00,77.2,65.4,29.79,East,90,1.1,2.5,67,0.00,,,0.00,VWS V14.01,2013-08-28 03:24:00,
2013-08-28 13:25:00,77.2,65.4,29.79,NE,45,2.9,2.9,67,0.00,,,0.00,VWS V14.01,2013-08-28 03:25:00,
2013-08-28 13:26:00,77.2,65.4,29.79,East,90,3.1,3.1,67,0.00,,,0.00,VWS V14.01,2013-08-28 03:26:00,
2013-08-28 13:27:00,77.2,64.9,29.79,WNW,292,4.0,4.0,66,0.00,,,0.00,VWS V14.01,2013-08-28 03:27:00,
2013-08-28 13:28:00,77.2,64.9,29.79,WNW,292,4.0,4.0,66,0.00,,,0.00,VWS V14.01,2013-08-28 03:28:00,
2013-08-28 13:29:00,77.4,65.1,29.79,SW,225,4.9,4.9,66,0.00,,,0.00,VWS V14.01,2013-08-28 03:29:00,
2013-08-28 13:30:00,77.4,65.1,29.79,WNW,292,3.4,4.9,66,0.00,,,0.00,VWS V14.01,2013-08-28 03:30:00,
2013-08-28 13:31:00,77.4,65.1,29.79,SW,225,3.4,3.4,66,0.00,,,0.00,VWS V14.01,2013-08-28 03:31:00,
2013-08-28 13:32:00,77.4,65.1,29.79,SSE,158,2.5,2.5,66,0.00,,,0.00,VWS V14.01,2013-08-28 03:32:00,
2013-08-28 13:33:00,77.4,65.1,29.79,SE,135,2.0,2.5,66,0.00,,,0.00,VWS V14.01,2013-08-28 03:33:00,
2013-08-28 13:34:00,77.4,65.1,29.79,SE,135,2.0,2.0,66,0.00,,,0.00,VWS V14.01,2013-08-28 03:34:00,
2013-08-28 13:35:00,77.4,65.1,29.79,SSE,158,2.5,2.5,66,0.00,,,0.00,VWS V14.01,2013-08-28 03:35:00,
2013-08-28 13:36:00,77.5,65.3,29.79,West,270,1.3,2.5,66,0.00,,,0.00,VWS V14.01,2013-08-28 03:36:00,
2013-08-28 13:37:00,77.5,65.3,29.79,SSW,202,3.6,3.6,66,0.00,,,0.00,VWS V14.01,2013-08-28 03:37:00,
2013-08-28 13:38:00,77.5,65.3,29.79,SW,225,0.9,3.6,66,0.00,,,0.00,VWS V14.01,2013-08-28 03:38:00,
2013-08-28 13:39:00,77.5,65.3,29.79,SW,225,0.9,0.9,66,0.00,,,0.00,VWS V14.01,2013-08-28 03:39:00,
2013-08-28 13:40:00,77.5,65.3,29.79,SE,135,2.0,2.0,66,0.00,,,0.00,VWS V14.01,2013-08-28 03:40:00,
2013-08-28 13:41:00,77.5,65.3,29.79,SE,135,2.0,2.0,66,0.00,,,0.00,VWS V14.01,2013-08-28 03:41:00,
2013-08-28 13:42:00,77.7,65.0,29.79,SW,225,4.9,4.9,65,0.00,,,0.00,VWS V14.01,2013-08-28 03:42:00,
2013-08-28 13:43:00,77.7,65.0,29.79,SW,225,4.9,4.9,65,0.00,,,0.00,VWS V14.01,2013-08-28 03:43:00,
2013-08-28 13:44:00,77.7,65.0,29.79,SW,225,4.9,4.9,65,0.00,,,0.00,VWS V14.01,2013-08-28 03:44:00,
2013-08-28 13:45:00,77.5,64.9,29.79,SW,225,4.7,4.9,65,0.00,,,0.00,VWS V14.01,2013-08-28 03:45:00,
2013-08-28 13:46:00,77.5,64.9,29.79,SSW,202,2.2,4.7,65,0.00,,,0.00,VWS V14.01,2013-08-28 03:46:00,
2013-08-28 13:47:00,77.7,65.0,29.79,SSW,202,6.3,6.3,65,0.00,,,0.00,VWS V14.01,2013-08-28 03:47:00,
2013-08-28 13:48:00,77.7,65.0,29.79,SSW,202,6.3,6.3,65,0.00,,,0.00,VWS V14.01,2013-08-28 03:48:00,
2013-08-28 13:49:00,77.9,65.2,29.79,SSW,202,2.9,6.3,65,0.00,,,0.00,VWS V14.01,2013-08-28 03:49:00,
2013-08-28 13:50:00,77.9,65.2,29.79,SSE,158,6.3,6.3,65,0.00,,,0.00,VWS V14.01,2013-08-28 03:50:00,
2013-08-28 13:51:00,77.9,65.2,29.79,SSE,158,2.7,6.3,65,0.00,,,0.00,VWS V14.01,2013-08-28 03:51:00,
2013-08-28 13:52:00,77.9,64.8,29.79,ESE,112,3.8,3.8,64,0.00,,,0.00,VWS V14.01,2013-08-28 03:52:00,
2013-08-28 13:53:00,77.9,64.8,29.79,ESE,112,3.8,3.8,64,0.00,,,0.00,VWS V14.01,2013-08-28 03:53:00,
2013-08-28 13:54:00,77.9,64.8,29.79,SSE,158,3.4,3.8,64,0.00,,,0.00,VWS V14.01,2013-08-28 03:54:00,
2013-08-28 13:55:00,77.9,64.8,29.79,SW,225,0.0,3.4,64,0.00,,,0.00,VWS V14.01,2013-08-28 03:55:00,
2013-08-28 13:56:00,78.1,64.9,29.79,SW,225,2.5,2.5,64,0.00,,,0.00,VWS V14.01,2013-08-28 03:56:00,
2013-08-28 13:57:00,78.1,64.5,29.79,East,90,4.5,4.5,63,0.00,,,0.00,VWS V14.01,2013-08-28 03:57:00,
2013-08-28 13:58:00,78.1,64.5,29.79,East,90,4.5,4.5,63,0.00,,,0.00,VWS V14.01,2013-08-28 03:58:00,
2013-08-28 13:59:00,77.9,64.3,29.79,SSW,202,2.9,4.5,63,0.00,,,0.00,VWS V14.01,2013-08-28 03:59:00,
2013-08-28 14:00:00,77.9,64.3,29.79,SSW,202,2.9,2.9,63,0.00,,,0.00,VWS V14.01,2013-08-28 04:00:00,
2013-08-28 14:01:00,77.9,64.3,29.79,ESE,112,3.8,3.8,63,0.00,,,0.00,VWS V14.01,2013-08-28 04:01:00,
2013-08-28 14:02:00,77.9,64.3,29.79,ENE,68,4.7,4.7,63,0.00,,,0.00,VWS V14.01,2013-08-28 04:02:00,
2013-08-28 14:03:00,77.9,64.3,29.79,ENE,68,4.7,4.7,63,0.00,,,0.00,VWS V14.01,2013-08-28 04:03:00,
2013-08-28 14:04:00,77.9,64.3,29.79,SSE,158,6.0,6.0,63,0.00,,,0.00,VWS V14.01,2013-08-28 04:04:00,
2013-08-28 14:05:00,77.9,64.3,29.79,SE,135,3.8,6.0,63,0.00,,,0.00,VWS V14.01,2013-08-28 04:05:00,
2013-08-28 14:06:00,78.1,64.5,29.79,SW,225,3.8,3.8,63,0.00,,,0.00,VWS V14.01,2013-08-28 04:06:00,
2013-08-28 14:07:00,78.1,64.5,29.79,SSW,202,0.0,3.8,63,0.00,,,0.00,VWS V14.01,2013-08-28 04:07:00,
2013-08-28 14:08:00,78.1,64.5,29.79,SW,225,3.8,3.8,63,0.00,,,0.00,VWS V14.01,2013-08-28 04:08:00,
2013-08-28 14:09:00,78.1,64.5,29.79,SW,225,3.8,3.8,63,0.00,,,0.00,VWS V14.01,2013-08-28 04:09:00,
2013-08-28 14:10:00,78.1,64.5,29.79,South,180,1.3,3.8,63,0.00,,,0.00,VWS V14.01,2013-08-28 04:10:00,
2013-08-28 14:11:00,78.1,64.5,29.79,South,180,2.5,2.5,63,0.00,,,0.00,VWS V14.01,2013-08-28 04:11:00,
2013-08-28 14:12:00,77.9,64.3,29.79,West,270,3.1,3.1,63,0.00,,,0.00,VWS V14.01,2013-08-28 04:12:00,
2013-08-28 14:13:00,78.1,64.5,29.79,SSW,202,7.6,7.6,63,0.00,,,0.00,VWS V14.01,2013-08-28 04:13:00,
2013-08-28 14:14:00,78.1,64.5,29.79,South,180,3.6,7.6,63,0.00,,,0.00,VWS V14.01,2013-08-28 04:14:00,
2013-08-28 14:15:00,78.3,64.6,29.79,NW,315,0.9,3.6,63,0.00,,,0.00,VWS V14.01,2013-08-28 04:15:00,
2013-08-28 14:16:00,78.3,64.6,29.79,SSE,158,4.9,4.9,63,0.00,,,0.00,VWS V14.01,2013-08-28 04:16:00,
2013-08-28 14:17:00,78.4,64.8,29.79,SSE,158,1.6,4.9,63,0.00,,,0.00,VWS V14.01,2013-08-28 04:17:00,
2013-08-28 14:18:00,78.4,64.8,29.79,SSE,158,0.0,1.6,63,0.00,,,0.00,VWS V14.01,2013-08-28 04:18:00,
2013-08-28 14:19:00,78.6,65.0,29.79,North,360,1.6,1.6,63,0.00,,,0.00,VWS V14.01,2013-08-28 04:19:00,
2013-08-28 14:20:00,78.4,64.8,29.79,North,360,3.4,3.4,63,0.00,,,0.00,VWS V14.01,2013-08-28 04:20:00,
2013-08-28 14:21:00,78.4,64.8,29.79,North,360,1.1,3.4,63,0.00,,,0.00,VWS V14.01,2013-08-28 04:21:00,
2013-08-28 14:22:00,78.6,65.4,29.79,SSE,158,1.1,1.1,64,0.00,,,0.00,VWS V14.01,2013-08-28 04:22:00,
2013-08-28 14:23:00,78.6,65.4,29.79,SE,135,3.4,3.4,64,0.00,,,0.00,VWS V14.01,2013-08-28 04:23:00,
2013-08-28 14:24:00,79.0,65.3,29.79,South,180,4.3,4.3,63,0.00,,,0.00,VWS V14.01,2013-08-28 04:24:00,
2013-08-28 14:25:00,79.0,65.3,29.79,South,180,4.3,4.3,63,0.00,,,0.00,VWS V14.01,2013-08-28 04:25:00,
2013-08-28 14:26:00,79.2,65.5,29.79,ESE,112,1.6,4.3,63,0.00,,,0.00,VWS V14.01,2013-08-28 04:26:00,
2013-08-28 14:27:00,79.2,65.0,29.79,SE,135,4.0,4.0,62,0.00,,,0.00,VWS V14.01,2013-08-28 04:27:00,
2013-08-28 14:28:00,79.2,65.0,29.79,East,90,5.8,5.8,62,0.00,,,0.00,VWS V14.01,2013-08-28 04:28:00,
2013-08-28 14:29:00,78.8,64.2,29.79,ENE,68,4.3,4.3,61,0.00,,,0.00,VWS V14.01,2013-08-28 04:29:00,
2013-08-28 14:30:00,78.8,64.2,29.79,ESE,112,4.3,4.3,61,0.00,,,0.00,VWS V14.01,2013-08-28 04:30:00,
2013-08-28 14:31:00,78.6,64.1,29.79,ESE,112,6.3,6.3,61,0.00,,,0.00,VWS V14.01,2013-08-28 04:31:00,
2013-08-28 14:32:00,78.6,64.1,29.79,East,90,3.4,6.3,61,0.00,,,0.00,VWS V14.01,2013-08-28 04:32:00,
2013-08-28 14:33:00,78.4,64.3,29.79,NE,45,4.3,4.3,62,0.00,,,0.00,VWS V14.01,2013-08-28 04:33:00,
2013-08-28 14:34:00,78.4,64.3,29.79,ESE,112,3.1,4.3,62,0.00,,,0.00,VWS V14.01,2013-08-28 04:34:00,
2013-08-28 14:35:00,78.4,63.9,29.79,ENE,68,4.0,4.9,61,0.00,,,0.00,VWS V14.01,2013-08-28 04:35:00,
2013-08-28 14:36:00,78.6,64.5,29.79,North,360,3.8,4.0,62,0.00,,,0.00,VWS V14.01,2013-08-28 04:36:00,
2013-08-28 14:37:00,78.6,64.5,29.79,North,360,4.0,4.0,62,0.00,,,0.00,VWS V14.01,2013-08-28 04:37:00,
2013-08-28 14:38:00,78.4,63.9,29.79,North,360,4.0,4.0,61,0.00,,,0.00,VWS V14.01,2013-08-28 04:38:00,
2013-08-28 14:39:00,78.4,63.9,29.79,North,360,4.3,4.3,61,0.00,,,0.00,VWS V14.01,2013-08-28 04:39:00,
2013-08-28 14:40:00,78.4,63.9,29.79,East,90,4.3,4.3,61,0.00,,,0.00,VWS V14.01,2013-08-28 04:40:00,
2013-08-28 14:41:00,78.4,63.9,29.79,ESE,112,4.7,4.7,61,0.00,,,0.00,VWS V14.01,2013-08-28 04:41:00,
2013-08-28 14:42:00,78.6,64.5,29.79,East,90,3.4,4.7,62,0.00,,,0.00,VWS V14.01,2013-08-28 04:42:00,
2013-08-28 14:43:00,78.8,64.7,29.79,SE,135,3.4,3.4,62,0.00,,,0.00,VWS V14.01,2013-08-28 04:43:00,
2013-08-28 14:44:00,78.8,64.7,29.79,SSE,158,6.0,6.0,62,0.00,,,0.00,VWS V14.01,2013-08-28 04:44:00,
2013-08-28 14:45:00,78.8,64.7,29.79,SE,135,3.8,6.0,62,0.00,,,0.00,VWS V14.01,2013-08-28 04:45:00,
2013-08-28 14:46:00,78.8,64.7,29.79,SE,135,3.8,3.8,62,0.00,,,0.00,VWS V14.01,2013-08-28 04:46:00,
2013-08-28 14:47:00,79.0,64.4,29.79,SSE,158,2.5,3.8,61,0.00,,,0.00,VWS V14.01,2013-08-28 04:47:00,
2013-08-28 14:48:00,79.0,64.4,29.79,SE,135,4.3,4.3,61,0.00,,,0.00,VWS V14.01,2013-08-28 04:48:00,
2013-08-28 14:49:00,79.0,64.4,29.79,ESE,112,3.8,4.3,61,0.00,,,0.00,VWS V14.01,2013-08-28 04:49:00,
2013-08-28 14:50:00,79.0,64.4,29.79,ESE,112,1.6,3.8,61,0.00,,,0.00,VWS V14.01,2013-08-28 04:50:00,
2013-08-28 14:51:00,79.0,64.4,29.79,SW,225,3.1,3.1,61,0.00,,,0.00,VWS V14.01,2013-08-28 04:51:00,
2013-08-28 14:52:00,78.8,64.2,29.79,NW,315,3.4,3.4,61,0.00,,,0.00,VWS V14.01,2013-08-28 04:52:00,
2013-08-28 14:53:00,78.8,64.2,29.79,WSW,248,2.9,3.4,61,0.00,,,0.00,VWS V14.01,2013-08-28 04:53:00,
2013-08-28 14:54:00,78.6,64.1,29.79,SE,135,2.0,2.9,61,0.00,,,0.00,VWS V14.01,2013-08-28 04:54:00,
2013-08-28 14:55:00,78.6,64.1,29.79,ESE,112,4.5,4.5,61,0.00,,,0.00,VWS V14.01,2013-08-28 04:55:00,
2013-08-28 14:56:00,78.6,64.1,29.79,East,90,2.7,4.5,61,0.00,,,0.00,VWS V14.01,2013-08-28 04:56:00,
2013-08-28 14:57:00,78.6,64.5,29.79,SSE,158,3.4,3.4,62,0.00,,,0.00,VWS V14.01,2013-08-28 04:57:00,
2013-08-28 14:58:00,78.6,64.5,29.79,SSE,158,5.4,5.4,62,0.00,,,0.00,VWS V14.01,2013-08-28 04:58:00,
2013-08-28 14:59:00,78.6,64.1,29.79,SSE,158,5.4,5.4,61,0.00,,,0.00,VWS V14.01,2013-08-28 04:59:00,
2013-08-28 15:00:00,78.6,64.1,29.79,NNW,338,4.3,5.4,61,0.00,,,0.00,VWS V14.01,2013-08-28 05:00:00,
2013-08-28 15:01:00,78.6,64.1,29.79,SSE,158,5.4,5.4,61,0.00,,,0.00,VWS V14.01,2013-08-28 05:01:00,
2013-08-28 15:02:00,78.6,64.1,29.79,SSE,158,1.6,5.4,61,0.00,,,0.00,VWS V14.01,2013-08-28 05:02:00,
2013-08-28 15:03:00,78.4,63.9,29.79,NNE,22,4.9,4.9,61,0.00,,,0.00,VWS V14.01,2013-08-28 05:03:00,
2013-08-28 15:04:00,78.4,63.9,29.79,SE,135,2.7,4.9,61,0.00,,,0.00,VWS V14.01,2013-08-28 05:04:00,
2013-08-28 15:05:00,78.6,64.5,29.79,South,180,6.5,6.5,62,0.00,,,0.00,VWS V14.01,2013-08-28 05:05:00,
2013-08-28 15:06:00,78.8,64.2,29.79,SW,225,7.6,7.6,61,0.00,,,0.00,VWS V14.01,2013-08-28 05:06:00,
2013-08-28 15:07:00,78.8,64.2,29.79,SSW,202,7.6,7.6,61,0.00,,,0.00,VWS V14.01,2013-08-28 05:07:00,
2013-08-28 15:08:00,78.8,64.2,29.79,SW,225,3.8,7.6,61,0.00,,,0.00,VWS V14.01,2013-08-28 05:08:00,
2013-08-28 15:09:00,78.8,64.2,29.79,SSE,158,4.5,4.5,61,0.00,,,0.00,VWS V14.01,2013-08-28 05:09:00,
2013-08-28 15:10:00,79.0,64.4,29.79,SSE,158,3.1,4.5,61,0.00,,,0.00,VWS V14.01,2013-08-28 05:10:00,
2013-08-28 15:11:00,79.0,64.4,29.79,SE,135,8.7,8.7,61,0.00,,,0.00,VWS V14.01,2013-08-28 05:11:00,
2013-08-28 15:12:00,79.0,64.4,29.79,SW,225,3.8,8.7,61,0.00,,,0.00,VWS V14.01,2013-08-28 05:12:00,
2013-08-28 15:13:00,79.0,64.4,29.79,WSW,248,6.3,6.3,61,0.00,,,0.00,VWS V14.01,2013-08-28 05:13:00,
2013-08-28 15:14:00,79.0,64.4,29.79,WSW,248,3.4,6.3,61,0.00,,,0.00,VWS V14.01,2013-08-28 05:14:00,
2013-08-28 15:15:00,78.8,64.2,29.79,ESE,112,3.6,3.6,61,0.00,,,0.00,VWS V14.01,2013-08-28 05:15:00,
2013-08-28 15:16:00,78.8,64.2,29.79,SE,135,2.0,3.6,61,0.00,,,0.00,VWS V14.01,2013-08-28 05:16:00,
2013-08-28 15:17:00,78.8,64.2,29.79,SSW,202,4.0,4.0,61,0.00,,,0.00,VWS V14.01,2013-08-28 05:17:00,
2013-08-28 15:18:00,78.8,64.2,29.79,SSW,202,4.0,4.0,61,0.00,,,0.00,VWS V14.01,2013-08-28 05:18:00,
2013-08-28 15:19:00,78.6,64.1,29.79,South,180,6.3,6.3,61,0.00,,,0.00,VWS V14.01,2013-08-28 05:19:00,
2013-08-28 15:20:00,78.4,63.9,29.76,SE,135,2.7,6.3,61,0.00,,,0.00,VWS V14.01,2013-08-28 05:20:00,
2013-08-28 15:21:00,78.3,63.7,29.76,SSE,158,6.3,6.3,61,0.00,,,0.00,VWS V14.01,2013-08-28 05:21:00,
2013-08-28 15:22:00,78.3,63.7,29.76,South,180,10.1,10.1,61,0.00,,,0.00,VWS V14.01,2013-08-28 05:22:00,
2013-08-28 15:23:00,78.1,63.1,29.76,South,180,7.6,10.1,60,0.00,,,0.00,VWS V14.01,2013-08-28 05:23:00,
2013-08-28 15:24:00,78.1,63.1,29.76,SSE,158,7.6,7.6,60,0.00,,,0.00,VWS V14.01,2013-08-28 05:24:00,
2013-08-28 15:25:00,78.1,63.1,29.76,SSE,158,7.6,7.6,60,0.00,,,0.00,VWS V14.01,2013-08-28 05:25:00,
2013-08-28 15:26:00,78.1,63.1,29.76,SSW,202,5.8,7.6,60,0.00,,,0.00,VWS V14.01,2013-08-28 05:26:00,
2013-08-28 15:27:00,77.9,63.4,29.76,SSE,158,4.3,5.8,61,0.00,,,0.00,VWS V14.01,2013-08-28 05:27:00,
2013-08-28 15:28:00,77.7,63.2,29.76,SSE,158,4.3,4.3,61,0.00,,,0.00,VWS V14.01,2013-08-28 05:28:00,
2013-08-28 15:29:00,77.7,63.2,29.76,East,90,3.1,3.1,61,0.00,,,0.00,VWS V14.01,2013-08-28 05:29:00,
2013-08-28 15:30:00,77.7,63.2,29.76,SSW,202,6.3,6.3,61,0.00,,,0.00,VWS V14.01,2013-08-28 05:30:00,
2013-08-28 15:31:00,77.7,63.2,29.76,SE,135,3.8,6.3,61,0.00,,,0.00,VWS V14.01,2013-08-28 05:31:00,
2013-08-28 15:32:00,77.7,63.2,29.76,SSE,158,4.3,4.3,61,0.00,,,0.00,VWS V14.01,2013-08-28 05:32:00,
2013-08-28 15:33:00,77.7,63.2,29.76,SW,225,7.6,7.6,61,0.00,,,0.00,VWS V14.01,2013-08-28 05:33:00,
2013-08-28 15:34:00,77.5,63.0,29.76,SE,135,3.8,3.8,61,0.00,,,0.00,VWS V14.01,2013-08-28 05:34:00,
2013-08-28 15:35:00,77.7,63.2,29.76,SE,135,3.8,3.8,61,0.00,,,0.00,VWS V14.01,2013-08-28 05:35:00,
2013-08-28 15:36:00,77.7,63.2,29.76,East,90,2.7,3.8,61,0.00,,,0.00,VWS V14.01,2013-08-28 05:36:00,
2013-08-28 15:37:00,77.7,63.2,29.76,South,180,2.2,2.7,61,0.00,,,0.00,VWS V14.01,2013-08-28 05:37:00,
2013-08-28 15:38:00,77.7,63.2,29.76,East,90,3.1,3.1,61,0.00,,,0.00,VWS V14.01,2013-08-28 05:38:00,
2013-08-28 15:39:00,77.7,63.2,29.76,East,90,3.1,3.1,61,0.00,,,0.00,VWS V14.01,2013-08-28 05:39:00,
2013-08-28 15:40:00,77.7,63.2,29.76,SE,135,8.5,8.5,61,0.00,,,0.00,VWS V14.01,2013-08-28 05:40:00,
2013-08-28 15:41:00,77.7,63.2,29.76,SW,225,3.1,8.5,61,0.00,,,0.00,VWS V14.01,2013-08-28 05:41:00,
2013-08-28 15:42:00,77.7,63.2,29.76,South,180,6.0,6.0,61,0.00,,,0.00,VWS V14.01,2013-08-28 05:42:00,
2013-08-28 15:43:00,77.9,63.4,29.76,SSE,158,5.8,6.0,61,0.00,,,0.00,VWS V14.01,2013-08-28 05:43:00,
2013-08-28 15:44:00,77.9,62.9,29.76,SSW,202,8.7,8.7,60,0.00,,,0.00,VWS V14.01,2013-08-28 05:44:00,
2013-08-28 15:45:00,77.9,62.9,29.76,SSW,202,8.7,8.7,60,0.00,,,0.00,VWS V14.01,2013-08-28 05:45:00,
2013-08-28 15:46:00,77.9,62.4,29.76,South,180,4.5,8.7,59,0.00,,,0.00,VWS V14.01,2013-08-28 05:46:00,
2013-08-28 15:47:00,77.9,62.4,29.76,South,180,4.5,4.5,59,0.00,,,0.00,VWS V14.01,2013-08-28 05:47:00,
2013-08-28 15:48:00,77.9,62.4,29.76,SSW,202,5.6,5.6,59,0.00,,,0.00,VWS V14.01,2013-08-28 05:48:00,
2013-08-28 15:49:00,77.9,62.4,29.76,SW,225,4.3,4.3,59,0.00,,,0.00,VWS V14.01,2013-08-28 05:49:00,
2013-08-28 15:50:00,77.9,62.4,29.76,SW,225,4.3,4.3,59,0.00,,,0.00,VWS V14.01,2013-08-28 05:50:00,
2013-08-28 15:51:00,78.1,62.6,29.76,SSW,202,7.6,7.6,59,0.00,,,0.00,VWS V14.01,2013-08-28 05:51:00,
2013-08-28 15:52:00,78.1,62.6,29.76,SSW,202,7.4,7.6,59,0.00,,,0.00,VWS V14.01,2013-08-28 05:52:00,
2013-08-28 15:53:00,78.1,62.6,29.76,SSW,202,7.4,7.4,59,0.00,,,0.00,VWS V14.01,2013-08-28 05:53:00,
2013-08-28 15:54:00,78.1,62.6,29.76,SSE,158,2.0,7.4,59,0.00,,,0.00,VWS V14.01,2013-08-28 05:54:00,
2013-08-28 15:55:00,78.1,62.6,29.76,South,180,6.0,6.0,59,0.00,,,0.00,VWS V14.01,2013-08-28 05:55:00,
2013-08-28 15:56:00,78.1,62.6,29.76,SE,135,2.5,6.0,59,0.00,,,0.00,VWS V14.01,2013-08-28 05:56:00,
2013-08-28 15:57:00,78.3,62.8,29.76,South,180,3.4,3.4,59,0.00,,,0.00,VWS V14.01,2013-08-28 05:57:00,
2013-08-28 15:58:00,78.4,62.9,29.76,SE,135,2.9,3.4,59,0.00,,,0.00,VWS V14.01,2013-08-28 05:58:00,
2013-08-28 15:59:00,78.4,62.9,29.76,WSW,248,2.2,2.9,59,0.00,,,0.00,VWS V14.01,2013-08-28 05:59:00,
2013-08-28 16:00:00,78.6,63.1,29.76,SSE,158,3.4,3.4,59,0.00,,,0.00,VWS V14.01,2013-08-28 06:00:00,
2013-08-28 16:01:00,78.6,63.1,29.76,SE,135,7.4,7.4,59,0.00,,,0.00,VWS V14.01,2013-08-28 06:01:00,
2013-08-28 16:02:00,78.4,62.9,29.76,SSE,158,7.6,7.6,59,0.00,,,0.00,VWS V14.01,2013-08-28 06:02:00,
2013-08-28 16:03:00,78.4,62.9,29.76,ESE,112,6.7,7.6,59,0.00,,,0.00,VWS V14.01,2013-08-28 06:03:00,
2013-08-28 16:04:00,78.3,62.8,29.76,SSE,158,3.4,6.7,59,0.00,,,0.00,VWS V14.01,2013-08-28 06:04:00,
2013-08-28 16:05:00,78.3,62.8,29.79,SSE,158,5.8,5.8,59,0.00,,,0.00,VWS V14.01,2013-08-28 06:05:00,
2013-08-28 16:06:00,78.4,63.4,29.79,SSE,158,5.6,5.8,60,0.00,,,0.00,VWS V14.01,2013-08-28 06:06:00,
2013-08-28 16:07:00,78.4,63.4,29.79,SSE,158,2.7,5.6,60,0.00,,,0.00,VWS V14.01,2013-08-28 06:07:00,
2013-08-28 16:08:00,78.4,63.4,29.79,SW,225,0.9,2.7,60,0.00,,,0.00,VWS V14.01,2013-08-28 06:08:00,
2013-08-28 16:09:00,78.4,63.4,29.79,SW,225,3.6,3.6,60,0.00,,,0.00,VWS V14.01,2013-08-28 06:09:00,
2013-08-28 16:10:00,78.4,63.4,29.79,South,180,2.7,3.6,60,0.00,,,0.00,VWS V14.01,2013-08-28 06:10:00,
2013-08-28 16:11:00,78.3,63.2,29.79,SSW,202,5.4,5.4,60,0.00,,,0.00,VWS V14.01,2013-08-28 06:11:00,
2013-08-28 16:12:00,78.3,63.2,29.79,SSW,202,5.4,5.4,60,0.00,,,0.00,VWS V14.01,2013-08-28 06:12:00,
2013-08-28 16:13:00,78.3,63.2,29.79,SE,135,5.4,5.4,60,0.00,,,0.00,VWS V14.01,2013-08-28 06:13:00,
2013-08-28 16:14:00,78.1,63.1,29.79,ESE,112,3.6,5.4,60,0.00,,,0.00,VWS V14.01,2013-08-28 06:14:00,
2013-08-28 16:15:00,78.1,63.1,29.79,ESE,112,4.3,4.3,60,0.00,,,0.00,VWS V14.01,2013-08-28 06:15:00,
2013-08-28 16:16:00,77.9,62.4,29.79,SSW,202,4.7,4.7,59,0.00,,,0.00,VWS V14.01,2013-08-28 06:16:00,
2013-08-28 16:17:00,77.9,62.4,29.79,SE,135,2.0,4.7,59,0.00,,,0.00,VWS V14.01,2013-08-28 06:17:00,
2013-08-28 16:18:00,77.7,62.7,29.79,SE,135,3.1,3.1,60,0.00,,,0.00,VWS V14.01,2013-08-28 06:18:00,
2013-08-28 16:19:00,77.7,62.7,29.79,SSE,158,3.4,3.4,60,0.00,,,0.00,VWS V14.01,2013-08-28 06:19:00,
2013-08-28 16:20:00,77.7,62.7,29.79,SSE,158,3.4,3.4,60,0.00,,,0.00,VWS V14.01,2013-08-28 06:20:00,
2013-08-28 16:21:00,77.5,62.6,29.79,WSW,248,8.7,8.7,60,0.00,,,0.00,VWS V14.01,2013-08-28 06:21:00,
2013-08-28 16:22:00,77.5,62.6,29.79,South,180,5.8,8.7,60,0.00,,,0.00,VWS V14.01,2013-08-28 06:22:00,
2013-08-28 16:23:00,77.4,62.4,29.79,ESE,112,2.9,5.8,60,0.00,,,0.00,VWS V14.01,2013-08-28 06:23:00,
2013-08-28 16:24:00,77.4,62.4,29.79,ESE,112,2.9,2.9,60,0.00,,,0.00,VWS V14.01,2013-08-28 06:24:00,
2013-08-28 16:25:00,77.5,62.6,29.79,South,180,2.7,2.7,60,0.00,,,0.00,VWS V14.01,2013-08-28 06:25:00,
2013-08-28 16:26:00,77.5,62.6,29.79,SE,135,4.0,4.0,60,0.00,,,0.00,VWS V14.01,2013-08-28 06:26:00,
2013-08-28 16:27:00,77.5,62.6,29.79,SE,135,4.0,4.0,60,0.00,,,0.00,VWS V14.01,2013-08-28 06:27:00,
2013-08-28 16:28:00,77.5,62.6,29.79,SE,135,4.0,4.0,60,0.00,,,0.00,VWS V14.01,2013-08-28 06:28:00,
2013-08-28 16:29:00,77.5,62.6,29.79,SE,135,4.0,4.0,60,0.00,,,0.00,VWS V14.01,2013-08-28 06:29:00,
2013-08-28 16:30:00,77.5,62.6,29.79,SE,135,4.0,4.0,60,0.00,,,0.00,VWS V14.01,2013-08-28 06:30:00,
2013-08-28 16:31:00,77.5,62.6,29.79,SE,135,4.0,4.0,60,0.00,,,0.00,VWS V14.01,2013-08-28 06:31:00,
2013-08-28 16:32:00,77.5,63.0,29.79,SSE,158,0.0,4.0,61,0.00,,,0.00,VWS V14.01,2013-08-28 06:32:00,
2013-08-28 16:33:00,77.5,63.0,29.79,South,180,7.2,7.2,61,0.00,,,0.00,VWS V14.01,2013-08-28 06:33:00,
2013-08-28 16:34:00,77.4,62.9,29.79,SSW,202,4.3,7.2,61,0.00,,,0.00,VWS V14.01,2013-08-28 06:34:00,
2013-08-28 16:35:00,77.2,62.7,29.79,ESE,112,4.0,4.0,61,0.00,,,0.00,VWS V14.01,2013-08-28 06:35:00,
2013-08-28 16:37:00,77.2,62.7,29.79,South,180,6.0,6.0,61,0.00,,,0.00,VWS V14.01,2013-08-28 06:37:00,
2013-08-28 16:38:00,77.0,62.5,29.79,ESE,112,5.6,6.0,61,0.00,,,0.00,VWS V14.01,2013-08-28 06:38:00,
2013-08-28 16:39:00,77.0,62.5,29.79,SE,135,7.6,7.6,61,0.00,,,0.00,VWS V14.01,2013-08-28 06:39:00,
2013-08-28 16:40:00,77.2,62.7,29.79,South,180,2.7,5.6,61,0.00,,,0.00,VWS V14.01,2013-08-28 06:40:00,
2013-08-28 16:41:00,77.2,62.7,29.79,South,180,4.9,5.6,61,0.00,,,0.00,VWS V14.01,2013-08-28 06:41:00,
2013-08-28 16:42:00,77.2,62.7,29.79,ESE,112,3.6,4.9,61,0.00,,,0.00,VWS V14.01,2013-08-28 06:42:00,
2013-08-28 16:43:00,77.2,62.7,29.79,ESE,112,6.3,6.3,61,0.00,,,0.00,VWS V14.01,2013-08-28 06:43:00,
2013-08-28 16:44:00,77.2,62.7,29.79,South,180,4.9,6.3,61,0.00,,,0.00,VWS V14.01,2013-08-28 06:44:00,
2013-08-28 16:45:00,77.4,62.9,29.79,South,180,5.8,5.8,61,0.00,,,0.00,VWS V14.01,2013-08-28 06:45:00,
2013-08-28 16:46:00,77.4,62.9,29.79,South,180,3.1,5.8,61,0.00,,,0.00,VWS V14.01,2013-08-28 06:46:00,
2013-08-28 16:47:00,77.5,63.0,29.79,South,180,4.0,4.0,61,0.00,,,0.00,VWS V14.01,2013-08-28 06:47:00,
2013-08-28 16:48:00,77.5,63.0,29.79,SE,135,4.3,4.3,61,0.00,,,0.00,VWS V14.01,2013-08-28 06:48:00,
2013-08-28 16:49:00,77.5,63.5,29.79,SSE,158,2.5,4.3,62,0.00,,,0.00,VWS V14.01,2013-08-28 06:49:00,
2013-08-28 16:50:00,77.5,63.5,29.79,South,180,3.4,3.4,62,0.00,,,0.00,VWS V14.01,2013-08-28 06:50:00,
2013-08-28 16:51:00,77.5,63.5,29.79,South,180,3.4,3.4,62,0.00,,,0.00,VWS V14.01,2013-08-28 06:51:00,
2013-08-28 16:52:00,77.7,63.7,29.79,SSE,158,5.4,5.4,62,0.00,,,0.00,VWS V14.01,2013-08-28 06:52:00,
2013-08-28 16:53:00,77.7,63.7,29.79,SSW,202,5.8,5.8,62,0.00,,,0.00,VWS V14.01,2013-08-28 06:53:00,
2013-08-28 16:54:00,77.5,63.0,29.79,SSE,158,3.6,5.8,61,0.00,,,0.00,VWS V14.01,2013-08-28 06:54:00,
2013-08-28 16:55:00,77.7,63.2,29.79,SSE,158,2.7,2.7,61,0.00,,,0.00,VWS V14.01,2013-08-28 06:55:00,
2013-08-28 16:56:00,77.7,63.2,29.79,SSE,158,2.7,2.7,61,0.00,,,0.00,VWS V14.01,2013-08-28 06:56:00,
2013-08-28 16:57:00,77.7,63.2,29.79,SE,135,4.0,4.0,61,0.00,,,0.00,VWS V14.01,2013-08-28 06:57:00,
2013-08-28 16:59:00,77.7,63.2,29.79,SSW,202,1.6,4.0,61,0.00,,,0.00,VWS V14.01,2013-08-28 06:59:00,
2013-08-28 17:00:00,77.7,63.2,29.79,SW,225,6.0,6.0,61,0.00,,,0.00,VWS V14.01,2013-08-28 07:00:00,
2013-08-28 17:01:00,77.5,63.0,29.79,SW,225,6.0,6.0,61,0.00,,,0.00,VWS V14.01,2013-08-28 07:01:00,
2013-08-28 17:02:00,77.5,63.0,29.79,SW,225,4.7,6.0,61,0.00,,,0.00,VWS V14.01,2013-08-28 07:02:00,
2013-08-28 17:03:00,77.5,63.0,29.79,SW,225,4.7,4.7,61,0.00,,,0.00,VWS V14.01,2013-08-28 07:03:00,
2013-08-28 17:04:00,77.5,63.0,29.79,South,180,3.8,4.7,61,0.00,,,0.00,VWS V14.01,2013-08-28 07:04:00,
2013-08-28 17:05:00,77.5,63.0,29.79,SW,225,7.4,7.6,61,0.00,,,0.00,VWS V14.01,2013-08-28 07:05:00,
2013-08-28 17:06:00,77.5,63.0,29.79,SW,225,7.4,7.6,61,0.00,,,0.00,VWS V14.01,2013-08-28 07:06:00,
2013-08-28 17:07:00,77.5,63.0,29.79,SSE,158,3.6,7.4,61,0.00,,,0.00,VWS V14.01,2013-08-28 07:07:00,
2013-08-28 17:08:00,77.2,62.7,29.79,SE,135,6.3,6.3,61,0.00,,,0.00,VWS V14.01,2013-08-28 07:08:00,
2013-08-28 17:09:00,77.2,62.7,29.79,SSE,158,6.0,6.3,61,0.00,,,0.00,VWS V14.01,2013-08-28 07:09:00,
2013-08-28 17:10:00,77.2,62.7,29.79,SSE,158,4.9,4.9,61,0.00,,,0.00,VWS V14.01,2013-08-28 07:10:00,
2013-08-28 17:11:00,77.2,62.7,29.79,SW,225,3.8,4.9,61,0.00,,,0.00,VWS V14.01,2013-08-28 07:11:00,
2013-08-28 17:12:00,77.0,62.5,29.79,SE,135,8.7,9.8,61,0.00,,,0.00,VWS V14.01,2013-08-28 07:12:00,
2013-08-28 17:13:00,77.0,62.5,29.79,South,180,6.0,8.7,61,0.00,,,0.00,VWS V14.01,2013-08-28 07:13:00,
2013-08-28 17:14:00,76.8,62.8,29.79,SSE,158,4.0,6.0,62,0.00,,,0.00,VWS V14.01,2013-08-28 07:14:00,
2013-08-28 17:15:00,76.8,62.8,29.79,SSE,158,4.0,4.0,62,0.00,,,0.00,VWS V14.01,2013-08-28 07:15:00,
2013-08-28 17:16:00,76.8,62.8,29.79,SSE,158,4.0,4.0,62,0.00,,,0.00,VWS V14.01,2013-08-28 07:16:00,
2013-08-28 17:17:00,76.8,62.8,29.79,SSE,158,4.0,4.0,62,0.00,,,0.00,VWS V14.01,2013-08-28 07:17:00,
2013-08-28 17:18:00,76.8,62.8,29.79,SE,135,5.6,5.6,62,0.00,,,0.00,VWS V14.01,2013-08-28 07:18:00,
2013-08-28 17:19:00,76.6,62.7,29.79,South,180,3.8,5.6,62,0.00,,,0.00,VWS V14.01,2013-08-28 07:19:00,
2013-08-28 17:20:00,76.6,62.7,29.79,SSW,202,5.6,5.6,62,0.00,,,0.00,VWS V14.01,2013-08-28 07:20:00,
2013-08-28 17:21:00,76.6,62.7,29.79,SSW,202,5.6,5.6,62,0.00,,,0.00,VWS V14.01,2013-08-28 07:21:00,
2013-08-28 17:22:00,76.5,62.5,29.79,SE,135,3.6,5.6,62,0.00,,,0.00,VWS V14.01,2013-08-28 07:22:00,
2013-08-28 17:23:00,76.5,62.5,29.79,SSE,158,7.8,7.8,62,0.00,,,0.00,VWS V14.01,2013-08-28 07:23:00,
2013-08-28 17:24:00,76.3,62.3,29.79,SSE,158,5.8,7.8,62,0.00,,,0.00,VWS V14.01,2013-08-28 07:24:00,
2013-08-28 17:25:00,76.3,62.3,29.79,SSE,158,10.3,10.3,62,0.00,,,0.00,VWS V14.01,2013-08-28 07:25:00,
2013-08-28 17:26:00,76.3,62.3,29.79,SSE,158,10.3,10.3,62,0.00,,,0.00,VWS V14.01,2013-08-28 07:26:00,
2013-08-28 17:27:00,76.3,62.3,29.79,SE,135,7.4,10.3,62,0.00,,,0.00,VWS V14.01,2013-08-28 07:27:00,
2013-08-28 17:28:00,76.1,62.2,29.79,South,180,7.4,7.4,62,0.00,,,0.00,VWS V14.01,2013-08-28 07:28:00,
2013-08-28 17:29:00,76.1,62.2,29.79,ESE,112,10.1,10.1,62,0.00,,,0.00,VWS V14.01,2013-08-28 07:29:00,
2013-08-28 17:30:00,76.1,62.2,29.79,South,180,6.9,7.8,62,0.00,,,0.00,VWS V14.01,2013-08-28 07:30:00,
2013-08-28 17:31:00,76.1,62.2,29.79,South,180,6.9,7.8,62,0.00,,,0.00,VWS V14.01,2013-08-28 07:31:00,
2013-08-28 17:32:00,76.1,62.2,29.79,SSW,202,4.0,6.9,62,0.00,,,0.00,VWS V14.01,2013-08-28 07:32:00,
2013-08-28 17:33:00,76.1,62.2,29.79,ESE,112,8.5,8.5,62,0.00,,,0.00,VWS V14.01,2013-08-28 07:33:00,
2013-08-28 17:34:00,76.1,62.2,29.79,ESE,112,8.5,8.5,62,0.00,,,0.00,VWS V14.01,2013-08-28 07:34:00,
2013-08-28 17:35:00,75.9,62.0,29.79,SSE,158,10.5,10.5,62,0.00,,,0.00,VWS V14.01,2013-08-28 07:35:00,
2013-08-28 17:36:00,75.9,62.0,29.79,SSE,158,10.5,10.5,62,0.00,,,0.00,VWS V14.01,2013-08-28 07:36:00,
2013-08-28 17:37:00,75.9,62.0,29.79,SE,135,4.0,10.5,62,0.00,,,0.00,VWS V14.01,2013-08-28 07:37:00,
2013-08-28 17:38:00,75.7,61.8,29.79,SSE,158,7.2,7.2,62,0.00,,,0.00,VWS V14.01,2013-08-28 07:38:00,
2013-08-28 17:39:00,75.7,61.8,29.79,SSE,158,7.2,7.2,62,0.00,,,0.00,VWS V14.01,2013-08-28 07:39:00,
2013-08-28 17:40:00,75.7,61.8,29.79,ESE,112,5.6,7.2,62,0.00,,,0.00,VWS V14.01,2013-08-28 07:40:00,
2013-08-28 17:41:00,75.7,61.8,29.79,SW,225,4.9,5.6,62,0.00,,,0.00,VWS V14.01,2013-08-28 07:41:00,
2013-08-28 17:42:00,75.7,61.8,29.79,SE,135,5.8,5.8,62,0.00,,,0.00,VWS V14.01,2013-08-28 07:42:00,
2013-08-28 17:43:00,75.7,61.8,29.79,East,90,6.3,6.3,62,0.00,,,0.00,VWS V14.01,2013-08-28 07:43:00,
2013-08-28 17:44:00,75.7,61.8,29.79,ESE,112,4.3,6.3,62,0.00,,,0.00,VWS V14.01,2013-08-28 07:44:00,
2013-08-28 17:45:00,75.7,61.8,29.79,East,90,3.4,6.3,62,0.00,,,0.00,VWS V14.01,2013-08-28 07:45:00,
2013-08-28 17:46:00,75.7,61.8,29.79,SE,135,2.0,3.4,62,0.00,,,0.00,VWS V14.01,2013-08-28 07:46:00,
2013-08-28 17:47:00,75.6,61.6,29.79,SE,135,4.7,4.7,62,0.00,,,0.00,VWS V14.01,2013-08-28 07:47:00,
2013-08-28 17:48:00,75.6,61.6,29.79,ESE,112,6.5,6.5,62,0.00,,,0.00,VWS V14.01,2013-08-28 07:48:00,
2013-08-28 17:49:00,75.6,61.6,29.79,SE,135,3.4,6.5,62,0.00,,,0.00,VWS V14.01,2013-08-28 07:49:00,
2013-08-28 17:50:00,75.6,61.6,29.79,SE,135,4.3,4.3,62,0.00,,,0.00,VWS V14.01,2013-08-28 07:50:00,
2013-08-28 17:51:00,75.6,61.6,29.79,SE,135,4.3,4.3,62,0.00,,,0.00,VWS V14.01,2013-08-28 07:51:00,
2013-08-28 17:52:00,75.6,61.6,29.79,SE,135,2.5,2.5,62,0.00,,,0.00,VWS V14.01,2013-08-28 07:52:00,
2013-08-28 17:53:00,75.6,61.6,29.79,SE,135,2.5,2.5,62,0.00,,,0.00,VWS V14.01,2013-08-28 07:53:00,
2013-08-28 17:54:00,75.6,61.6,29.79,SE,135,2.5,2.5,62,0.00,,,0.00,VWS V14.01,2013-08-28 07:54:00,
2013-08-28 17:55:00,75.6,61.6,29.79,SE,135,2.5,2.5,62,0.00,,,0.00,VWS V14.01,2013-08-28 07:55:00,
2013-08-28 17:56:00,75.6,62.1,29.79,SSE,158,0.9,4.3,63,0.00,,,0.00,VWS V14.01,2013-08-28 07:56:00,
2013-08-28 17:57:00,75.6,62.1,29.79,South,180,3.4,3.4,63,0.00,,,0.00,VWS V14.01,2013-08-28 07:57:00,
2013-08-28 17:58:00,75.4,61.9,29.79,SE,135,3.6,3.6,63,0.00,,,0.00,VWS V14.01,2013-08-28 07:58:00,
2013-08-28 17:59:00,75.4,61.9,29.79,SE,135,3.6,3.6,63,0.00,,,0.00,VWS V14.01,2013-08-28 07:59:00,
2013-08-28 18:00:00,75.4,61.9,29.79,SSE,158,3.8,3.8,63,0.00,,,0.00,VWS V14.01,2013-08-28 08:00:00,
2013-08-28 18:01:00,75.2,61.3,29.79,SE,135,4.3,4.3,62,0.00,,,0.00,VWS V14.01,2013-08-28 08:01:00,
2013-08-28 18:02:00,75.2,61.3,29.79,SSE,158,3.6,4.3,62,0.00,,,0.00,VWS V14.01,2013-08-28 08:02:00,
2013-08-28 18:03:00,75.2,61.3,29.79,SSE,158,2.5,3.6,62,0.00,,,0.00,VWS V14.01,2013-08-28 08:03:00,
2013-08-28 18:04:00,75.2,61.3,29.79,SSE,158,1.6,2.5,62,0.00,,,0.00,VWS V14.01,2013-08-28 08:04:00,
2013-08-28 18:05:00,75.2,61.8,29.79,SSE,158,1.6,1.6,63,0.00,,,0.00,VWS V14.01,2013-08-28 08:05:00,
2013-08-28 18:06:00,75.2,61.8,29.79,SE,135,2.0,2.0,63,0.00,,,0.00,VWS V14.01,2013-08-28 08:06:00,
2013-08-28 18:07:00,75.2,61.8,29.79,SE,135,1.3,2.5,63,0.00,,,0.00,VWS V14.01,2013-08-28 08:07:00,
2013-08-28 18:08:00,75.2,61.8,29.79,SE,135,2.0,2.0,63,0.00,,,0.00,VWS V14.01,2013-08-28 08:08:00,
2013-08-28 18:09:00,75.2,61.8,29.79,SE,135,1.6,2.0,63,0.00,,,0.00,VWS V14.01,2013-08-28 08:09:00,
2013-08-28 18:10:00,75.2,61.8,29.79,SE,135,2.2,2.2,63,0.00,,,0.00,VWS V14.01,2013-08-28 08:10:00,
2013-08-28 18:11:00,75.2,61.8,29.79,SE,135,0.0,2.2,63,0.00,,,0.00,VWS V14.01,2013-08-28 08:11:00,
2013-08-28 18:12:00,75.0,61.6,29.79,SSE,158,2.7,2.7,63,0.00,,,0.00,VWS V14.01,2013-08-28 08:12:00,
2013-08-28 18:13:00,75.0,61.6,29.79,SSE,158,1.3,2.7,63,0.00,,,0.00,VWS V14.01,2013-08-28 08:13:00,
2013-08-28 18:14:00,75.0,61.6,29.79,SSE,158,4.3,4.3,63,0.00,,,0.00,VWS V14.01,2013-08-28 08:14:00,
2013-08-28 18:15:00,75.0,61.6,29.79,SSE,158,1.3,4.3,63,0.00,,,0.00,VWS V14.01,2013-08-28 08:15:00,
2013-08-28 18:16:00,75.0,61.6,29.79,SSE,158,1.3,1.3,63,0.00,,,0.00,VWS V14.01,2013-08-28 08:16:00,
2013-08-28 18:17:00,74.8,61.4,29.79,South,180,2.5,2.5,63,0.00,,,0.00,VWS V14.01,2013-08-28 08:17:00,
2013-08-28 18:18:00,74.8,61.4,29.79,South,180,0.0,2.5,63,0.00,,,0.00,VWS V14.01,2013-08-28 08:18:00,
2013-08-28 18:19:00,74.8,61.9,29.79,South,180,0.0,0.0,64,0.00,,,0.00,VWS V14.01,2013-08-28 08:19:00,
2013-08-28 18:20:00,74.8,61.9,29.79,South,180,0.0,0.0,64,0.00,,,0.00,VWS V14.01,2013-08-28 08:20:00,
2013-08-28 18:21:00,74.7,61.7,29.79,South,180,2.2,2.2,64,0.00,,,0.00,VWS V14.01,2013-08-28 08:21:00,
2013-08-28 18:22:00,74.5,61.5,29.79,South,180,1.1,2.2,64,0.00,,,0.00,VWS V14.01,2013-08-28 08:22:00,
2013-08-28 18:23:00,74.5,61.5,29.79,SE,135,2.7,2.7,64,0.00,,,0.00,VWS V14.01,2013-08-28 08:23:00,
2013-08-28 18:24:00,74.5,61.5,29.79,SE,135,3.4,3.4,64,0.00,,,0.00,VWS V14.01,2013-08-28 08:24:00,
2013-08-28 18:25:00,74.5,61.5,29.79,SE,135,3.4,3.4,64,0.00,,,0.00,VWS V14.01,2013-08-28 08:25:00,
2013-08-28 18:26:00,74.3,61.3,29.79,SE,135,2.5,3.4,64,0.00,,,0.00,VWS V14.01,2013-08-28 08:26:00,
2013-08-28 18:27:00,74.3,61.3,29.79,SE,135,2.5,2.5,64,0.00,,,0.00,VWS V14.01,2013-08-28 08:27:00,
2013-08-28 18:28:00,74.3,61.8,29.79,SSE,158,1.6,2.5,65,0.00,,,0.00,VWS V14.01,2013-08-28 08:28:00,
2013-08-28 18:29:00,74.1,61.6,29.79,SSE,158,1.6,1.6,65,0.00,,,0.00,VWS V14.01,2013-08-28 08:29:00,
2013-08-28 18:30:00,74.1,61.6,29.79,SSE,158,2.5,2.5,65,0.00,,,0.00,VWS V14.01,2013-08-28 08:30:00,
2013-08-28 18:31:00,74.1,61.6,29.79,SSE,158,1.6,1.6,65,0.00,,,0.00,VWS V14.01,2013-08-28 08:31:00,
2013-08-28 18:32:00,74.1,61.6,29.79,South,180,2.7,2.7,65,0.00,,,0.00,VWS V14.01,2013-08-28 08:32:00,
2013-08-28 18:33:00,74.1,61.6,29.79,South,180,2.7,2.7,65,0.00,,,0.00,VWS V14.01,2013-08-28 08:33:00,
2013-08-28 18:34:00,74.1,61.6,29.79,South,180,2.7,2.7,65,0.00,,,0.00,VWS V14.01,2013-08-28 08:34:00,
2013-08-28 18:35:00,73.9,61.4,29.82,South,180,2.7,2.7,65,0.00,,,0.00,VWS V14.01,2013-08-28 08:35:00,
2013-08-28 18:36:00,73.9,61.4,29.82,South,180,0.0,0.0,65,0.00,,,0.00,VWS V14.01,2013-08-28 08:36:00,
2013-08-28 18:37:00,73.9,61.4,29.82,South,180,0.0,0.0,65,0.00,,,0.00,VWS V14.01,2013-08-28 08:37:00,
2013-08-28 18:38:00,73.8,61.3,29.82,South,180,0.0,0.0,65,0.00,,,0.00,VWS V14.01,2013-08-28 08:38:00,
2013-08-28 18:39:00,73.8,61.3,29.82,SSE,158,2.0,2.0,65,0.00,,,0.00,VWS V14.01,2013-08-28 08:39:00,
2013-08-28 18:40:00,73.8,61.3,29.82,SSE,158,2.7,2.7,65,0.00,,,0.00,VWS V14.01,2013-08-28 08:40:00,
2013-08-28 18:41:00,73.6,61.1,29.82,SSE,158,2.7,3.4,65,0.00,,,0.00,VWS V14.01,2013-08-28 08:41:00,
2013-08-28 18:42:00,73.6,61.1,29.82,SSE,158,2.7,3.4,65,0.00,,,0.00,VWS V14.01,2013-08-28 08:42:00,
2013-08-28 18:43:00,73.6,61.1,29.82,SSE,158,2.0,2.7,65,0.00,,,0.00,VWS V14.01,2013-08-28 08:43:00,
2013-08-28 18:44:00,73.6,61.5,29.82,SSE,158,1.1,2.0,66,0.00,,,0.00,VWS V14.01,2013-08-28 08:44:00,
2013-08-28 18:45:00,73.6,61.5,29.82,SSE,158,1.1,1.1,66,0.00,,,0.00,VWS V14.01,2013-08-28 08:45:00,
2013-08-28 18:46:00,73.6,61.5,29.82,SSE,158,1.1,1.1,66,0.00,,,0.00,VWS V14.01,2013-08-28 08:46:00,
2013-08-28 18:47:00,73.4,61.4,29.82,SSE,158,1.1,1.1,66,0.00,,,0.00,VWS V14.01,2013-08-28 08:47:00,
2013-08-28 18:48:00,73.4,61.4,29.82,SSE,158,1.1,1.1,66,0.00,,,0.00,VWS V14.01,2013-08-28 08:48:00,
2013-08-28 18:49:00,73.4,61.4,29.82,South,180,2.9,2.9,66,0.00,,,0.00,VWS V14.01,2013-08-28 08:49:00,
2013-08-28 18:50:00,73.4,61.4,29.82,South,180,2.9,2.9,66,0.00,,,0.00,VWS V14.01,2013-08-28 08:50:00,
2013-08-28 18:51:00,73.4,61.4,29.82,South,180,0.0,2.9,66,0.00,,,0.00,VWS V14.01,2013-08-28 08:51:00,
2013-08-28 18:52:00,73.2,61.6,29.82,South,180,0.0,2.9,67,0.00,,,0.00,VWS V14.01,2013-08-28 08:52:00,
2013-08-28 18:53:00,73.2,61.6,29.82,South,180,0.0,0.0,67,0.00,,,0.00,VWS V14.01,2013-08-28 08:53:00,
2013-08-28 18:54:00,73.2,61.6,29.82,South,180,0.0,0.0,67,0.00,,,0.00,VWS V14.01,2013-08-28 08:54:00,
2013-08-28 18:55:00,73.2,61.6,29.82,South,180,0.0,0.0,67,0.00,,,0.00,VWS V14.01,2013-08-28 08:55:00,
2013-08-28 18:56:00,72.9,61.3,29.82,ESE,112,2.7,2.7,67,0.00,,,0.00,VWS V14.01,2013-08-28 08:56:00,
2013-08-28 18:57:00,72.9,61.3,29.82,ESE,112,2.7,2.7,67,0.00,,,0.00,VWS V14.01,2013-08-28 08:57:00,
2013-08-28 18:58:00,72.9,61.3,29.82,South,180,2.7,2.7,67,0.00,,,0.00,VWS V14.01,2013-08-28 08:58:00,
2013-08-28 18:59:00,72.9,61.3,29.82,SSW,202,3.4,3.4,67,0.00,,,0.00,VWS V14.01,2013-08-28 08:59:00,
2013-08-28 19:00:00,72.9,61.3,29.82,SSW,202,3.4,3.4,67,0.00,,,0.00,VWS V14.01,2013-08-28 09:00:00,
2013-08-28 19:01:00,72.9,61.3,29.82,SSW,202,3.4,3.4,67,0.00,,,0.00,VWS V14.01,2013-08-28 09:01:00,
2013-08-28 19:02:00,72.9,61.3,29.82,SSW,202,3.4,3.4,67,0.00,,,0.00,VWS V14.01,2013-08-28 09:02:00,
2013-08-28 19:03:00,72.9,61.3,29.82,SSW,202,3.4,3.4,67,0.00,,,0.00,VWS V14.01,2013-08-28 09:03:00,
2013-08-28 19:04:00,72.9,61.3,29.82,SSW,202,3.4,3.4,67,0.00,,,0.00,VWS V14.01,2013-08-28 09:04:00,
2013-08-28 19:05:00,72.9,61.3,29.82,SSW,202,3.4,3.4,67,0.00,,,0.00,VWS V14.01,2013-08-28 09:05:00,
2013-08-28 19:06:00,72.7,61.1,29.82,SSW,202,3.4,3.4,67,0.00,,,0.00,VWS V14.01,2013-08-28 09:06:00,
2013-08-28 19:07:00,72.3,60.8,29.82,SSW,202,3.4,3.4,67,0.00,,,0.00,VWS V14.01,2013-08-28 09:07:00,
2013-08-28 19:08:00,72.3,60.8,29.82,SE,135,2.7,3.4,67,0.00,,,0.00,VWS V14.01,2013-08-28 09:08:00,
2013-08-28 19:09:00,72.3,61.2,29.82,SE,135,2.7,2.7,68,0.00,,,0.00,VWS V14.01,2013-08-28 09:09:00,
2013-08-28 19:10:00,72.3,61.2,29.82,SE,135,2.7,2.7,68,0.00,,,0.00,VWS V14.01,2013-08-28 09:10:00,
2013-08-28 19:11:00,72.5,61.3,29.82,SE,135,2.7,2.7,68,0.00,,,0.00,VWS V14.01,2013-08-28 09:11:00,
2013-08-28 19:12:00,72.5,61.3,29.82,SE,135,2.7,2.7,68,0.00,,,0.00,VWS V14.01,2013-08-28 09:12:00,
2013-08-28 19:13:00,72.5,61.3,29.82,SSE,158,2.0,2.7,68,0.00,,,0.00,VWS V14.01,2013-08-28 09:13:00,
2013-08-28 19:14:00,72.5,61.3,29.82,SSE,158,2.0,2.0,68,0.00,,,0.00,VWS V14.01,2013-08-28 09:14:00,
2013-08-28 19:15:00,72.5,61.3,29.82,SSE,158,2.0,2.0,68,0.00,,,0.00,VWS V14.01,2013-08-28 09:15:00,
2013-08-28 19:16:00,72.3,61.2,29.82,SSE,158,2.0,2.0,68,0.00,,,0.00,VWS V14.01,2013-08-28 09:16:00,
2013-08-28 19:17:00,72.3,61.2,29.82,SSE,158,2.0,2.0,68,0.00,,,0.00,VWS V14.01,2013-08-28 09:17:00,
2013-08-28 19:18:00,72.1,61.0,29.82,SSE,158,2.0,2.0,68,0.00,,,0.00,VWS V14.01,2013-08-28 09:18:00,
2013-08-28 19:19:00,72.1,61.0,29.82,SSE,158,2.0,2.0,68,0.00,,,0.00,VWS V14.01,2013-08-28 09:19:00,
2013-08-28 19:20:00,72.3,61.2,29.85,SSE,158,2.0,2.0,68,0.00,,,0.00,VWS V14.01,2013-08-28 09:20:00,
2013-08-28 19:21:00,72.3,61.2,29.85,SSE,158,2.2,2.2,68,0.00,,,0.00,VWS V14.01,2013-08-28 09:21:00,
2013-08-28 19:22:00,72.1,61.0,29.85,South,180,1.3,2.2,68,0.00,,,0.00,VWS V14.01,2013-08-28 09:22:00,
2013-08-28 19:23:00,72.1,61.0,29.85,South,180,1.3,1.3,68,0.00,,,0.00,VWS V14.01,2013-08-28 09:23:00,
2013-08-28 19:24:00,72.1,61.0,29.85,South,180,2.2,2.2,68,0.00,,,0.00,VWS V14.01,2013-08-28 09:24:00,
2013-08-28 19:25:00,72.0,60.8,29.85,SSE,158,2.2,2.2,68,0.00,,,0.00,VWS V14.01,2013-08-28 09:25:00,
2013-08-28 19:26:00,72.0,60.8,29.85,SSE,158,1.6,2.2,68,0.00,,,0.00,VWS V14.01,2013-08-28 09:26:00,
2013-08-28 19:27:00,72.0,60.8,29.85,South,180,0.9,1.6,68,0.00,,,0.00,VWS V14.01,2013-08-28 09:27:00,
2013-08-28 19:28:00,72.0,60.8,29.85,South,180,0.9,0.9,68,0.00,,,0.00,VWS V14.01,2013-08-28 09:28:00,
2013-08-28 19:29:00,72.0,60.8,29.85,SSW,202,2.5,2.5,68,0.00,,,0.00,VWS V14.01,2013-08-28 09:29:00,
2013-08-28 19:30:00,71.8,60.7,29.85,SSW,202,2.5,2.5,68,0.00,,,0.00,VWS V14.01,2013-08-28 09:30:00,
2013-08-28 19:31:00,71.8,60.7,29.85,SSW,202,2.5,2.5,68,0.00,,,0.00,VWS V14.01,2013-08-28 09:31:00,
2013-08-28 19:32:00,71.6,60.5,29.85,ESE,112,3.4,3.4,68,0.00,,,0.00,VWS V14.01,2013-08-28 09:32:00,
2013-08-28 19:33:00,71.6,60.5,29.85,SSE,158,4.3,4.3,68,0.00,,,0.00,VWS V14.01,2013-08-28 09:33:00,
2013-08-28 19:34:00,71.4,60.7,29.85,SSE,158,4.3,4.3,69,0.00,,,0.00,VWS V14.01,2013-08-28 09:34:00,
2013-08-28 19:35:00,71.4,60.7,29.85,South,180,3.4,4.3,69,0.00,,,0.00,VWS V14.01,2013-08-28 09:35:00,
2013-08-28 19:36:00,71.2,60.6,29.85,South,180,3.4,3.4,69,0.00,,,0.00,VWS V14.01,2013-08-28 09:36:00,
2013-08-28 19:37:00,71.2,60.6,29.85,SSW,202,3.6,3.6,69,0.00,,,0.00,VWS V14.01,2013-08-28 09:37:00,
2013-08-28 19:38:00,71.2,61.0,29.85,SSW,202,2.2,3.6,70,0.00,,,0.00,VWS V14.01,2013-08-28 09:38:00,
2013-08-28 19:39:00,71.4,61.1,29.85,SSW,202,2.2,2.2,70,0.00,,,0.00,VWS V14.01,2013-08-28 09:39:00,
2013-08-28 19:40:00,71.4,61.1,29.85,SSW,202,2.2,2.2,70,0.00,,,0.00,VWS V14.01,2013-08-28 09:40:00,
2013-08-28 19:41:00,71.4,61.1,29.85,SSW,202,2.2,2.2,70,0.00,,,0.00,VWS V14.01,2013-08-28 09:41:00,
2013-08-28 19:42:00,71.4,61.1,29.85,SSW,202,2.2,2.2,70,0.00,,,0.00,VWS V14.01,2013-08-28 09:42:00,
2013-08-28 19:43:00,71.4,61.1,29.85,SSW,202,2.2,2.2,70,0.00,,,0.00,VWS V14.01,2013-08-28 09:43:00,
2013-08-28 19:44:00,71.4,61.1,29.85,SSW,202,2.2,2.2,70,0.00,,,0.00,VWS V14.01,2013-08-28 09:44:00,
2013-08-28 19:45:00,71.4,61.1,29.85,SSW,202,2.2,2.2,70,0.00,,,0.00,VWS V14.01,2013-08-28 09:45:00,
2013-08-28 19:46:00,71.4,61.1,29.85,South,180,3.1,3.1,70,0.00,,,0.00,VWS V14.01,2013-08-28 09:46:00,
2013-08-28 19:47:00,71.4,61.1,29.85,South,180,3.1,3.1,70,0.00,,,0.00,VWS V14.01,2013-08-28 09:47:00,
2013-08-28 19:48:00,71.4,61.1,29.85,South,180,3.1,3.1,70,0.00,,,0.00,VWS V14.01,2013-08-28 09:48:00,
2013-08-28 19:49:00,71.4,61.1,29.85,South,180,3.1,3.1,70,0.00,,,0.00,VWS V14.01,2013-08-28 09:49:00,
2013-08-28 19:50:00,71.6,60.9,29.85,South,180,3.1,3.1,69,0.00,,,0.00,VWS V14.01,2013-08-28 09:50:00,
2013-08-28 19:51:00,71.6,60.9,29.85,South,180,3.1,3.1,69,0.00,,,0.00,VWS V14.01,2013-08-28 09:51:00,
2013-08-28 19:52:00,71.4,61.1,29.85,South,180,2.5,3.1,70,0.00,,,0.00,VWS V14.01,2013-08-28 09:52:00,
2013-08-28 19:53:00,71.4,61.1,29.85,South,180,2.5,2.5,70,0.00,,,0.00,VWS V14.01,2013-08-28 09:53:00,
2013-08-28 19:54:00,71.4,61.1,29.85,South,180,2.5,2.5,70,0.00,,,0.00,VWS V14.01,2013-08-28 09:54:00,
2013-08-28 19:55:00,71.2,61.0,29.85,South,180,2.5,2.5,70,0.00,,,0.00,VWS V14.01,2013-08-28 09:55:00,
2013-08-28 19:56:00,71.2,61.0,29.85,South,180,2.5,2.5,70,0.00,,,0.00,VWS V14.01,2013-08-28 09:56:00,
2013-08-28 19:57:00,71.2,61.0,29.85,South,180,2.5,2.5,70,0.00,,,0.00,VWS V14.01,2013-08-28 09:57:00,
2013-08-28 19:58:00,71.2,61.0,29.85,South,180,2.5,2.5,70,0.00,,,0.00,VWS V14.01,2013-08-28 09:58:00,
2013-08-28 19:59:00,71.1,60.8,29.85,South,180,2.5,2.5,70,0.00,,,0.00,VWS V14.01,2013-08-28 09:59:00,
2013-08-28 20:00:00,71.2,61.0,29.85,SSE,158,2.9,2.9,70,0.00,,,0.00,VWS V14.01,2013-08-28 10:00:00,
2013-08-28 20:01:00,71.2,61.0,29.85,SSE,158,2.2,2.9,70,0.00,,,0.00,VWS V14.01,2013-08-28 10:01:00,
2013-08-28 20:02:00,71.2,61.0,29.85,SSE,158,2.2,2.2,70,0.00,,,0.00,VWS V14.01,2013-08-28 10:02:00,
2013-08-28 20:03:00,71.2,61.0,29.85,SSE,158,2.2,2.2,70,0.00,,,0.00,VWS V14.01,2013-08-28 10:03:00,
2013-08-28 20:04:00,71.2,61.0,29.85,SSE,158,2.2,2.2,70,0.00,,,0.00,VWS V14.01,2013-08-28 10:04:00,
2013-08-28 20:05:00,71.2,61.0,29.85,SSE,158,2.2,2.2,70,0.00,,,0.00,VWS V14.01,2013-08-28 10:05:00,
2013-08-28 20:06:00,71.1,60.8,29.85,SSE,158,2.2,2.2,70,0.00,,,0.00,VWS V14.01,2013-08-28 10:06:00,
2013-08-28 20:07:00,71.1,60.8,29.85,SSE,158,2.2,2.2,70,0.00,,,0.00,VWS V14.01,2013-08-28 10:07:00,
2013-08-28 20:08:00,71.1,60.8,29.85,SSW,202,3.4,3.4,70,0.00,,,0.00,VWS V14.01,2013-08-28 10:08:00,
2013-08-28 20:09:00,70.9,60.6,29.85,SSW,202,3.4,3.4,70,0.00,,,0.00,VWS V14.01,2013-08-28 10:09:00,
2013-08-28 20:10:00,70.9,60.6,29.85,SSW,202,3.4,3.4,70,0.00,,,0.00,VWS V14.01,2013-08-28 10:10:00,
2013-08-28 20:11:00,70.9,60.6,29.85,SSW,202,3.4,3.4,70,0.00,,,0.00,VWS V14.01,2013-08-28 10:11:00,
2013-08-28 20:12:00,70.9,60.6,29.85,South,180,0.9,3.4,70,0.00,,,0.00,VWS V14.01,2013-08-28 10:12:00,
2013-08-28 20:13:00,70.9,60.6,29.85,South,180,0.9,0.9,70,0.00,,,0.00,VWS V14.01,2013-08-28 10:13:00,
2013-08-28 20:14:00,70.9,61.0,29.85,South,180,0.9,0.9,71,0.00,,,0.00,VWS V14.01,2013-08-28 10:14:00,
2013-08-28 20:15:00,70.9,61.0,29.85,SSW,202,3.6,3.6,71,0.00,,,0.00,VWS V14.01,2013-08-28 10:15:00,
2013-08-28 20:16:00,70.7,60.8,29.85,SSW,202,3.1,3.6,71,0.00,,,0.00,VWS V14.01,2013-08-28 10:16:00,
2013-08-28 20:17:00,70.7,60.8,29.85,SSW,202,3.1,3.1,71,0.00,,,0.00,VWS V14.01,2013-08-28 10:17:00,
2013-08-28 20:18:00,70.7,60.5,29.85,SSW,202,3.1,3.1,70,0.00,,,0.00,VWS V14.01,2013-08-28 10:18:00,
2013-08-28 20:19:00,70.3,60.5,29.85,SE,135,4.0,4.0,71,0.00,,,0.00,VWS V14.01,2013-08-28 10:19:00,
2013-08-28 20:20:00,70.3,60.5,29.85,SE,135,4.0,4.0,71,0.00,,,0.00,VWS V14.01,2013-08-28 10:20:00,
2013-08-28 20:21:00,70.3,60.5,29.85,SE,135,4.0,4.0,71,0.00,,,0.00,VWS V14.01,2013-08-28 10:21:00,
2013-08-28 20:22:00,70.3,60.5,29.85,SE,135,4.0,4.0,71,0.00,,,0.00,VWS V14.01,2013-08-28 10:22:00,
2013-08-28 20:23:00,70.3,60.5,29.85,South,180,4.9,4.9,71,0.00,,,0.00,VWS V14.01,2013-08-28 10:23:00,
2013-08-28 20:24:00,70.5,60.7,29.85,South,180,4.9,4.9,71,0.00,,,0.00,VWS V14.01,2013-08-28 10:24:00,
2013-08-28 20:25:00,70.5,60.7,29.85,South,180,4.9,4.9,71,0.00,,,0.00,VWS V14.01,2013-08-28 10:25:00,
2013-08-28 20:26:00,70.7,60.8,29.85,SSW,202,2.9,4.9,71,0.00,,,0.00,VWS V14.01,2013-08-28 10:26:00,
2013-08-28 20:27:00,70.7,60.8,29.85,WSW,248,5.8,5.8,71,0.00,,,0.00,VWS V14.01,2013-08-28 10:27:00,
2013-08-28 20:28:00,70.7,60.5,29.85,WSW,248,6.0,6.0,70,0.00,,,0.00,VWS V14.01,2013-08-28 10:28:00,
2013-08-28 20:29:00,70.9,60.6,29.85,South,180,4.7,6.0,70,0.00,,,0.00,VWS V14.01,2013-08-28 10:29:00,
2013-08-28 20:30:00,70.9,60.6,29.85,South,180,4.7,6.0,70,0.00,,,0.00,VWS V14.01,2013-08-28 10:30:00,
2013-08-28 20:31:00,70.9,60.6,29.85,SSE,158,2.9,4.7,70,0.00,,,0.00,VWS V14.01,2013-08-28 10:31:00,
2013-08-28 20:32:00,70.9,60.6,29.85,SSE,158,2.9,2.9,70,0.00,,,0.00,VWS V14.01,2013-08-28 10:32:00,
2013-08-28 20:33:00,70.9,60.6,29.85,SSE,158,2.9,2.9,70,0.00,,,0.00,VWS V14.01,2013-08-28 10:33:00,
2013-08-28 20:34:00,71.1,60.8,29.85,SSE,158,2.9,2.9,70,0.00,,,0.00,VWS V14.01,2013-08-28 10:34:00,
2013-08-28 20:35:00,71.1,60.8,29.85,SSW,202,3.4,3.4,70,0.00,,,0.00,VWS V14.01,2013-08-28 10:35:00,
2013-08-28 20:36:00,71.1,60.8,29.85,South,180,3.4,3.4,70,0.00,,,0.00,VWS V14.01,2013-08-28 10:36:00,
2013-08-28 20:37:00,70.9,60.6,29.85,SSW,202,3.4,3.4,70,0.00,,,0.00,VWS V14.01,2013-08-28 10:37:00,
2013-08-28 20:38:00,70.9,60.6,29.85,SSW,202,2.2,3.4,70,0.00,,,0.00,VWS V14.01,2013-08-28 10:38:00,
2013-08-28 20:39:00,71.1,60.8,29.85,SSW,202,2.2,2.2,70,0.00,,,0.00,VWS V14.01,2013-08-28 10:39:00,
2013-08-28 20:40:00,71.1,60.8,29.85,SSW,202,2.2,2.2,70,0.00,,,0.00,VWS V14.01,2013-08-28 10:40:00,
2013-08-28 20:41:00,71.1,60.8,29.85,SSW,202,3.6,3.6,70,0.00,,,0.00,VWS V14.01,2013-08-28 10:41:00,
2013-08-28 20:42:00,71.1,60.8,29.85,SSW,202,3.6,3.6,70,0.00,,,0.00,VWS V14.01,2013-08-28 10:42:00,
2013-08-28 20:43:00,71.1,60.8,29.85,SSW,202,3.6,3.6,70,0.00,,,0.00,VWS V14.01,2013-08-28 10:43:00,
2013-08-28 20:44:00,71.1,60.8,29.85,SSE,158,1.6,1.6,70,0.00,,,0.00,VWS V14.01,2013-08-28 10:44:00,
2013-08-28 20:45:00,71.1,60.8,29.85,SSE,158,1.6,1.6,70,0.00,,,0.00,VWS V14.01,2013-08-28 10:45:00,
2013-08-28 20:46:00,71.1,60.8,29.85,SW,225,3.6,3.6,70,0.00,,,0.00,VWS V14.01,2013-08-28 10:46:00,
2013-08-28 20:47:00,71.1,60.8,29.85,SW,225,3.4,3.6,70,0.00,,,0.00,VWS V14.01,2013-08-28 10:47:00,
2013-08-28 20:48:00,71.1,60.8,29.85,South,180,2.5,3.4,70,0.00,,,0.00,VWS V14.01,2013-08-28 10:48:00,
2013-08-28 20:49:00,71.1,60.8,29.85,SSW,202,2.0,2.0,70,0.00,,,0.00,VWS V14.01,2013-08-28 10:49:00,
2013-08-28 20:50:00,71.1,60.8,29.85,SSW,202,2.0,2.0,70,0.00,,,0.00,VWS V14.01,2013-08-28 10:50:00,
2013-08-28 20:51:00,71.1,60.8,29.85,SSW,202,2.0,2.0,70,0.00,,,0.00,VWS V14.01,2013-08-28 10:51:00,
2013-08-28 20:52:00,71.1,60.8,29.85,SSW,202,2.0,2.0,70,0.00,,,0.00,VWS V14.01,2013-08-28 10:52:00,
2013-08-28 20:53:00,70.9,60.6,29.85,SSW,202,2.0,2.0,70,0.00,,,0.00,VWS V14.01,2013-08-28 10:53:00,
2013-08-28 20:54:00,70.7,60.5,29.85,SSW,202,4.7,4.7,70,0.00,,,0.00,VWS V14.01,2013-08-28 10:54:00,
2013-08-28 20:55:00,70.7,60.5,29.85,SSW,202,4.7,4.7,70,0.00,,,0.00,VWS V14.01,2013-08-28 10:55:00,
2013-08-28 20:56:00,70.5,60.3,29.85,SSW,202,4.7,4.7,70,0.00,,,0.00,VWS V14.01,2013-08-28 10:56:00,
2013-08-28 20:57:00,70.5,60.3,29.85,South,180,3.1,4.7,70,0.00,,,0.00,VWS V14.01,2013-08-28 10:57:00,
2013-08-28 20:58:00,70.7,60.5,29.85,South,180,3.1,3.1,70,0.00,,,0.00,VWS V14.01,2013-08-28 10:58:00,
2013-08-28 20:59:00,70.7,60.5,29.85,SSW,202,2.5,3.1,70,0.00,,,0.00,VWS V14.01,2013-08-28 10:59:00,
2013-08-28 21:00:00,70.5,60.3,29.85,South,180,4.3,4.3,70,0.00,,,0.00,VWS V14.01,2013-08-28 11:00:00,
2013-08-28 21:01:00,70.5,60.3,29.85,SSW,202,3.6,4.3,70,0.00,,,0.00,VWS V14.01,2013-08-28 11:01:00,
2013-08-28 21:02:00,70.5,60.3,29.85,SW,225,3.1,3.6,70,0.00,,,0.00,VWS V14.01,2013-08-28 11:02:00,
2013-08-28 21:03:00,70.5,60.7,29.85,SSE,158,2.9,3.1,71,0.00,,,0.00,VWS V14.01,2013-08-28 11:03:00,
2013-08-28 21:04:00,70.5,60.7,29.85,South,180,2.9,2.9,71,0.00,,,0.00,VWS V14.01,2013-08-28 11:04:00,
2013-08-28 21:05:00,70.3,60.1,29.85,SSW,202,4.3,4.3,70,0.00,,,0.00,VWS V14.01,2013-08-28 11:05:00,
2013-08-28 21:06:00,70.3,60.1,29.85,SSW,202,3.8,4.3,70,0.00,,,0.00,VWS V14.01,2013-08-28 11:06:00,
2013-08-28 21:07:00,70.2,60.3,29.85,South,180,4.0,4.0,71,0.00,,,0.00,VWS V14.01,2013-08-28 11:07:00,
2013-08-28 21:08:00,70.2,60.3,29.85,South,180,4.0,4.0,71,0.00,,,0.00,VWS V14.01,2013-08-28 11:08:00,
2013-08-28 21:09:00,70.2,60.3,29.85,South,180,4.3,4.3,71,0.00,,,0.00,VWS V14.01,2013-08-28 11:09:00,
2013-08-28 21:10:00,70.2,60.3,29.85,South,180,4.3,4.3,71,0.00,,,0.00,VWS V14.01,2013-08-28 11:10:00,
2013-08-28 21:11:00,70.2,60.3,29.85,South,180,2.0,4.3,71,0.00,,,0.00,VWS V14.01,2013-08-28 11:11:00,
2013-08-28 21:12:00,70.2,60.3,29.85,SSE,158,3.4,3.4,71,0.00,,,0.00,VWS V14.01,2013-08-28 11:12:00,
2013-08-28 21:13:00,70.2,60.3,29.85,South,180,2.7,3.4,71,0.00,,,0.00,VWS V14.01,2013-08-28 11:13:00,
2013-08-28 21:14:00,70.0,60.2,29.85,South,180,4.0,4.0,71,0.00,,,0.00,VWS V14.01,2013-08-28 11:14:00,
2013-08-28 21:15:00,70.0,60.2,29.85,South,180,2.9,4.0,71,0.00,,,0.00,VWS V14.01,2013-08-28 11:15:00,
2013-08-28 21:16:00,70.0,60.2,29.85,South,180,2.5,2.9,71,0.00,,,0.00,VWS V14.01,2013-08-28 11:16:00,
2013-08-28 21:17:00,70.0,60.2,29.85,South,180,2.5,2.5,71,0.00,,,0.00,VWS V14.01,2013-08-28 11:17:00,
2013-08-28 21:18:00,70.0,60.2,29.85,SSW,202,5.6,5.6,71,0.00,,,0.00,VWS V14.01,2013-08-28 11:18:00,
2013-08-28 21:19:00,69.8,60.0,29.85,South,180,3.4,5.6,71,0.00,,,0.00,VWS V14.01,2013-08-28 11:19:00,
2013-08-28 21:20:00,69.8,60.0,29.85,South,180,3.4,3.4,71,0.00,,,0.00,VWS V14.01,2013-08-28 11:20:00,
2013-08-28 21:21:00,69.8,60.4,29.85,SSW,202,3.8,3.8,72,0.00,,,0.00,VWS V14.01,2013-08-28 11:21:00,
2013-08-28 21:22:00,69.8,60.4,29.85,SSW,202,3.8,3.8,72,0.00,,,0.00,VWS V14.01,2013-08-28 11:22:00,
2013-08-28 21:23:00,69.8,60.4,29.85,SSW,202,3.8,3.8,72,0.00,,,0.00,VWS V14.01,2013-08-28 11:23:00,
2013-08-28 21:24:00,70.0,60.5,29.85,SSW,202,3.8,3.8,72,0.00,,,0.00,VWS V14.01,2013-08-28 11:24:00,
2013-08-28 21:25:00,70.0,60.5,29.85,SSW,202,3.8,3.8,72,0.00,,,0.00,VWS V14.01,2013-08-28 11:25:00,
2013-08-28 21:26:00,70.0,60.5,29.85,SSW,202,3.8,3.8,72,0.00,,,0.00,VWS V14.01,2013-08-28 11:26:00,
2013-08-28 21:27:00,70.0,60.5,29.85,SSW,202,3.8,3.8,72,0.00,,,0.00,VWS V14.01,2013-08-28 11:27:00,
2013-08-28 21:28:00,70.0,60.5,29.85,SSW,202,3.8,3.8,72,0.00,,,0.00,VWS V14.01,2013-08-28 11:28:00,
2013-08-28 21:29:00,70.0,60.5,29.85,South,180,5.6,5.6,72,0.00,,,0.00,VWS V14.01,2013-08-28 11:29:00,
2013-08-28 21:30:00,69.8,60.4,29.85,SW,225,2.7,5.6,72,0.00,,,0.00,VWS V14.01,2013-08-28 11:30:00,
2013-08-28 21:31:00,69.8,60.4,29.85,SW,225,2.7,2.7,72,0.00,,,0.00,VWS V14.01,2013-08-28 11:31:00,
2013-08-28 21:32:00,69.8,60.4,29.85,SSW,202,2.9,2.9,72,0.00,,,0.00,VWS V14.01,2013-08-28 11:32:00,
2013-08-28 21:33:00,69.8,60.4,29.85,SSW,202,2.9,2.9,72,0.00,,,0.00,VWS V14.01,2013-08-28 11:33:00,
2013-08-28 21:34:00,69.8,60.4,29.85,South,180,2.7,2.9,72,0.00,,,0.00,VWS V14.01,2013-08-28 11:34:00,
2013-08-28 21:35:00,69.8,60.4,29.85,South,180,2.9,2.9,72,0.00,,,0.00,VWS V14.01,2013-08-28 11:35:00,
2013-08-28 21:36:00,69.8,60.4,29.85,South,180,2.9,2.9,72,0.00,,,0.00,VWS V14.01,2013-08-28 11:36:00,
2013-08-28 21:37:00,69.8,60.4,29.85,SSW,202,4.3,4.3,72,0.00,,,0.00,VWS V14.01,2013-08-28 11:37:00,
2013-08-28 21:38:00,69.8,60.4,29.85,SSW,202,4.3,4.3,72,0.00,,,0.00,VWS V14.01,2013-08-28 11:38:00,
2013-08-28 21:39:00,69.6,60.6,29.85,SW,225,2.9,4.3,73,0.00,,,0.00,VWS V14.01,2013-08-28 11:39:00,
2013-08-28 21:40:00,69.6,60.6,29.85,SW,225,2.9,2.9,73,0.00,,,0.00,VWS V14.01,2013-08-28 11:40:00,
2013-08-28 21:41:00,69.6,60.6,29.85,SW,225,2.9,2.9,73,0.00,,,0.00,VWS V14.01,2013-08-28 11:41:00,
2013-08-28 21:42:00,69.4,60.4,29.85,SSW,202,3.8,3.8,73,0.00,,,0.00,VWS V14.01,2013-08-28 11:42:00,
2013-08-28 21:43:00,69.4,60.4,29.85,SSW,202,3.8,3.8,73,0.00,,,0.00,VWS V14.01,2013-08-28 11:43:00,
2013-08-28 21:44:00,69.4,60.4,29.85,SSW,202,3.8,3.8,73,0.00,,,0.00,VWS V14.01,2013-08-28 11:44:00,
2013-08-28 21:45:00,69.4,60.4,29.85,SSW,202,3.8,3.8,73,0.00,,,0.00,VWS V14.01,2013-08-28 11:45:00,
2013-08-28 21:46:00,69.3,60.2,29.85,SSW,202,3.8,3.8,73,0.00,,,0.00,VWS V14.01,2013-08-28 11:46:00,
2013-08-28 21:47:00,69.3,60.2,29.85,SSW,202,3.8,3.8,73,0.00,,,0.00,VWS V14.01,2013-08-28 11:47:00,
2013-08-28 21:48:00,69.3,60.2,29.85,South,180,4.7,4.7,73,0.00,,,0.00,VWS V14.01,2013-08-28 11:48:00,
2013-08-28 21:49:00,69.3,60.2,29.85,South,180,4.7,4.7,73,0.00,,,0.00,VWS V14.01,2013-08-28 11:49:00,
2013-08-28 21:50:00,69.1,60.1,29.88,South,180,4.7,4.7,73,0.00,,,0.00,VWS V14.01,2013-08-28 11:50:00,
2013-08-28 21:51:00,69.1,60.1,29.88,SSE,158,3.1,4.7,73,0.00,,,0.00,VWS V14.01,2013-08-28 11:51:00,
2013-08-28 21:52:00,68.9,59.9,29.88,SSE,158,3.1,3.1,73,0.00,,,0.00,VWS V14.01,2013-08-28 11:52:00,
2013-08-28 21:53:00,68.9,59.9,29.88,SSE,158,3.1,3.1,73,0.00,,,0.00,VWS V14.01,2013-08-28 11:53:00,
2013-08-28 21:54:00,68.9,60.3,29.88,SSE,158,2.5,3.1,74,0.00,,,0.00,VWS V14.01,2013-08-28 11:54:00,
2013-08-28 21:55:00,68.9,60.3,29.88,SSE,158,5.6,5.6,74,0.00,,,0.00,VWS V14.01,2013-08-28 11:55:00,
2013-08-28 21:56:00,68.9,60.3,29.88,SSE,158,5.6,5.6,74,0.00,,,0.00,VWS V14.01,2013-08-28 11:56:00,
2013-08-28 21:57:00,68.9,60.3,29.88,SSW,202,4.0,5.6,74,0.00,,,0.00,VWS V14.01,2013-08-28 11:57:00,
2013-08-28 21:58:00,68.9,60.3,29.88,South,180,5.4,5.4,74,0.00,,,0.00,VWS V14.01,2013-08-28 11:58:00,
2013-08-28 21:59:00,68.7,60.1,29.88,SW,225,3.6,5.4,74,0.00,,,0.00,VWS V14.01,2013-08-28 11:59:00,
2013-08-28 22:00:00,68.7,60.1,29.88,SW,225,3.6,3.6,74,0.00,,,0.00,VWS V14.01,2013-08-28 12:00:00,
2013-08-28 22:01:00,68.7,60.1,29.88,SSW,202,3.8,3.8,74,0.00,,,0.00,VWS V14.01,2013-08-28 12:01:00,
2013-08-28 22:02:00,68.7,60.1,29.88,South,180,5.4,5.4,74,0.00,,,0.00,VWS V14.01,2013-08-28 12:02:00,
2013-08-28 22:03:00,68.7,60.1,29.88,SSW,202,4.0,5.4,74,0.00,,,0.00,VWS V14.01,2013-08-28 12:03:00,
2013-08-28 22:04:00,68.7,60.1,29.88,SW,225,2.7,4.0,74,0.00,,,0.00,VWS V14.01,2013-08-28 12:04:00,
2013-08-28 22:05:00,68.7,60.1,29.85,SW,225,2.7,2.7,74,0.00,,,0.00,VWS V14.01,2013-08-28 12:05:00,
2013-08-28 22:06:00,68.5,60.3,29.85,SW,225,2.7,2.7,75,0.00,,,0.00,VWS V14.01,2013-08-28 12:06:00,
2013-08-28 22:07:00,68.5,60.3,29.85,South,180,2.7,2.7,75,0.00,,,0.00,VWS V14.01,2013-08-28 12:07:00,
2013-08-28 22:08:00,68.5,60.3,29.85,SSE,158,3.4,3.4,75,0.00,,,0.00,VWS V14.01,2013-08-28 12:08:00,
2013-08-28 22:09:00,68.4,60.1,29.85,SSE,158,3.4,3.4,75,0.00,,,0.00,VWS V14.01,2013-08-28 12:09:00,
2013-08-28 22:10:00,68.4,60.1,29.85,SSE,158,3.4,3.4,75,0.00,,,0.00,VWS V14.01,2013-08-28 12:10:00,
2013-08-28 22:11:00,68.4,60.1,29.85,SSE,158,3.4,3.4,75,0.00,,,0.00,VWS V14.01,2013-08-28 12:11:00,
2013-08-28 22:12:00,68.4,60.1,29.85,SSE,158,3.4,3.4,75,0.00,,,0.00,VWS V14.01,2013-08-28 12:12:00,
2013-08-28 22:13:00,68.4,60.1,29.85,SSE,158,3.4,3.4,75,0.00,,,0.00,VWS V14.01,2013-08-28 12:13:00,
2013-08-28 22:14:00,68.4,60.1,29.85,SSE,158,3.4,3.4,75,0.00,,,0.00,VWS V14.01,2013-08-28 12:14:00,
2013-08-28 22:15:00,68.4,60.1,29.85,SSE,158,3.4,3.4,75,0.00,,,0.00,VWS V14.01,2013-08-28 12:15:00,
2013-08-28 22:16:00,68.4,60.1,29.85,SSE,158,3.4,3.4,75,0.00,,,0.00,VWS V14.01,2013-08-28 12:16:00,
2013-08-28 22:17:00,68.4,60.1,29.85,SSE,158,2.5,3.4,75,0.00,,,0.00,VWS V14.01,2013-08-28 12:17:00,
2013-08-28 22:18:00,68.4,60.1,29.85,SSE,158,2.5,2.5,75,0.00,,,0.00,VWS V14.01,2013-08-28 12:18:00,
2013-08-28 22:19:00,68.4,60.1,29.85,SSE,158,2.5,2.5,75,0.00,,,0.00,VWS V14.01,2013-08-28 12:19:00,
2013-08-28 22:20:00,68.4,60.1,29.85,SSE,158,2.0,2.5,75,0.00,,,0.00,VWS V14.01,2013-08-28 12:20:00,
2013-08-28 22:21:00,68.4,60.1,29.85,SSE,158,2.7,2.7,75,0.00,,,0.00,VWS V14.01,2013-08-28 12:21:00,
2013-08-28 22:22:00,68.4,60.1,29.85,SSE,158,3.4,3.4,75,0.00,,,0.00,VWS V14.01,2013-08-28 12:22:00,
2013-08-28 22:23:00,68.4,60.1,29.85,SSE,158,2.9,3.4,75,0.00,,,0.00,VWS V14.01,2013-08-28 12:23:00,
2013-08-28 22:24:00,68.5,60.3,29.85,SSE,158,2.2,2.9,75,0.00,,,0.00,VWS V14.01,2013-08-28 12:24:00,
2013-08-28 22:25:00,68.5,60.3,29.85,SSE,158,2.2,2.2,75,0.00,,,0.00,VWS V14.01,2013-08-28 12:25:00,
2013-08-28 22:26:00,68.5,60.3,29.85,SSE,158,2.2,2.2,75,0.00,,,0.00,VWS V14.01,2013-08-28 12:26:00,
2013-08-28 22:27:00,68.5,60.3,29.85,South,180,2.0,2.2,75,0.00,,,0.00,VWS V14.01,2013-08-28 12:27:00,
2013-08-28 22:28:00,68.5,60.3,29.85,South,180,2.0,2.0,75,0.00,,,0.00,VWS V14.01,2013-08-28 12:28:00,
2013-08-28 22:29:00,68.5,60.3,29.85,South,180,2.0,2.0,75,0.00,,,0.00,VWS V14.01,2013-08-28 12:29:00,
2013-08-28 22:30:00,68.5,60.3,29.85,South,180,2.0,2.0,75,0.00,,,0.00,VWS V14.01,2013-08-28 12:30:00,
2013-08-28 22:31:00,68.5,60.3,29.85,South,180,3.4,3.4,75,0.00,,,0.00,VWS V14.01,2013-08-28 12:31:00,
2013-08-28 22:32:00,68.4,60.1,29.85,SSE,158,3.8,3.8,75,0.00,,,0.00,VWS V14.01,2013-08-28 12:32:00,
2013-08-28 22:33:00,68.4,60.1,29.85,SSE,158,3.8,3.8,75,0.00,,,0.00,VWS V14.01,2013-08-28 12:33:00,
2013-08-28 22:34:00,68.4,60.1,29.85,SSW,202,3.4,3.8,75,0.00,,,0.00,VWS V14.01,2013-08-28 12:34:00,
2013-08-28 22:35:00,68.4,60.1,29.88,SSE,158,2.0,3.4,75,0.00,,,0.00,VWS V14.01,2013-08-28 12:35:00,
2013-08-28 22:36:00,68.2,60.3,29.88,SSE,158,2.0,2.0,76,0.00,,,0.00,VWS V14.01,2013-08-28 12:36:00,
2013-08-28 22:37:00,68.2,60.3,29.88,SSE,158,2.0,2.0,76,0.00,,,0.00,VWS V14.01,2013-08-28 12:37:00,
2013-08-28 22:38:00,68.2,60.3,29.88,SSE,158,2.0,2.0,76,0.00,,,0.00,VWS V14.01,2013-08-28 12:38:00,
2013-08-28 22:39:00,68.0,59.8,29.88,South,180,4.0,4.0,75,0.00,,,0.00,VWS V14.01,2013-08-28 12:39:00,
2013-08-28 22:40:00,68.0,60.2,29.88,SSE,158,3.1,4.0,76,0.00,,,0.00,VWS V14.01,2013-08-28 12:40:00,
2013-08-28 22:41:00,68.0,60.2,29.88,SSW,202,2.9,3.1,76,0.00,,,0.00,VWS V14.01,2013-08-28 12:41:00,
2013-08-28 22:42:00,68.0,60.2,29.88,SE,135,3.4,3.4,76,0.00,,,0.00,VWS V14.01,2013-08-28 12:42:00,
2013-08-28 22:43:00,68.0,60.2,29.88,SSE,158,2.0,3.4,76,0.00,,,0.00,VWS V14.01,2013-08-28 12:43:00,
2013-08-28 22:44:00,67.8,60.0,29.88,SSE,158,2.0,2.0,76,0.00,,,0.00,VWS V14.01,2013-08-28 12:44:00,
2013-08-28 22:45:00,67.8,60.0,29.88,South,180,3.1,3.1,76,0.00,,,0.00,VWS V14.01,2013-08-28 12:45:00,
2013-08-28 22:46:00,67.8,60.0,29.88,SSE,158,2.0,3.1,76,0.00,,,0.00,VWS V14.01,2013-08-28 12:46:00,
2013-08-28 22:47:00,68.0,60.2,29.88,South,180,2.5,2.5,76,0.00,,,0.00,VWS V14.01,2013-08-28 12:47:00,
2013-08-28 22:48:00,68.0,60.2,29.88,South,180,2.5,2.5,76,0.00,,,0.00,VWS V14.01,2013-08-28 12:48:00,
2013-08-28 22:49:00,67.8,60.0,29.88,South,180,3.1,3.1,76,0.00,,,0.00,VWS V14.01,2013-08-28 12:49:00,
2013-08-28 22:50:00,67.8,60.0,29.88,SSW,202,2.9,3.1,76,0.00,,,0.00,VWS V14.01,2013-08-28 12:50:00,
2013-08-28 22:51:00,67.8,60.0,29.88,SW,225,4.9,4.9,76,0.00,,,0.00,VWS V14.01,2013-08-28 12:51:00,
2013-08-28 22:52:00,67.8,60.0,29.88,SW,225,4.9,4.9,76,0.00,,,0.00,VWS V14.01,2013-08-28 12:52:00,
2013-08-28 22:53:00,67.6,59.8,29.88,SSE,158,3.4,4.9,76,0.00,,,0.00,VWS V14.01,2013-08-28 12:53:00,
2013-08-28 22:54:00,67.6,59.8,29.88,South,180,4.7,4.7,76,0.00,,,0.00,VWS V14.01,2013-08-28 12:54:00,
2013-08-28 22:56:00,67.6,59.8,29.88,SSW,202,3.8,4.7,76,0.00,,,0.00,VWS V14.01,2013-08-28 12:56:00,
2013-08-28 22:57:00,67.6,59.8,29.88,SSE,158,2.9,3.8,76,0.00,,,0.00,VWS V14.01,2013-08-28 12:57:00,
2013-08-28 22:58:00,67.6,59.8,29.88,SW,225,4.7,4.7,76,0.00,,,0.00,VWS V14.01,2013-08-28 12:58:00,
2013-08-28 22:59:00,67.6,59.8,29.88,South,180,3.4,4.7,76,0.00,,,0.00,VWS V14.01,2013-08-28 12:59:00,